<?xml version='1.0' encoding='UTF-8'?><gpx version="1.1" creator="JPX - https://github.com/jenetics/jpx" xmlns="http://www.topografix.com/GPX/1/1"><trk><trkseg><trkpt lat="42.4946023" lon="-8.457979"><ele>760.0</ele><time>2026-04-19T13:11:18.414Z</time></trkpt><trkpt lat="42.4946908" lon="-8.4579329"><ele>760.0</ele><time>2026-04-19T13:11:20.375Z</time></trkpt><trkpt lat="42.4947967" lon="-8.4578871"><ele>760.0</ele><time>2026-04-19T13:11:22.404Z</time></trkpt><trkpt lat="42.4949065" lon="-8.4579022"><ele>760.0</ele><time>2026-04-19T13:11:24.38Z</time></trkpt><trkpt lat="42.494995" lon="-8.4579472"><ele>760.0</ele><time>2026-04-19T13:11:26.415Z</time></trkpt><trkpt lat="42.495079" lon="-8.457989"><ele>760.0</ele><time>2026-04-19T13:11:28.385Z</time></trkpt><trkpt lat="42.4951525" lon="-8.4580279"><ele>760.0</ele><time>2026-04-19T13:11:30.38Z</time></trkpt><trkpt lat="42.4952412" lon="-8.4580731"><ele>760.0</ele><time>2026-04-19T13:11:32.421Z</time></trkpt><trkpt lat="42.495332" lon="-8.4581335"><ele>760.0</ele><time>2026-04-19T13:11:34.422Z</time></trkpt><trkpt lat="42.4954305" lon="-8.4582091"><ele>760.0</ele><time>2026-04-19T13:11:36.416Z</time></trkpt><trkpt lat="42.4955397" lon="-8.4583018"><ele>758.8333333333334</ele><time>2026-04-19T13:11:38.413Z</time></trkpt><trkpt lat="42.4956022" lon="-8.4583658"><ele>757.6666666666667</ele><time>2026-04-19T13:11:39.416Z</time></trkpt><trkpt lat="42.4956609" lon="-8.4584377"><ele>756.5</ele><time>2026-04-19T13:11:40.402Z</time></trkpt><trkpt lat="42.4957115" lon="-8.4585144"><ele>755.3333333333334</ele><time>2026-04-19T13:11:41.422Z</time></trkpt><trkpt lat="42.495756" lon="-8.4585953"><ele>754.1666666666666</ele><time>2026-04-19T13:11:42.416Z</time></trkpt><trkpt lat="42.4958319" lon="-8.4587146"><ele>753.0</ele><time>2026-04-19T13:11:44.419Z</time></trkpt><trkpt lat="42.4959405" lon="-8.4587624"><ele>753.0</ele><time>2026-04-19T13:11:46.403Z</time></trkpt><trkpt lat="42.4960084" lon="-8.4587544"><ele>753.0</ele><time>2026-04-19T13:11:47.424Z</time></trkpt><trkpt lat="42.4960855" lon="-8.4587314"><ele>753.0</ele><time>2026-04-19T13:11:48.423Z</time></trkpt><trkpt lat="42.496158" lon="-8.4587081"><ele>753.0</ele><time>2026-04-19T13:11:49.424Z</time></trkpt><trkpt lat="42.4962251" lon="-8.4586725"><ele>753.0</ele><time>2026-04-19T13:11:50.431Z</time></trkpt><trkpt lat="42.4963085" lon="-8.4585637"><ele>753.0</ele><time>2026-04-19T13:11:52.434Z</time></trkpt><trkpt lat="42.4963346" lon="-8.4584785"><ele>751.1666666666666</ele><time>2026-04-19T13:11:53.409Z</time></trkpt><trkpt lat="42.496365" lon="-8.4583838"><ele>749.3333333333334</ele><time>2026-04-19T13:11:54.421Z</time></trkpt><trkpt lat="42.4963904" lon="-8.4582875"><ele>747.5</ele><time>2026-04-19T13:11:55.441Z</time></trkpt><trkpt lat="42.4964293" lon="-8.4581575"><ele>745.6666666666667</ele><time>2026-04-19T13:11:57.425Z</time></trkpt><trkpt lat="42.4965072" lon="-8.4581163"><ele>743.8333333333334</ele><time>2026-04-19T13:12:00.44Z</time></trkpt><trkpt lat="42.4966088" lon="-8.4580808"><ele>742.0</ele><time>2026-04-19T13:12:02.439Z</time></trkpt><trkpt lat="42.4967202" lon="-8.4580254"><ele>742.0</ele><time>2026-04-19T13:12:04.432Z</time></trkpt><trkpt lat="42.4967788" lon="-8.457985"><ele>742.0</ele><time>2026-04-19T13:12:05.435Z</time></trkpt><trkpt lat="42.4968409" lon="-8.4579462"><ele>742.0</ele><time>2026-04-19T13:12:06.441Z</time></trkpt><trkpt lat="42.4969134" lon="-8.4579156"><ele>742.0</ele><time>2026-04-19T13:12:07.443Z</time></trkpt><trkpt lat="42.4969952" lon="-8.4578885"><ele>742.0</ele><time>2026-04-19T13:12:08.465Z</time></trkpt><trkpt lat="42.4970854" lon="-8.4578825"><ele>742.0</ele><time>2026-04-19T13:12:09.445Z</time></trkpt><trkpt lat="42.4971821" lon="-8.4578784"><ele>740.8333333333334</ele><time>2026-04-19T13:12:10.44Z</time></trkpt><trkpt lat="42.4972792" lon="-8.4578712"><ele>739.6666666666667</ele><time>2026-04-19T13:12:11.436Z</time></trkpt><trkpt lat="42.4973686" lon="-8.4578782"><ele>738.5</ele><time>2026-04-19T13:12:12.462Z</time></trkpt><trkpt lat="42.4974525" lon="-8.457901"><ele>737.3333333333334</ele><time>2026-04-19T13:12:13.452Z</time></trkpt><trkpt lat="42.4975285" lon="-8.4579255"><ele>736.1666666666666</ele><time>2026-04-19T13:12:14.455Z</time></trkpt><trkpt lat="42.4975861" lon="-8.4579776"><ele>735.0</ele><time>2026-04-19T13:12:15.447Z</time></trkpt><trkpt lat="42.4976439" lon="-8.4580697"><ele>733.0</ele><time>2026-04-19T13:12:16.447Z</time></trkpt><trkpt lat="42.4977034" lon="-8.458172"><ele>731.0</ele><time>2026-04-19T13:12:17.43Z</time></trkpt><trkpt lat="42.4977633" lon="-8.4582735"><ele>729.0</ele><time>2026-04-19T13:12:18.457Z</time></trkpt><trkpt lat="42.497822" lon="-8.4583683"><ele>727.0</ele><time>2026-04-19T13:12:19.461Z</time></trkpt><trkpt lat="42.4978732" lon="-8.458463"><ele>725.0</ele><time>2026-04-19T13:12:20.458Z</time></trkpt><trkpt lat="42.4979354" lon="-8.4585574"><ele>724.5</ele><time>2026-04-19T13:12:21.443Z</time></trkpt><trkpt lat="42.4980021" lon="-8.4586485"><ele>724.0</ele><time>2026-04-19T13:12:22.455Z</time></trkpt><trkpt lat="42.4980618" lon="-8.4587325"><ele>723.5</ele><time>2026-04-19T13:12:23.444Z</time></trkpt><trkpt lat="42.4981231" lon="-8.4588078"><ele>723.0</ele><time>2026-04-19T13:12:24.444Z</time></trkpt><trkpt lat="42.4981966" lon="-8.4588654"><ele>722.5</ele><time>2026-04-19T13:12:25.465Z</time></trkpt><trkpt lat="42.4982831" lon="-8.4589105"><ele>722.0</ele><time>2026-04-19T13:12:26.45Z</time></trkpt><trkpt lat="42.4983795" lon="-8.4589458"><ele>719.2</ele><time>2026-04-19T13:12:27.46Z</time></trkpt><trkpt lat="42.4984717" lon="-8.4589865"><ele>716.4000000000001</ele><time>2026-04-19T13:12:28.433Z</time></trkpt><trkpt lat="42.4985561" lon="-8.4590292"><ele>713.5999999999999</ele><time>2026-04-19T13:12:29.423Z</time></trkpt><trkpt lat="42.4986376" lon="-8.4590728"><ele>710.8</ele><time>2026-04-19T13:12:30.441Z</time></trkpt><trkpt lat="42.4987044" lon="-8.4591038"><ele>708.0</ele><time>2026-04-19T13:12:31.461Z</time></trkpt><trkpt lat="42.4988106" lon="-8.4591237"><ele>707.8</ele><time>2026-04-19T13:12:33.468Z</time></trkpt><trkpt lat="42.4989017" lon="-8.4590996"><ele>707.5999999999999</ele><time>2026-04-19T13:12:36.474Z</time></trkpt><trkpt lat="42.4989623" lon="-8.4590358"><ele>707.4000000000001</ele><time>2026-04-19T13:12:38.423Z</time></trkpt><trkpt lat="42.4990412" lon="-8.4588955"><ele>707.2</ele><time>2026-04-19T13:12:40.445Z</time></trkpt><trkpt lat="42.4990889" lon="-8.4587816"><ele>707.0</ele><time>2026-04-19T13:12:41.444Z</time></trkpt><trkpt lat="42.4991392" lon="-8.4586577"><ele>707.0</ele><time>2026-04-19T13:12:42.451Z</time></trkpt><trkpt lat="42.4991864" lon="-8.4585471"><ele>707.0</ele><time>2026-04-19T13:12:43.434Z</time></trkpt><trkpt lat="42.499218" lon="-8.458469"><ele>707.0</ele><time>2026-04-19T13:12:44.448Z</time></trkpt><trkpt lat="42.4992549" lon="-8.4583053"><ele>707.0</ele><time>2026-04-19T13:12:46.429Z</time></trkpt><trkpt lat="42.4992684" lon="-8.4582072"><ele>707.0</ele><time>2026-04-19T13:12:47.441Z</time></trkpt><trkpt lat="42.4992798" lon="-8.4580861"><ele>707.0</ele><time>2026-04-19T13:12:48.461Z</time></trkpt><trkpt lat="42.4992958" lon="-8.4579522"><ele>707.0</ele><time>2026-04-19T13:12:49.462Z</time></trkpt><trkpt lat="42.49932" lon="-8.4578273"><ele>707.0</ele><time>2026-04-19T13:12:50.471Z</time></trkpt><trkpt lat="42.4993404" lon="-8.4577289"><ele>707.0</ele><time>2026-04-19T13:12:51.468Z</time></trkpt><trkpt lat="42.499371" lon="-8.4575769"><ele>707.0</ele><time>2026-04-19T13:12:53.472Z</time></trkpt><trkpt lat="42.4993897" lon="-8.4574616"><ele>706.5</ele><time>2026-04-19T13:12:55.492Z</time></trkpt><trkpt lat="42.4993579" lon="-8.4572448"><ele>706.0</ele><time>2026-04-19T13:12:58.457Z</time></trkpt><trkpt lat="42.4993294" lon="-8.4571642"><ele>705.5</ele><time>2026-04-19T13:12:59.468Z</time></trkpt><trkpt lat="42.499285" lon="-8.4570898"><ele>705.0</ele><time>2026-04-19T13:13:00.467Z</time></trkpt><trkpt lat="42.4992343" lon="-8.4570204"><ele>704.5</ele><time>2026-04-19T13:13:01.464Z</time></trkpt><trkpt lat="42.4991817" lon="-8.4569634"><ele>704.0</ele><time>2026-04-19T13:13:02.391Z</time></trkpt><trkpt lat="42.4991225" lon="-8.4569072"><ele>704.8333333333333</ele><time>2026-04-19T13:13:03.367Z</time></trkpt><trkpt lat="42.4990557" lon="-8.4568561"><ele>705.6666666666666</ele><time>2026-04-19T13:13:04.391Z</time></trkpt><trkpt lat="42.4989899" lon="-8.4568065"><ele>706.5</ele><time>2026-04-19T13:13:05.369Z</time></trkpt><trkpt lat="42.4989292" lon="-8.4567557"><ele>707.3333333333334</ele><time>2026-04-19T13:13:06.359Z</time></trkpt><trkpt lat="42.4988709" lon="-8.4567098"><ele>708.1666666666667</ele><time>2026-04-19T13:13:07.403Z</time></trkpt><trkpt lat="42.498817" lon="-8.4566655"><ele>709.0</ele><time>2026-04-19T13:13:08.358Z</time></trkpt><trkpt lat="42.4987111" lon="-8.4565707"><ele>709.0</ele><time>2026-04-19T13:13:10.37Z</time></trkpt><trkpt lat="42.4986403" lon="-8.4565155"><ele>709.0</ele><time>2026-04-19T13:13:11.371Z</time></trkpt><trkpt lat="42.4985631" lon="-8.4564581"><ele>709.0</ele><time>2026-04-19T13:13:12.371Z</time></trkpt><trkpt lat="42.4984881" lon="-8.4563989"><ele>709.0</ele><time>2026-04-19T13:13:13.377Z</time></trkpt><trkpt lat="42.4984148" lon="-8.4563444"><ele>709.0</ele><time>2026-04-19T13:13:14.383Z</time></trkpt><trkpt lat="42.4983505" lon="-8.4562932"><ele>709.0</ele><time>2026-04-19T13:13:15.379Z</time></trkpt><trkpt lat="42.4982715" lon="-8.4562061"><ele>703.8000000000001</ele><time>2026-04-19T13:13:17.403Z</time></trkpt><trkpt lat="42.4981934" lon="-8.4561217"><ele>698.6</ele><time>2026-04-19T13:13:19.4Z</time></trkpt><trkpt lat="42.4981125" lon="-8.4560135"><ele>693.4</ele><time>2026-04-19T13:13:21.402Z</time></trkpt><trkpt lat="42.4980636" lon="-8.4559323"><ele>688.2</ele><time>2026-04-19T13:13:23.409Z</time></trkpt><trkpt lat="42.4981265" lon="-8.456023"><ele>683.0</ele><time>2026-04-19T13:13:35.418Z</time></trkpt><trkpt lat="42.4982097" lon="-8.4561061"><ele>683.0</ele><time>2026-04-19T13:13:37.393Z</time></trkpt><trkpt lat="42.4983069" lon="-8.4562349"><ele>683.0</ele><time>2026-04-19T13:13:39.429Z</time></trkpt><trkpt lat="42.4983706" lon="-8.4562984"><ele>683.0</ele><time>2026-04-19T13:13:40.422Z</time></trkpt><trkpt lat="42.4984459" lon="-8.4563615"><ele>683.0</ele><time>2026-04-19T13:13:41.401Z</time></trkpt><trkpt lat="42.4985198" lon="-8.4564192"><ele>683.0</ele><time>2026-04-19T13:13:42.412Z</time></trkpt><trkpt lat="42.498597" lon="-8.4564719"><ele>683.8</ele><time>2026-04-19T13:13:43.438Z</time></trkpt><trkpt lat="42.4986764" lon="-8.4565378"><ele>684.5999999999999</ele><time>2026-04-19T13:13:44.436Z</time></trkpt><trkpt lat="42.4987472" lon="-8.45661"><ele>685.4000000000001</ele><time>2026-04-19T13:13:45.433Z</time></trkpt><trkpt lat="42.4988284" lon="-8.456681"><ele>686.2</ele><time>2026-04-19T13:13:46.434Z</time></trkpt><trkpt lat="42.4989056" lon="-8.4567496"><ele>687.0</ele><time>2026-04-19T13:13:47.428Z</time></trkpt><trkpt lat="42.498981" lon="-8.4568122"><ele>687.0</ele><time>2026-04-19T13:13:48.422Z</time></trkpt><trkpt lat="42.4990568" lon="-8.4568687"><ele>687.0</ele><time>2026-04-19T13:13:49.434Z</time></trkpt><trkpt lat="42.4991349" lon="-8.4569324"><ele>687.0</ele><time>2026-04-19T13:13:50.438Z</time></trkpt><trkpt lat="42.4992089" lon="-8.4570009"><ele>687.0</ele><time>2026-04-19T13:13:51.439Z</time></trkpt><trkpt lat="42.4992737" lon="-8.457078"><ele>687.0</ele><time>2026-04-19T13:13:52.44Z</time></trkpt><trkpt lat="42.4993212" lon="-8.4571626"><ele>687.0</ele><time>2026-04-19T13:13:53.441Z</time></trkpt><trkpt lat="42.4993526" lon="-8.4572674"><ele>689.8333333333334</ele><time>2026-04-19T13:13:54.451Z</time></trkpt><trkpt lat="42.4993754" lon="-8.45738"><ele>692.6666666666666</ele><time>2026-04-19T13:13:55.439Z</time></trkpt><trkpt lat="42.4993743" lon="-8.4574967"><ele>695.5</ele><time>2026-04-19T13:13:56.453Z</time></trkpt><trkpt lat="42.4993574" lon="-8.457612"><ele>698.3333333333333</ele><time>2026-04-19T13:13:57.433Z</time></trkpt><trkpt lat="42.4993383" lon="-8.4577225"><ele>701.1666666666666</ele><time>2026-04-19T13:13:58.447Z</time></trkpt><trkpt lat="42.4993183" lon="-8.4578275"><ele>704.0</ele><time>2026-04-19T13:13:59.464Z</time></trkpt><trkpt lat="42.4992983" lon="-8.457942"><ele>704.6</ele><time>2026-04-19T13:14:00.454Z</time></trkpt><trkpt lat="42.499276" lon="-8.4580582"><ele>705.2</ele><time>2026-04-19T13:14:01.457Z</time></trkpt><trkpt lat="42.4992565" lon="-8.4581803"><ele>705.8000000000001</ele><time>2026-04-19T13:14:02.452Z</time></trkpt><trkpt lat="42.4992337" lon="-8.4583055"><ele>706.4000000000001</ele><time>2026-04-19T13:14:03.456Z</time></trkpt><trkpt lat="42.4992109" lon="-8.4584296"><ele>707.0</ele><time>2026-04-19T13:14:04.443Z</time></trkpt><trkpt lat="42.4991819" lon="-8.4585384"><ele>707.0</ele><time>2026-04-19T13:14:05.466Z</time></trkpt><trkpt lat="42.4991394" lon="-8.4586443"><ele>707.0</ele><time>2026-04-19T13:14:06.47Z</time></trkpt><trkpt lat="42.4990245" lon="-8.4588632"><ele>707.0</ele><time>2026-04-19T13:14:08.444Z</time></trkpt><trkpt lat="42.4989779" lon="-8.4589595"><ele>707.0</ele><time>2026-04-19T13:14:09.46Z</time></trkpt><trkpt lat="42.4989382" lon="-8.4590487"><ele>707.0</ele><time>2026-04-19T13:14:10.429Z</time></trkpt><trkpt lat="42.4988979" lon="-8.4591257"><ele>707.2</ele><time>2026-04-19T13:14:11.465Z</time></trkpt><trkpt lat="42.4988414" lon="-8.4592231"><ele>707.4000000000001</ele><time>2026-04-19T13:14:13.469Z</time></trkpt><trkpt lat="42.4987947" lon="-8.4592889"><ele>707.5999999999999</ele><time>2026-04-19T13:14:16.48Z</time></trkpt><trkpt lat="42.4987002" lon="-8.4593826"><ele>707.8</ele><time>2026-04-19T13:14:26.382Z</time></trkpt><trkpt lat="42.4986254" lon="-8.459435"><ele>708.0</ele><time>2026-04-19T13:14:27.389Z</time></trkpt><trkpt lat="42.4985348" lon="-8.459505"><ele>708.0</ele><time>2026-04-19T13:14:28.369Z</time></trkpt><trkpt lat="42.4984418" lon="-8.4595743"><ele>708.0</ele><time>2026-04-19T13:14:29.394Z</time></trkpt><trkpt lat="42.4983523" lon="-8.4596452"><ele>708.0</ele><time>2026-04-19T13:14:30.382Z</time></trkpt><trkpt lat="42.4982644" lon="-8.4597196"><ele>708.0</ele><time>2026-04-19T13:14:31.387Z</time></trkpt><trkpt lat="42.498178" lon="-8.459787"><ele>708.0</ele><time>2026-04-19T13:14:32.379Z</time></trkpt><trkpt lat="42.4980862" lon="-8.4598412"><ele>706.8</ele><time>2026-04-19T13:14:33.386Z</time></trkpt><trkpt lat="42.4979935" lon="-8.4598923"><ele>705.5999999999999</ele><time>2026-04-19T13:14:34.382Z</time></trkpt><trkpt lat="42.4978931" lon="-8.4599295"><ele>704.4000000000001</ele><time>2026-04-19T13:14:35.386Z</time></trkpt><trkpt lat="42.4977923" lon="-8.4599572"><ele>703.2</ele><time>2026-04-19T13:14:36.384Z</time></trkpt><trkpt lat="42.4977023" lon="-8.4600023"><ele>702.0</ele><time>2026-04-19T13:14:37.382Z</time></trkpt><trkpt lat="42.4976182" lon="-8.4600808"><ele>701.75</ele><time>2026-04-19T13:14:38.39Z</time></trkpt><trkpt lat="42.4975229" lon="-8.4601803"><ele>701.5</ele><time>2026-04-19T13:14:39.372Z</time></trkpt><trkpt lat="42.4974137" lon="-8.4602903"><ele>701.25</ele><time>2026-04-19T13:14:40.409Z</time></trkpt><trkpt lat="42.4973084" lon="-8.4603872"><ele>701.0</ele><time>2026-04-19T13:14:41.384Z</time></trkpt><trkpt lat="42.4972064" lon="-8.4604776"><ele>698.8</ele><time>2026-04-19T13:14:42.404Z</time></trkpt><trkpt lat="42.4971082" lon="-8.4605582"><ele>696.5999999999999</ele><time>2026-04-19T13:14:43.397Z</time></trkpt><trkpt lat="42.4970151" lon="-8.4606333"><ele>694.4</ele><time>2026-04-19T13:14:44.402Z</time></trkpt><trkpt lat="42.4969295" lon="-8.4607075"><ele>692.2</ele><time>2026-04-19T13:14:45.379Z</time></trkpt><trkpt lat="42.4968387" lon="-8.460775"><ele>690.0</ele><time>2026-04-19T13:14:46.399Z</time></trkpt><trkpt lat="42.4967365" lon="-8.4608506"><ele>690.0</ele><time>2026-04-19T13:14:47.369Z</time></trkpt><trkpt lat="42.4966201" lon="-8.4609182"><ele>690.0</ele><time>2026-04-19T13:14:48.401Z</time></trkpt><trkpt lat="42.496506" lon="-8.4609773"><ele>690.0</ele><time>2026-04-19T13:14:49.404Z</time></trkpt><trkpt lat="42.4963924" lon="-8.461024"><ele>690.0</ele><time>2026-04-19T13:14:50.412Z</time></trkpt><trkpt lat="42.4962754" lon="-8.4610543"><ele>691.0</ele><time>2026-04-19T13:14:51.409Z</time></trkpt><trkpt lat="42.496163" lon="-8.4610749"><ele>692.0</ele><time>2026-04-19T13:14:52.411Z</time></trkpt><trkpt lat="42.4960563" lon="-8.4610946"><ele>693.0</ele><time>2026-04-19T13:14:53.403Z</time></trkpt><trkpt lat="42.4959516" lon="-8.4611307"><ele>694.0</ele><time>2026-04-19T13:14:54.404Z</time></trkpt><trkpt lat="42.495839" lon="-8.4611798"><ele>695.0</ele><time>2026-04-19T13:14:55.411Z</time></trkpt><trkpt lat="42.495728" lon="-8.4612277"><ele>695.0</ele><time>2026-04-19T13:14:56.394Z</time></trkpt><trkpt lat="42.4956331" lon="-8.4612735"><ele>695.0</ele><time>2026-04-19T13:14:57.41Z</time></trkpt><trkpt lat="42.4955425" lon="-8.4613109"><ele>695.0</ele><time>2026-04-19T13:14:58.415Z</time></trkpt><trkpt lat="42.4954468" lon="-8.4613241"><ele>695.0</ele><time>2026-04-19T13:14:59.379Z</time></trkpt><trkpt lat="42.4953493" lon="-8.4613067"><ele>695.0</ele><time>2026-04-19T13:15:00.425Z</time></trkpt><trkpt lat="42.4952417" lon="-8.4612781"><ele>692.75</ele><time>2026-04-19T13:15:01.408Z</time></trkpt><trkpt lat="42.495125" lon="-8.4612385"><ele>690.5</ele><time>2026-04-19T13:15:02.421Z</time></trkpt><trkpt lat="42.4950063" lon="-8.4611877"><ele>688.25</ele><time>2026-04-19T13:15:03.413Z</time></trkpt><trkpt lat="42.4948803" lon="-8.4611186"><ele>686.0</ele><time>2026-04-19T13:15:04.403Z</time></trkpt><trkpt lat="42.4947597" lon="-8.4610405"><ele>686.0</ele><time>2026-04-19T13:15:05.425Z</time></trkpt><trkpt lat="42.4946452" lon="-8.4609595"><ele>686.0</ele><time>2026-04-19T13:15:06.431Z</time></trkpt><trkpt lat="42.4945298" lon="-8.4608986"><ele>686.0</ele><time>2026-04-19T13:15:07.41Z</time></trkpt><trkpt lat="42.4944085" lon="-8.4608641"><ele>686.0</ele><time>2026-04-19T13:15:08.388Z</time></trkpt><trkpt lat="42.494274" lon="-8.4608454"><ele>683.5</ele><time>2026-04-19T13:15:09.402Z</time></trkpt><trkpt lat="42.4941384" lon="-8.4608446"><ele>681.0</ele><time>2026-04-19T13:15:10.429Z</time></trkpt><trkpt lat="42.4940131" lon="-8.4608288"><ele>678.5</ele><time>2026-04-19T13:15:11.42Z</time></trkpt><trkpt lat="42.4938917" lon="-8.4607994"><ele>676.0</ele><time>2026-04-19T13:15:12.397Z</time></trkpt><trkpt lat="42.4937711" lon="-8.4607513"><ele>673.5</ele><time>2026-04-19T13:15:13.456Z</time></trkpt><trkpt lat="42.4936429" lon="-8.4606989"><ele>671.0</ele><time>2026-04-19T13:15:14.401Z</time></trkpt><trkpt lat="42.4935112" lon="-8.4606333"><ele>668.5</ele><time>2026-04-19T13:15:15.432Z</time></trkpt><trkpt lat="42.4933879" lon="-8.4605613"><ele>666.0</ele><time>2026-04-19T13:15:16.42Z</time></trkpt><trkpt lat="42.4932734" lon="-8.4604874"><ele>668.0</ele><time>2026-04-19T13:15:17.421Z</time></trkpt><trkpt lat="42.4931694" lon="-8.460417"><ele>670.0</ele><time>2026-04-19T13:15:18.44Z</time></trkpt><trkpt lat="42.4930557" lon="-8.4603714"><ele>672.0</ele><time>2026-04-19T13:15:19.433Z</time></trkpt><trkpt lat="42.4929429" lon="-8.4603383"><ele>674.0</ele><time>2026-04-19T13:15:20.433Z</time></trkpt><trkpt lat="42.4928339" lon="-8.4603063"><ele>674.0</ele><time>2026-04-19T13:15:21.399Z</time></trkpt><trkpt lat="42.4927268" lon="-8.4602737"><ele>674.0</ele><time>2026-04-19T13:15:22.421Z</time></trkpt><trkpt lat="42.4926198" lon="-8.4602362"><ele>674.0</ele><time>2026-04-19T13:15:23.438Z</time></trkpt><trkpt lat="42.4925194" lon="-8.4601977"><ele>674.0</ele><time>2026-04-19T13:15:24.438Z</time></trkpt><trkpt lat="42.4924262" lon="-8.4601627"><ele>674.0</ele><time>2026-04-19T13:15:25.437Z</time></trkpt><trkpt lat="42.4923397" lon="-8.46014"><ele>674.0</ele><time>2026-04-19T13:15:26.421Z</time></trkpt><trkpt lat="42.4922709" lon="-8.4601352"><ele>674.0</ele><time>2026-04-19T13:15:27.42Z</time></trkpt><trkpt lat="42.4921782" lon="-8.4601518"><ele>674.0</ele><time>2026-04-19T13:15:29.422Z</time></trkpt><trkpt lat="42.4920965" lon="-8.4601859"><ele>674.0</ele><time>2026-04-19T13:15:31.422Z</time></trkpt><trkpt lat="42.4920241" lon="-8.4602387"><ele>674.0</ele><time>2026-04-19T13:15:33.45Z</time></trkpt><trkpt lat="42.4919681" lon="-8.4602851"><ele>674.0</ele><time>2026-04-19T13:15:36.446Z</time></trkpt><trkpt lat="42.4919522" lon="-8.4603923"><ele>670.25</ele><time>2026-04-19T13:15:59.467Z</time></trkpt><trkpt lat="42.4920456" lon="-8.4604859"><ele>666.5</ele><time>2026-04-19T13:16:01.444Z</time></trkpt><trkpt lat="42.4921506" lon="-8.4605271"><ele>662.75</ele><time>2026-04-19T13:16:02.473Z</time></trkpt><trkpt lat="42.4922851" lon="-8.4605631"><ele>659.0</ele><time>2026-04-19T13:16:03.469Z</time></trkpt><trkpt lat="42.4924415" lon="-8.4606089"><ele>659.0</ele><time>2026-04-19T13:16:04.456Z</time></trkpt><trkpt lat="42.4926161" lon="-8.460683"><ele>659.0</ele><time>2026-04-19T13:16:05.462Z</time></trkpt><trkpt lat="42.4927964" lon="-8.4607846"><ele>659.0</ele><time>2026-04-19T13:16:06.461Z</time></trkpt><trkpt lat="42.4929511" lon="-8.4609115"><ele>661.3333333333333</ele><time>2026-04-19T13:16:07.464Z</time></trkpt><trkpt lat="42.4930901" lon="-8.4610295"><ele>663.6666666666666</ele><time>2026-04-19T13:16:08.459Z</time></trkpt><trkpt lat="42.4932264" lon="-8.4611417"><ele>666.0</ele><time>2026-04-19T13:16:09.441Z</time></trkpt><trkpt lat="42.493345" lon="-8.4612423"><ele>663.5</ele><time>2026-04-19T13:16:10.463Z</time></trkpt><trkpt lat="42.4934719" lon="-8.461329"><ele>661.0</ele><time>2026-04-19T13:16:11.475Z</time></trkpt><trkpt lat="42.4935968" lon="-8.4614066"><ele>658.5</ele><time>2026-04-19T13:16:12.466Z</time></trkpt><trkpt lat="42.4937146" lon="-8.4614766"><ele>656.0</ele><time>2026-04-19T13:16:13.482Z</time></trkpt><trkpt lat="42.493828" lon="-8.4615473"><ele>656.0</ele><time>2026-04-19T13:16:14.472Z</time></trkpt><trkpt lat="42.4939387" lon="-8.461611"><ele>656.0</ele><time>2026-04-19T13:16:15.471Z</time></trkpt><trkpt lat="42.4940485" lon="-8.4616752"><ele>656.0</ele><time>2026-04-19T13:16:16.475Z</time></trkpt><trkpt lat="42.4941476" lon="-8.461744"><ele>656.0</ele><time>2026-04-19T13:16:17.377Z</time></trkpt><trkpt lat="42.4942488" lon="-8.4618113"><ele>656.0</ele><time>2026-04-19T13:16:18.376Z</time></trkpt><trkpt lat="42.4943438" lon="-8.4618774"><ele>656.0</ele><time>2026-04-19T13:16:19.356Z</time></trkpt><trkpt lat="42.4944306" lon="-8.4619493"><ele>656.0</ele><time>2026-04-19T13:16:20.357Z</time></trkpt><trkpt lat="42.49451" lon="-8.4620216"><ele>656.0</ele><time>2026-04-19T13:16:21.375Z</time></trkpt><trkpt lat="42.4945863" lon="-8.4620954"><ele>656.0</ele><time>2026-04-19T13:16:22.388Z</time></trkpt><trkpt lat="42.4946603" lon="-8.4621685"><ele>654.8333333333333</ele><time>2026-04-19T13:16:23.376Z</time></trkpt><trkpt lat="42.4947304" lon="-8.4622382"><ele>653.6666666666666</ele><time>2026-04-19T13:16:24.388Z</time></trkpt><trkpt lat="42.4947978" lon="-8.4623006"><ele>652.5</ele><time>2026-04-19T13:16:25.367Z</time></trkpt><trkpt lat="42.4948613" lon="-8.4623611"><ele>651.3333333333334</ele><time>2026-04-19T13:16:26.386Z</time></trkpt><trkpt lat="42.4949189" lon="-8.4624207"><ele>650.1666666666667</ele><time>2026-04-19T13:16:27.379Z</time></trkpt><trkpt lat="42.4949776" lon="-8.4624776"><ele>649.0</ele><time>2026-04-19T13:16:28.379Z</time></trkpt><trkpt lat="42.4950314" lon="-8.4625352"><ele>649.0</ele><time>2026-04-19T13:16:29.376Z</time></trkpt><trkpt lat="42.4950882" lon="-8.4625891"><ele>649.0</ele><time>2026-04-19T13:16:30.364Z</time></trkpt><trkpt lat="42.4951452" lon="-8.4626412"><ele>649.0</ele><time>2026-04-19T13:16:31.38Z</time></trkpt><trkpt lat="42.4951989" lon="-8.4626926"><ele>649.0</ele><time>2026-04-19T13:16:32.384Z</time></trkpt><trkpt lat="42.4952504" lon="-8.4627435"><ele>649.0</ele><time>2026-04-19T13:16:33.4Z</time></trkpt><trkpt lat="42.4953457" lon="-8.4628372"><ele>649.0</ele><time>2026-04-19T13:16:35.375Z</time></trkpt><trkpt lat="42.4954292" lon="-8.4629111"><ele>646.6666666666667</ele><time>2026-04-19T13:16:37.392Z</time></trkpt><trkpt lat="42.4955151" lon="-8.4629875"><ele>644.3333333333334</ele><time>2026-04-19T13:16:39.382Z</time></trkpt><trkpt lat="42.4955721" lon="-8.4630259"><ele>642.0</ele><time>2026-04-19T13:16:40.381Z</time></trkpt><trkpt lat="42.4956446" lon="-8.4630452"><ele>639.6666666666666</ele><time>2026-04-19T13:16:41.379Z</time></trkpt><trkpt lat="42.4957385" lon="-8.4630387"><ele>637.3333333333333</ele><time>2026-04-19T13:16:42.374Z</time></trkpt><trkpt lat="42.4958393" lon="-8.4630145"><ele>635.0</ele><time>2026-04-19T13:16:43.391Z</time></trkpt><trkpt lat="42.4959283" lon="-8.4629808"><ele>636.8333333333333</ele><time>2026-04-19T13:16:44.415Z</time></trkpt><trkpt lat="42.4960056" lon="-8.4629392"><ele>638.6666666666666</ele><time>2026-04-19T13:16:45.388Z</time></trkpt><trkpt lat="42.4960786" lon="-8.4628818"><ele>640.5</ele><time>2026-04-19T13:16:46.397Z</time></trkpt><trkpt lat="42.4961372" lon="-8.4628252"><ele>642.3333333333334</ele><time>2026-04-19T13:16:47.389Z</time></trkpt><trkpt lat="42.4961968" lon="-8.4627553"><ele>644.1666666666667</ele><time>2026-04-19T13:16:48.397Z</time></trkpt><trkpt lat="42.4962554" lon="-8.4626767"><ele>646.0</ele><time>2026-04-19T13:16:49.392Z</time></trkpt><trkpt lat="42.4963201" lon="-8.4626108"><ele>646.0</ele><time>2026-04-19T13:16:50.376Z</time></trkpt><trkpt lat="42.4963934" lon="-8.4625627"><ele>646.0</ele><time>2026-04-19T13:16:51.413Z</time></trkpt><trkpt lat="42.4964756" lon="-8.462532"><ele>646.0</ele><time>2026-04-19T13:16:52.403Z</time></trkpt><trkpt lat="42.4965537" lon="-8.4625158"><ele>646.0</ele><time>2026-04-19T13:16:53.39Z</time></trkpt><trkpt lat="42.4966257" lon="-8.4625022"><ele>646.0</ele><time>2026-04-19T13:16:54.394Z</time></trkpt><trkpt lat="42.4967142" lon="-8.4624849"><ele>646.0</ele><time>2026-04-19T13:16:55.391Z</time></trkpt><trkpt lat="42.4968312" lon="-8.4624554"><ele>646.0</ele><time>2026-04-19T13:16:56.39Z</time></trkpt><trkpt lat="42.496955" lon="-8.4624207"><ele>646.0</ele><time>2026-04-19T13:16:57.401Z</time></trkpt><trkpt lat="42.4970746" lon="-8.4623862"><ele>646.0</ele><time>2026-04-19T13:16:58.4Z</time></trkpt><trkpt lat="42.4971933" lon="-8.4623372"><ele>646.0</ele><time>2026-04-19T13:16:59.402Z</time></trkpt><trkpt lat="42.4973021" lon="-8.4623175"><ele>643.75</ele><time>2026-04-19T13:17:00.432Z</time></trkpt><trkpt lat="42.4974101" lon="-8.4623489"><ele>641.5</ele><time>2026-04-19T13:17:01.398Z</time></trkpt><trkpt lat="42.497513" lon="-8.4624497"><ele>639.25</ele><time>2026-04-19T13:17:02.417Z</time></trkpt><trkpt lat="42.4976109" lon="-8.46258"><ele>637.0</ele><time>2026-04-19T13:17:03.419Z</time></trkpt><trkpt lat="42.4977219" lon="-8.4627127"><ele>637.0</ele><time>2026-04-19T13:17:04.419Z</time></trkpt><trkpt lat="42.4978371" lon="-8.4628384"><ele>637.0</ele><time>2026-04-19T13:17:05.408Z</time></trkpt><trkpt lat="42.497978" lon="-8.462942"><ele>637.0</ele><time>2026-04-19T13:17:06.412Z</time></trkpt><trkpt lat="42.4981284" lon="-8.4630254"><ele>631.3333333333334</ele><time>2026-04-19T13:17:07.411Z</time></trkpt><trkpt lat="42.4982837" lon="-8.4630965"><ele>625.6666666666666</ele><time>2026-04-19T13:17:08.416Z</time></trkpt><trkpt lat="42.4984487" lon="-8.4631416"><ele>620.0</ele><time>2026-04-19T13:17:09.411Z</time></trkpt><trkpt lat="42.4986094" lon="-8.4631594"><ele>619.25</ele><time>2026-04-19T13:17:10.421Z</time></trkpt><trkpt lat="42.498753" lon="-8.463161"><ele>618.5</ele><time>2026-04-19T13:17:11.422Z</time></trkpt><trkpt lat="42.4989051" lon="-8.4631363"><ele>617.75</ele><time>2026-04-19T13:17:12.426Z</time></trkpt><trkpt lat="42.4990513" lon="-8.4631063"><ele>617.0</ele><time>2026-04-19T13:17:13.419Z</time></trkpt><trkpt lat="42.4991958" lon="-8.4630762"><ele>617.0</ele><time>2026-04-19T13:17:14.424Z</time></trkpt><trkpt lat="42.4993468" lon="-8.4630433"><ele>617.0</ele><time>2026-04-19T13:17:15.417Z</time></trkpt><trkpt lat="42.4995053" lon="-8.4630081"><ele>617.0</ele><time>2026-04-19T13:17:16.415Z</time></trkpt><trkpt lat="42.4996647" lon="-8.4629737"><ele>614.3333333333333</ele><time>2026-04-19T13:17:17.414Z</time></trkpt><trkpt lat="42.4998237" lon="-8.4629421"><ele>611.6666666666666</ele><time>2026-04-19T13:17:18.417Z</time></trkpt><trkpt lat="42.499973" lon="-8.462934"><ele>609.0</ele><time>2026-04-19T13:17:19.418Z</time></trkpt><trkpt lat="42.5001305" lon="-8.4629484"><ele>609.0</ele><time>2026-04-19T13:17:20.428Z</time></trkpt><trkpt lat="42.5002942" lon="-8.4629755"><ele>609.0</ele><time>2026-04-19T13:17:21.422Z</time></trkpt><trkpt lat="42.5004583" lon="-8.4630168"><ele>609.0</ele><time>2026-04-19T13:17:22.429Z</time></trkpt><trkpt lat="42.5006117" lon="-8.4630767"><ele>608.5</ele><time>2026-04-19T13:17:23.426Z</time></trkpt><trkpt lat="42.5007528" lon="-8.4631412"><ele>608.0</ele><time>2026-04-19T13:17:24.421Z</time></trkpt><trkpt lat="42.5008933" lon="-8.4631961"><ele>607.5</ele><time>2026-04-19T13:17:25.422Z</time></trkpt><trkpt lat="42.501041" lon="-8.4632485"><ele>607.0</ele><time>2026-04-19T13:17:26.417Z</time></trkpt><trkpt lat="42.5011937" lon="-8.4632971"><ele>608.3333333333334</ele><time>2026-04-19T13:17:27.416Z</time></trkpt><trkpt lat="42.5013548" lon="-8.4633393"><ele>609.6666666666666</ele><time>2026-04-19T13:17:28.393Z</time></trkpt><trkpt lat="42.5015099" lon="-8.4633782"><ele>611.0</ele><time>2026-04-19T13:17:29.427Z</time></trkpt><trkpt lat="42.5016559" lon="-8.4634109"><ele>611.0</ele><time>2026-04-19T13:17:30.425Z</time></trkpt><trkpt lat="42.5017997" lon="-8.4634391"><ele>611.0</ele><time>2026-04-19T13:17:31.422Z</time></trkpt><trkpt lat="42.5019412" lon="-8.4634597"><ele>611.0</ele><time>2026-04-19T13:17:32.401Z</time></trkpt><trkpt lat="42.5020855" lon="-8.4634576"><ele>611.0</ele><time>2026-04-19T13:17:33.425Z</time></trkpt><trkpt lat="42.5022355" lon="-8.463435"><ele>607.6666666666666</ele><time>2026-04-19T13:17:34.438Z</time></trkpt><trkpt lat="42.5023893" lon="-8.463384"><ele>604.3333333333334</ele><time>2026-04-19T13:17:35.442Z</time></trkpt><trkpt lat="42.5025363" lon="-8.4633084"><ele>601.0</ele><time>2026-04-19T13:17:36.422Z</time></trkpt><trkpt lat="42.5026669" lon="-8.4632236"><ele>601.0</ele><time>2026-04-19T13:17:37.433Z</time></trkpt><trkpt lat="42.5027923" lon="-8.4631391"><ele>601.0</ele><time>2026-04-19T13:17:38.41Z</time></trkpt><trkpt lat="42.5029117" lon="-8.4630505"><ele>601.0</ele><time>2026-04-19T13:17:39.427Z</time></trkpt><trkpt lat="42.5030267" lon="-8.462963"><ele>601.0</ele><time>2026-04-19T13:17:40.431Z</time></trkpt><trkpt lat="42.5031331" lon="-8.4628848"><ele>601.75</ele><time>2026-04-19T13:17:41.429Z</time></trkpt><trkpt lat="42.5032401" lon="-8.4628188"><ele>602.5</ele><time>2026-04-19T13:17:42.44Z</time></trkpt><trkpt lat="42.5033547" lon="-8.4627688"><ele>603.25</ele><time>2026-04-19T13:17:43.431Z</time></trkpt><trkpt lat="42.5034717" lon="-8.462741"><ele>604.0</ele><time>2026-04-19T13:17:44.439Z</time></trkpt><trkpt lat="42.5035889" lon="-8.4627326"><ele>604.0</ele><time>2026-04-19T13:17:45.448Z</time></trkpt><trkpt lat="42.5037013" lon="-8.462751"><ele>604.0</ele><time>2026-04-19T13:17:46.439Z</time></trkpt><trkpt lat="42.5038166" lon="-8.4628163"><ele>604.0</ele><time>2026-04-19T13:17:47.444Z</time></trkpt><trkpt lat="42.5039425" lon="-8.4628993"><ele>604.0</ele><time>2026-04-19T13:17:48.439Z</time></trkpt><trkpt lat="42.5040645" lon="-8.4629809"><ele>598.25</ele><time>2026-04-19T13:17:49.447Z</time></trkpt><trkpt lat="42.5041815" lon="-8.4630614"><ele>592.5</ele><time>2026-04-19T13:17:50.445Z</time></trkpt><trkpt lat="42.5042992" lon="-8.4631334"><ele>586.75</ele><time>2026-04-19T13:17:51.443Z</time></trkpt><trkpt lat="42.5044179" lon="-8.4631867"><ele>581.0</ele><time>2026-04-19T13:17:52.46Z</time></trkpt><trkpt lat="42.5045411" lon="-8.4632254"><ele>580.25</ele><time>2026-04-19T13:17:53.436Z</time></trkpt><trkpt lat="42.5046698" lon="-8.4632391"><ele>579.5</ele><time>2026-04-19T13:17:54.464Z</time></trkpt><trkpt lat="42.5048068" lon="-8.4632334"><ele>578.75</ele><time>2026-04-19T13:17:55.463Z</time></trkpt><trkpt lat="42.5049537" lon="-8.463228"><ele>578.0</ele><time>2026-04-19T13:17:56.431Z</time></trkpt><trkpt lat="42.5051023" lon="-8.4632334"><ele>578.0</ele><time>2026-04-19T13:17:57.452Z</time></trkpt><trkpt lat="42.505245" lon="-8.4632415"><ele>578.0</ele><time>2026-04-19T13:17:58.445Z</time></trkpt><trkpt lat="42.5053836" lon="-8.4632326"><ele>578.0</ele><time>2026-04-19T13:17:59.448Z</time></trkpt><trkpt lat="42.5055211" lon="-8.4631912"><ele>578.0</ele><time>2026-04-19T13:18:00.449Z</time></trkpt><trkpt lat="42.5056542" lon="-8.4631148"><ele>577.75</ele><time>2026-04-19T13:18:01.452Z</time></trkpt><trkpt lat="42.5057765" lon="-8.4630034"><ele>577.5</ele><time>2026-04-19T13:18:02.477Z</time></trkpt><trkpt lat="42.5058916" lon="-8.4628697"><ele>577.25</ele><time>2026-04-19T13:18:03.432Z</time></trkpt><trkpt lat="42.5059886" lon="-8.4627136"><ele>577.0</ele><time>2026-04-19T13:18:04.478Z</time></trkpt><trkpt lat="42.506062" lon="-8.4625442"><ele>577.0</ele><time>2026-04-19T13:18:05.438Z</time></trkpt><trkpt lat="42.5061193" lon="-8.462355"><ele>577.0</ele><time>2026-04-19T13:18:06.462Z</time></trkpt><trkpt lat="42.5061629" lon="-8.4621367"><ele>577.0</ele><time>2026-04-19T13:18:07.474Z</time></trkpt><trkpt lat="42.5061982" lon="-8.4619258"><ele>578.0</ele><time>2026-04-19T13:18:08.443Z</time></trkpt><trkpt lat="42.5062323" lon="-8.4617191"><ele>579.0</ele><time>2026-04-19T13:18:09.456Z</time></trkpt><trkpt lat="42.5062641" lon="-8.4615266"><ele>580.0</ele><time>2026-04-19T13:18:10.466Z</time></trkpt><trkpt lat="42.5062994" lon="-8.4613397"><ele>581.0</ele><time>2026-04-19T13:18:11.424Z</time></trkpt><trkpt lat="42.5063385" lon="-8.4611586"><ele>575.75</ele><time>2026-04-19T13:18:12.448Z</time></trkpt><trkpt lat="42.5063812" lon="-8.4609769"><ele>570.5</ele><time>2026-04-19T13:18:13.46Z</time></trkpt><trkpt lat="42.5064267" lon="-8.460804"><ele>565.25</ele><time>2026-04-19T13:18:14.433Z</time></trkpt><trkpt lat="42.5064733" lon="-8.460644"><ele>560.0</ele><time>2026-04-19T13:18:15.466Z</time></trkpt><trkpt lat="42.5065214" lon="-8.4605127"><ele>562.0</ele><time>2026-04-19T13:18:16.458Z</time></trkpt><trkpt lat="42.5065982" lon="-8.4604335"><ele>564.0</ele><time>2026-04-19T13:18:17.447Z</time></trkpt><trkpt lat="42.5066985" lon="-8.4604013"><ele>566.0</ele><time>2026-04-19T13:18:18.453Z</time></trkpt><trkpt lat="42.5068223" lon="-8.460404"><ele>568.0</ele><time>2026-04-19T13:18:19.452Z</time></trkpt><trkpt lat="42.5069585" lon="-8.4604077"><ele>563.75</ele><time>2026-04-19T13:18:20.466Z</time></trkpt><trkpt lat="42.5071028" lon="-8.4603739"><ele>559.5</ele><time>2026-04-19T13:18:21.45Z</time></trkpt><trkpt lat="42.5072468" lon="-8.4602985"><ele>555.25</ele><time>2026-04-19T13:18:22.435Z</time></trkpt><trkpt lat="42.5073824" lon="-8.4602176"><ele>551.0</ele><time>2026-04-19T13:18:23.476Z</time></trkpt><trkpt lat="42.5075106" lon="-8.4601081"><ele>551.0</ele><time>2026-04-19T13:18:24.45Z</time></trkpt><trkpt lat="42.5076302" lon="-8.4599636"><ele>551.0</ele><time>2026-04-19T13:18:25.464Z</time></trkpt><trkpt lat="42.5077423" lon="-8.4598169"><ele>551.0</ele><time>2026-04-19T13:18:26.461Z</time></trkpt><trkpt lat="42.5078464" lon="-8.459671"><ele>548.5</ele><time>2026-04-19T13:18:27.473Z</time></trkpt><trkpt lat="42.5079519" lon="-8.4595349"><ele>546.0</ele><time>2026-04-19T13:18:28.476Z</time></trkpt><trkpt lat="42.5080583" lon="-8.459406"><ele>543.5</ele><time>2026-04-19T13:18:29.448Z</time></trkpt><trkpt lat="42.508157" lon="-8.4592872"><ele>541.0</ele><time>2026-04-19T13:18:30.475Z</time></trkpt><trkpt lat="42.5082604" lon="-8.4591728"><ele>541.0</ele><time>2026-04-19T13:18:31.485Z</time></trkpt><trkpt lat="42.5083631" lon="-8.4590559"><ele>541.0</ele><time>2026-04-19T13:18:32.485Z</time></trkpt><trkpt lat="42.5084537" lon="-8.4589288"><ele>541.0</ele><time>2026-04-19T13:18:33.462Z</time></trkpt><trkpt lat="42.5085231" lon="-8.4587779"><ele>541.0</ele><time>2026-04-19T13:18:34.455Z</time></trkpt><trkpt lat="42.5085662" lon="-8.4586072"><ele>542.3333333333334</ele><time>2026-04-19T13:18:35.455Z</time></trkpt><trkpt lat="42.5085927" lon="-8.4584373"><ele>543.6666666666666</ele><time>2026-04-19T13:18:36.468Z</time></trkpt><trkpt lat="42.5086185" lon="-8.4581072"><ele>545.0</ele><time>2026-04-19T13:18:38.381Z</time></trkpt><trkpt lat="42.5086121" lon="-8.4579301"><ele>545.0</ele><time>2026-04-19T13:18:39.375Z</time></trkpt><trkpt lat="42.5085813" lon="-8.4577235"><ele>545.0</ele><time>2026-04-19T13:18:40.376Z</time></trkpt><trkpt lat="42.5085398" lon="-8.45749"><ele>545.0</ele><time>2026-04-19T13:18:41.379Z</time></trkpt><trkpt lat="42.508495" lon="-8.4572468"><ele>543.6666666666666</ele><time>2026-04-19T13:18:42.37Z</time></trkpt><trkpt lat="42.5084606" lon="-8.4569913"><ele>542.3333333333334</ele><time>2026-04-19T13:18:43.361Z</time></trkpt><trkpt lat="42.5084277" lon="-8.4567533"><ele>541.0</ele><time>2026-04-19T13:18:44.382Z</time></trkpt><trkpt lat="42.5084019" lon="-8.4565268"><ele>541.0</ele><time>2026-04-19T13:18:45.389Z</time></trkpt><trkpt lat="42.5083999" lon="-8.4563159"><ele>541.0</ele><time>2026-04-19T13:18:46.376Z</time></trkpt><trkpt lat="42.5084237" lon="-8.4561289"><ele>541.0</ele><time>2026-04-19T13:18:47.37Z</time></trkpt><trkpt lat="42.5084883" lon="-8.4559505"><ele>541.0</ele><time>2026-04-19T13:18:48.377Z</time></trkpt><trkpt lat="42.5085869" lon="-8.4557772"><ele>542.0</ele><time>2026-04-19T13:18:49.372Z</time></trkpt><trkpt lat="42.5086939" lon="-8.4556012"><ele>543.0</ele><time>2026-04-19T13:18:50.396Z</time></trkpt><trkpt lat="42.508789" lon="-8.4554212"><ele>544.0</ele><time>2026-04-19T13:18:51.399Z</time></trkpt><trkpt lat="42.5088782" lon="-8.4552627"><ele>541.75</ele><time>2026-04-19T13:18:52.393Z</time></trkpt><trkpt lat="42.5089583" lon="-8.4551209"><ele>539.5</ele><time>2026-04-19T13:18:53.407Z</time></trkpt><trkpt lat="42.5090341" lon="-8.4550113"><ele>537.25</ele><time>2026-04-19T13:18:54.432Z</time></trkpt><trkpt lat="42.5091248" lon="-8.4549447"><ele>535.0</ele><time>2026-04-19T13:18:55.383Z</time></trkpt><trkpt lat="42.5092399" lon="-8.4549335"><ele>535.0</ele><time>2026-04-19T13:18:56.39Z</time></trkpt><trkpt lat="42.5093867" lon="-8.454967"><ele>535.0</ele><time>2026-04-19T13:18:57.377Z</time></trkpt><trkpt lat="42.5095442" lon="-8.4550243"><ele>535.0</ele><time>2026-04-19T13:18:58.387Z</time></trkpt><trkpt lat="42.5096957" lon="-8.4550522"><ele>534.5</ele><time>2026-04-19T13:18:59.413Z</time></trkpt><trkpt lat="42.5098244" lon="-8.4550299"><ele>534.0</ele><time>2026-04-19T13:19:00.396Z</time></trkpt><trkpt lat="42.5099627" lon="-8.4549659"><ele>533.5</ele><time>2026-04-19T13:19:01.395Z</time></trkpt><trkpt lat="42.5101102" lon="-8.4549033"><ele>533.0</ele><time>2026-04-19T13:19:02.398Z</time></trkpt><trkpt lat="42.5102447" lon="-8.454885"><ele>533.0</ele><time>2026-04-19T13:19:03.396Z</time></trkpt><trkpt lat="42.510398" lon="-8.454918"><ele>533.0</ele><time>2026-04-19T13:19:04.396Z</time></trkpt><trkpt lat="42.5105763" lon="-8.4549612"><ele>533.0</ele><time>2026-04-19T13:19:05.391Z</time></trkpt><trkpt lat="42.5107615" lon="-8.4550036"><ele>532.6666666666666</ele><time>2026-04-19T13:19:06.401Z</time></trkpt><trkpt lat="42.5109389" lon="-8.4550456"><ele>532.3333333333334</ele><time>2026-04-19T13:19:07.401Z</time></trkpt><trkpt lat="42.5111062" lon="-8.4550836"><ele>532.0</ele><time>2026-04-19T13:19:08.4Z</time></trkpt><trkpt lat="42.5112669" lon="-8.4551271"><ele>532.0</ele><time>2026-04-19T13:19:09.399Z</time></trkpt><trkpt lat="42.5114238" lon="-8.4551741"><ele>532.0</ele><time>2026-04-19T13:19:10.398Z</time></trkpt><trkpt lat="42.5115804" lon="-8.4552348"><ele>532.0</ele><time>2026-04-19T13:19:11.388Z</time></trkpt><trkpt lat="42.5117333" lon="-8.4553053"><ele>532.0</ele><time>2026-04-19T13:19:12.415Z</time></trkpt><trkpt lat="42.5118888" lon="-8.4553819"><ele>532.0</ele><time>2026-04-19T13:19:13.405Z</time></trkpt><trkpt lat="42.5120568" lon="-8.4554638"><ele>532.0</ele><time>2026-04-19T13:19:14.429Z</time></trkpt><trkpt lat="42.5122404" lon="-8.4555333"><ele>524.6666666666667</ele><time>2026-04-19T13:19:15.403Z</time></trkpt><trkpt lat="42.512438" lon="-8.4555671"><ele>517.3333333333334</ele><time>2026-04-19T13:19:16.419Z</time></trkpt><trkpt lat="42.5126019" lon="-8.4555832"><ele>510.0</ele><time>2026-04-19T13:19:17.398Z</time></trkpt><trkpt lat="42.51278" lon="-8.4555688"><ele>509.0</ele><time>2026-04-19T13:19:18.423Z</time></trkpt><trkpt lat="42.5129606" lon="-8.4555333"><ele>508.0</ele><time>2026-04-19T13:19:19.435Z</time></trkpt><trkpt lat="42.5131316" lon="-8.4554861"><ele>507.0</ele><time>2026-04-19T13:19:20.397Z</time></trkpt><trkpt lat="42.51329" lon="-8.4553939"><ele>507.0</ele><time>2026-04-19T13:19:21.419Z</time></trkpt><trkpt lat="42.5134302" lon="-8.4552713"><ele>507.0</ele><time>2026-04-19T13:19:22.411Z</time></trkpt><trkpt lat="42.5135471" lon="-8.455144"><ele>507.0</ele><time>2026-04-19T13:19:23.438Z</time></trkpt><trkpt lat="42.5136558" lon="-8.4550368"><ele>504.75</ele><time>2026-04-19T13:19:24.439Z</time></trkpt><trkpt lat="42.5137639" lon="-8.4549909"><ele>502.5</ele><time>2026-04-19T13:19:25.423Z</time></trkpt><trkpt lat="42.5138986" lon="-8.455025"><ele>500.25</ele><time>2026-04-19T13:19:26.441Z</time></trkpt><trkpt lat="42.5140369" lon="-8.4551077"><ele>498.0</ele><time>2026-04-19T13:19:27.424Z</time></trkpt><trkpt lat="42.5141848" lon="-8.4552121"><ele>498.0</ele><time>2026-04-19T13:19:28.415Z</time></trkpt><trkpt lat="42.5143305" lon="-8.4552858"><ele>498.0</ele><time>2026-04-19T13:19:29.426Z</time></trkpt><trkpt lat="42.5144769" lon="-8.4553329"><ele>498.0</ele><time>2026-04-19T13:19:30.439Z</time></trkpt><trkpt lat="42.5146265" lon="-8.4553542"><ele>494.0</ele><time>2026-04-19T13:19:31.423Z</time></trkpt><trkpt lat="42.5147837" lon="-8.4553561"><ele>490.0</ele><time>2026-04-19T13:19:32.431Z</time></trkpt><trkpt lat="42.5149377" lon="-8.4553063"><ele>486.0</ele><time>2026-04-19T13:19:33.405Z</time></trkpt><trkpt lat="42.5150971" lon="-8.4552022"><ele>486.0</ele><time>2026-04-19T13:19:34.444Z</time></trkpt><trkpt lat="42.5152457" lon="-8.4551123"><ele>486.0</ele><time>2026-04-19T13:19:35.447Z</time></trkpt><trkpt lat="42.5153933" lon="-8.4550266"><ele>486.0</ele><time>2026-04-19T13:19:36.428Z</time></trkpt><trkpt lat="42.515538" lon="-8.4549429"><ele>485.0</ele><time>2026-04-19T13:19:37.434Z</time></trkpt><trkpt lat="42.515648" lon="-8.4548721"><ele>484.0</ele><time>2026-04-19T13:19:38.427Z</time></trkpt><trkpt lat="42.5156982" lon="-8.454784"><ele>483.0</ele><time>2026-04-19T13:19:39.43Z</time></trkpt><trkpt lat="42.5157209" lon="-8.4546535"><ele>482.0</ele><time>2026-04-19T13:19:40.449Z</time></trkpt><trkpt lat="42.5156917" lon="-8.4544961"><ele>481.0</ele><time>2026-04-19T13:19:41.438Z</time></trkpt><trkpt lat="42.5156461" lon="-8.4543069"><ele>480.4</ele><time>2026-04-19T13:19:42.428Z</time></trkpt><trkpt lat="42.5156098" lon="-8.4541191"><ele>479.8</ele><time>2026-04-19T13:19:43.449Z</time></trkpt><trkpt lat="42.5156036" lon="-8.4539734"><ele>479.19999999999993</ele><time>2026-04-19T13:19:44.451Z</time></trkpt><trkpt lat="42.5156301" lon="-8.4538642"><ele>478.59999999999997</ele><time>2026-04-19T13:19:45.46Z</time></trkpt><trkpt lat="42.5156948" lon="-8.4537781"><ele>478.0</ele><time>2026-04-19T13:19:46.431Z</time></trkpt><trkpt lat="42.5157922" lon="-8.4537448"><ele>478.0</ele><time>2026-04-19T13:19:47.43Z</time></trkpt><trkpt lat="42.515915" lon="-8.4537633"><ele>478.0</ele><time>2026-04-19T13:19:48.46Z</time></trkpt><trkpt lat="42.5160589" lon="-8.4538383"><ele>478.0</ele><time>2026-04-19T13:19:49.436Z</time></trkpt><trkpt lat="42.5161955" lon="-8.4539605"><ele>478.0</ele><time>2026-04-19T13:19:50.48Z</time></trkpt><trkpt lat="42.5163177" lon="-8.4540877"><ele>475.5</ele><time>2026-04-19T13:19:51.439Z</time></trkpt><trkpt lat="42.5164355" lon="-8.4541993"><ele>473.0</ele><time>2026-04-19T13:19:52.434Z</time></trkpt><trkpt lat="42.516574" lon="-8.4542822"><ele>470.5</ele><time>2026-04-19T13:19:53.45Z</time></trkpt><trkpt lat="42.5167179" lon="-8.4543243"><ele>468.0</ele><time>2026-04-19T13:19:54.451Z</time></trkpt><trkpt lat="42.5168514" lon="-8.4544149"><ele>468.0</ele><time>2026-04-19T13:19:55.442Z</time></trkpt><trkpt lat="42.5169562" lon="-8.4545822"><ele>468.0</ele><time>2026-04-19T13:19:56.452Z</time></trkpt><trkpt lat="42.5170263" lon="-8.4547891"><ele>468.0</ele><time>2026-04-19T13:19:57.456Z</time></trkpt><trkpt lat="42.517086" lon="-8.4549857"><ele>466.5</ele><time>2026-04-19T13:19:58.455Z</time></trkpt><trkpt lat="42.5171446" lon="-8.4551794"><ele>465.0</ele><time>2026-04-19T13:19:59.451Z</time></trkpt><trkpt lat="42.5172081" lon="-8.455349"><ele>463.5</ele><time>2026-04-19T13:20:00.445Z</time></trkpt><trkpt lat="42.5172924" lon="-8.4554958"><ele>462.0</ele><time>2026-04-19T13:20:01.433Z</time></trkpt><trkpt lat="42.517392" lon="-8.4555987"><ele>459.5</ele><time>2026-04-19T13:20:02.454Z</time></trkpt><trkpt lat="42.5174949" lon="-8.4556646"><ele>457.0</ele><time>2026-04-19T13:20:03.436Z</time></trkpt><trkpt lat="42.5175935" lon="-8.4556825"><ele>454.5</ele><time>2026-04-19T13:20:04.445Z</time></trkpt><trkpt lat="42.517706" lon="-8.4556686"><ele>452.0</ele><time>2026-04-19T13:20:05.455Z</time></trkpt><trkpt lat="42.517834" lon="-8.4556871"><ele>452.66666666666663</ele><time>2026-04-19T13:20:06.464Z</time></trkpt><trkpt lat="42.5179782" lon="-8.4557942"><ele>453.33333333333337</ele><time>2026-04-19T13:20:07.469Z</time></trkpt><trkpt lat="42.518125" lon="-8.4559353"><ele>454.0</ele><time>2026-04-19T13:20:08.459Z</time></trkpt><trkpt lat="42.5182527" lon="-8.4560489"><ele>454.0</ele><time>2026-04-19T13:20:09.462Z</time></trkpt><trkpt lat="42.5183895" lon="-8.4561491"><ele>454.0</ele><time>2026-04-19T13:20:10.475Z</time></trkpt><trkpt lat="42.5184901" lon="-8.4562716"><ele>454.0</ele><time>2026-04-19T13:20:11.477Z</time></trkpt><trkpt lat="42.5186077" lon="-8.4564209"><ele>451.0</ele><time>2026-04-19T13:20:12.449Z</time></trkpt><trkpt lat="42.5186909" lon="-8.4566302"><ele>448.0</ele><time>2026-04-19T13:20:13.48Z</time></trkpt><trkpt lat="42.5186887" lon="-8.456884"><ele>445.0</ele><time>2026-04-19T13:20:14.465Z</time></trkpt><trkpt lat="42.5187003" lon="-8.4571178"><ele>445.0</ele><time>2026-04-19T13:20:15.457Z</time></trkpt><trkpt lat="42.518719" lon="-8.4573294"><ele>445.0</ele><time>2026-04-19T13:20:16.475Z</time></trkpt><trkpt lat="42.5187389" lon="-8.4575276"><ele>445.0</ele><time>2026-04-19T13:20:17.477Z</time></trkpt><trkpt lat="42.518777" lon="-8.4577152"><ele>445.0</ele><time>2026-04-19T13:20:18.459Z</time></trkpt><trkpt lat="42.5188544" lon="-8.4578833"><ele>441.5</ele><time>2026-04-19T13:20:19.48Z</time></trkpt><trkpt lat="42.5189547" lon="-8.4580333"><ele>438.0</ele><time>2026-04-19T13:20:20.449Z</time></trkpt><trkpt lat="42.519071" lon="-8.4581253"><ele>434.5</ele><time>2026-04-19T13:20:21.479Z</time></trkpt><trkpt lat="42.5192174" lon="-8.4581601"><ele>431.0</ele><time>2026-04-19T13:20:22.384Z</time></trkpt><trkpt lat="42.5193793" lon="-8.4581712"><ele>431.0</ele><time>2026-04-19T13:20:23.365Z</time></trkpt><trkpt lat="42.5195485" lon="-8.4581822"><ele>431.0</ele><time>2026-04-19T13:20:24.376Z</time></trkpt><trkpt lat="42.5197151" lon="-8.4581786"><ele>431.0</ele><time>2026-04-19T13:20:25.383Z</time></trkpt><trkpt lat="42.5198775" lon="-8.4581608"><ele>429.75</ele><time>2026-04-19T13:20:26.371Z</time></trkpt><trkpt lat="42.5200286" lon="-8.4581141"><ele>428.5</ele><time>2026-04-19T13:20:27.38Z</time></trkpt><trkpt lat="42.5201718" lon="-8.4580448"><ele>427.25</ele><time>2026-04-19T13:20:28.409Z</time></trkpt><trkpt lat="42.5202999" lon="-8.4579627"><ele>426.0</ele><time>2026-04-19T13:20:29.379Z</time></trkpt><trkpt lat="42.5204231" lon="-8.4578751"><ele>424.0</ele><time>2026-04-19T13:20:30.369Z</time></trkpt><trkpt lat="42.5205413" lon="-8.4577652"><ele>422.0</ele><time>2026-04-19T13:20:31.371Z</time></trkpt><trkpt lat="42.5206474" lon="-8.4576331"><ele>420.0</ele><time>2026-04-19T13:20:32.382Z</time></trkpt><trkpt lat="42.5207381" lon="-8.4574954"><ele>418.0</ele><time>2026-04-19T13:20:33.356Z</time></trkpt><trkpt lat="42.5208245" lon="-8.457367"><ele>418.0</ele><time>2026-04-19T13:20:34.374Z</time></trkpt><trkpt lat="42.520901" lon="-8.4572299"><ele>418.0</ele><time>2026-04-19T13:20:35.377Z</time></trkpt><trkpt lat="42.5209476" lon="-8.4570615"><ele>418.0</ele><time>2026-04-19T13:20:36.393Z</time></trkpt><trkpt lat="42.5209582" lon="-8.456867"><ele>418.0</ele><time>2026-04-19T13:20:37.373Z</time></trkpt><trkpt lat="42.520958" lon="-8.4566591"><ele>419.33333333333337</ele><time>2026-04-19T13:20:38.396Z</time></trkpt><trkpt lat="42.5209739" lon="-8.4564331"><ele>420.66666666666663</ele><time>2026-04-19T13:20:39.393Z</time></trkpt><trkpt lat="42.5210048" lon="-8.4562099"><ele>422.0</ele><time>2026-04-19T13:20:40.387Z</time></trkpt><trkpt lat="42.5210326" lon="-8.4559895"><ele>422.0</ele><time>2026-04-19T13:20:41.371Z</time></trkpt><trkpt lat="42.521045" lon="-8.4557886"><ele>422.0</ele><time>2026-04-19T13:20:42.401Z</time></trkpt><trkpt lat="42.5210438" lon="-8.455579"><ele>422.0</ele><time>2026-04-19T13:20:43.397Z</time></trkpt><trkpt lat="42.5210444" lon="-8.45537"><ele>421.25</ele><time>2026-04-19T13:20:44.408Z</time></trkpt><trkpt lat="42.5210462" lon="-8.4551643"><ele>420.5</ele><time>2026-04-19T13:20:45.399Z</time></trkpt><trkpt lat="42.5210484" lon="-8.4549615"><ele>419.75</ele><time>2026-04-19T13:20:46.407Z</time></trkpt><trkpt lat="42.521047" lon="-8.4547739"><ele>419.0</ele><time>2026-04-19T13:20:47.401Z</time></trkpt><trkpt lat="42.5210459" lon="-8.4546126"><ele>417.99999999999994</ele><time>2026-04-19T13:20:48.414Z</time></trkpt><trkpt lat="42.5210604" lon="-8.4544882"><ele>417.0</ele><time>2026-04-19T13:20:49.414Z</time></trkpt><trkpt lat="42.5210964" lon="-8.4544042"><ele>416.0</ele><time>2026-04-19T13:20:50.423Z</time></trkpt><trkpt lat="42.5211653" lon="-8.4543666"><ele>415.0</ele><time>2026-04-19T13:20:51.392Z</time></trkpt><trkpt lat="42.5212361" lon="-8.4544156"><ele>413.99999999999994</ele><time>2026-04-19T13:20:52.407Z</time></trkpt><trkpt lat="42.5212822" lon="-8.4545447"><ele>413.0</ele><time>2026-04-19T13:20:53.421Z</time></trkpt><trkpt lat="42.5212902" lon="-8.4546882"><ele>409.5</ele><time>2026-04-19T13:20:54.409Z</time></trkpt><trkpt lat="42.5212774" lon="-8.4548463"><ele>406.0</ele><time>2026-04-19T13:20:55.413Z</time></trkpt><trkpt lat="42.5212704" lon="-8.4550198"><ele>402.5</ele><time>2026-04-19T13:20:56.419Z</time></trkpt><trkpt lat="42.521275" lon="-8.4551979"><ele>399.0</ele><time>2026-04-19T13:20:57.417Z</time></trkpt><trkpt lat="42.521317" lon="-8.455373"><ele>398.25</ele><time>2026-04-19T13:20:58.416Z</time></trkpt><trkpt lat="42.5213675" lon="-8.4555403"><ele>397.5</ele><time>2026-04-19T13:20:59.425Z</time></trkpt><trkpt lat="42.5214337" lon="-8.4557028"><ele>396.75</ele><time>2026-04-19T13:21:00.407Z</time></trkpt><trkpt lat="42.5215047" lon="-8.4558637"><ele>396.0</ele><time>2026-04-19T13:21:01.407Z</time></trkpt><trkpt lat="42.5215584" lon="-8.4560294"><ele>396.0</ele><time>2026-04-19T13:21:02.415Z</time></trkpt><trkpt lat="42.5215765" lon="-8.4562068"><ele>396.0</ele><time>2026-04-19T13:21:03.424Z</time></trkpt><trkpt lat="42.5215655" lon="-8.4563965"><ele>396.0</ele><time>2026-04-19T13:21:04.414Z</time></trkpt><trkpt lat="42.5215307" lon="-8.4565858"><ele>396.0</ele><time>2026-04-19T13:21:05.404Z</time></trkpt><trkpt lat="42.5215087" lon="-8.4567949"><ele>396.0</ele><time>2026-04-19T13:21:06.416Z</time></trkpt><trkpt lat="42.5215034" lon="-8.4569998"><ele>396.0</ele><time>2026-04-19T13:21:07.431Z</time></trkpt><trkpt lat="42.5215197" lon="-8.4571992"><ele>396.0</ele><time>2026-04-19T13:21:08.449Z</time></trkpt><trkpt lat="42.5215268" lon="-8.4573837"><ele>396.0</ele><time>2026-04-19T13:21:09.429Z</time></trkpt><trkpt lat="42.5215206" lon="-8.4575517"><ele>395.20000000000005</ele><time>2026-04-19T13:21:10.438Z</time></trkpt><trkpt lat="42.5215058" lon="-8.4577087"><ele>394.40000000000003</ele><time>2026-04-19T13:21:11.418Z</time></trkpt><trkpt lat="42.5214916" lon="-8.457857"><ele>393.6</ele><time>2026-04-19T13:21:12.437Z</time></trkpt><trkpt lat="42.5214843" lon="-8.4579879"><ele>392.8</ele><time>2026-04-19T13:21:13.433Z</time></trkpt><trkpt lat="42.521503" lon="-8.4580977"><ele>392.0</ele><time>2026-04-19T13:21:14.428Z</time></trkpt><trkpt lat="42.521546" lon="-8.4581829"><ele>391.99999999999994</ele><time>2026-04-19T13:21:15.432Z</time></trkpt><trkpt lat="42.5216114" lon="-8.4582296"><ele>392.0</ele><time>2026-04-19T13:21:16.426Z</time></trkpt><trkpt lat="42.5216792" lon="-8.4582243"><ele>392.0</ele><time>2026-04-19T13:21:17.432Z</time></trkpt><trkpt lat="42.5217255" lon="-8.4581585"><ele>392.0</ele><time>2026-04-19T13:21:18.422Z</time></trkpt><trkpt lat="42.5217553" lon="-8.4580482"><ele>391.99999999999994</ele><time>2026-04-19T13:21:19.438Z</time></trkpt><trkpt lat="42.5217675" lon="-8.4579068"><ele>392.0</ele><time>2026-04-19T13:21:20.442Z</time></trkpt><trkpt lat="42.52179" lon="-8.4577831"><ele>392.0</ele><time>2026-04-19T13:21:21.444Z</time></trkpt><trkpt lat="42.5218139" lon="-8.4576753"><ele>392.0</ele><time>2026-04-19T13:21:22.416Z</time></trkpt><trkpt lat="42.521847" lon="-8.457559"><ele>392.0</ele><time>2026-04-19T13:21:24.435Z</time></trkpt><trkpt lat="42.52188" lon="-8.4574302"><ele>392.0</ele><time>2026-04-19T13:21:39.452Z</time></trkpt><trkpt lat="42.5218762" lon="-8.4573074"><ele>392.0</ele><time>2026-04-19T13:21:40.461Z</time></trkpt><trkpt lat="42.5218814" lon="-8.4571783"><ele>393.0</ele><time>2026-04-19T13:21:41.459Z</time></trkpt><trkpt lat="42.5218826" lon="-8.4570158"><ele>394.0</ele><time>2026-04-19T13:21:42.445Z</time></trkpt><trkpt lat="42.5218926" lon="-8.4568262"><ele>395.0</ele><time>2026-04-19T13:21:43.458Z</time></trkpt><trkpt lat="42.5219034" lon="-8.456634"><ele>396.0</ele><time>2026-04-19T13:21:44.455Z</time></trkpt><trkpt lat="42.5219252" lon="-8.4564227"><ele>396.0</ele><time>2026-04-19T13:21:45.458Z</time></trkpt><trkpt lat="42.5219551" lon="-8.4562013"><ele>396.0</ele><time>2026-04-19T13:21:46.463Z</time></trkpt><trkpt lat="42.5219883" lon="-8.4559701"><ele>396.0</ele><time>2026-04-19T13:21:47.469Z</time></trkpt><trkpt lat="42.5220278" lon="-8.4557331"><ele>396.0</ele><time>2026-04-19T13:21:48.473Z</time></trkpt><trkpt lat="42.5220646" lon="-8.4554875"><ele>396.0</ele><time>2026-04-19T13:21:49.441Z</time></trkpt><trkpt lat="42.5221059" lon="-8.4552341"><ele>396.0</ele><time>2026-04-19T13:21:50.473Z</time></trkpt><trkpt lat="42.5221588" lon="-8.4549696"><ele>389.0</ele><time>2026-04-19T13:21:51.473Z</time></trkpt><trkpt lat="42.52228" lon="-8.4544559"><ele>382.0</ele><time>2026-04-19T13:21:53.378Z</time></trkpt><trkpt lat="42.5223511" lon="-8.454192"><ele>382.0</ele><time>2026-04-19T13:21:54.367Z</time></trkpt><trkpt lat="42.5224244" lon="-8.4539276"><ele>382.0</ele><time>2026-04-19T13:21:55.391Z</time></trkpt><trkpt lat="42.5225127" lon="-8.4536625"><ele>382.0</ele><time>2026-04-19T13:21:56.349Z</time></trkpt><trkpt lat="42.522605" lon="-8.4533961"><ele>384.0</ele><time>2026-04-19T13:21:57.39Z</time></trkpt><trkpt lat="42.5227084" lon="-8.453138"><ele>386.0</ele><time>2026-04-19T13:21:58.377Z</time></trkpt><trkpt lat="42.5228325" lon="-8.4528846"><ele>388.0</ele><time>2026-04-19T13:21:59.381Z</time></trkpt><trkpt lat="42.522992" lon="-8.4526664"><ele>388.6666666666667</ele><time>2026-04-19T13:22:00.366Z</time></trkpt><trkpt lat="42.5231482" lon="-8.4524624"><ele>389.33333333333337</ele><time>2026-04-19T13:22:01.367Z</time></trkpt><trkpt lat="42.5233071" lon="-8.452275"><ele>390.0</ele><time>2026-04-19T13:22:02.386Z</time></trkpt><trkpt lat="42.523483" lon="-8.4521219"><ele>390.0</ele><time>2026-04-19T13:22:03.385Z</time></trkpt><trkpt lat="42.5236901" lon="-8.4520034"><ele>390.0</ele><time>2026-04-19T13:22:04.371Z</time></trkpt><trkpt lat="42.5239" lon="-8.4518859"><ele>384.0</ele><time>2026-04-19T13:22:05.375Z</time></trkpt><trkpt lat="42.5241141" lon="-8.4517618"><ele>378.0</ele><time>2026-04-19T13:22:06.389Z</time></trkpt><trkpt lat="42.5243277" lon="-8.4516276"><ele>378.0</ele><time>2026-04-19T13:22:07.398Z</time></trkpt><trkpt lat="42.5245226" lon="-8.4514671"><ele>378.0</ele><time>2026-04-19T13:22:08.393Z</time></trkpt><trkpt lat="42.5247061" lon="-8.4512628"><ele>377.3333333333333</ele><time>2026-04-19T13:22:09.397Z</time></trkpt><trkpt lat="42.5248522" lon="-8.4510359"><ele>376.66666666666663</ele><time>2026-04-19T13:22:10.378Z</time></trkpt><trkpt lat="42.52497" lon="-8.4507816"><ele>376.0</ele><time>2026-04-19T13:22:11.391Z</time></trkpt><trkpt lat="42.5250722" lon="-8.450517"><ele>377.3333333333333</ele><time>2026-04-19T13:22:12.382Z</time></trkpt><trkpt lat="42.5251477" lon="-8.4502432"><ele>378.6666666666667</ele><time>2026-04-19T13:22:13.375Z</time></trkpt><trkpt lat="42.5252112" lon="-8.4499611"><ele>380.0</ele><time>2026-04-19T13:22:14.377Z</time></trkpt><trkpt lat="42.5252645" lon="-8.4496756"><ele>380.33333333333337</ele><time>2026-04-19T13:22:15.377Z</time></trkpt><trkpt lat="42.525293" lon="-8.4493759"><ele>380.6666666666667</ele><time>2026-04-19T13:22:16.376Z</time></trkpt><trkpt lat="42.5252848" lon="-8.4490687"><ele>381.0</ele><time>2026-04-19T13:22:17.373Z</time></trkpt><trkpt lat="42.5252512" lon="-8.4487699"><ele>381.0</ele><time>2026-04-19T13:22:18.393Z</time></trkpt><trkpt lat="42.5251916" lon="-8.4484716"><ele>381.0</ele><time>2026-04-19T13:22:19.388Z</time></trkpt><trkpt lat="42.5251082" lon="-8.4481836"><ele>377.0</ele><time>2026-04-19T13:22:20.374Z</time></trkpt><trkpt lat="42.5249957" lon="-8.4479111"><ele>373.0</ele><time>2026-04-19T13:22:21.373Z</time></trkpt><trkpt lat="42.5248662" lon="-8.4476528"><ele>373.0</ele><time>2026-04-19T13:22:22.392Z</time></trkpt><trkpt lat="42.5247194" lon="-8.4474131"><ele>373.0</ele><time>2026-04-19T13:22:23.382Z</time></trkpt><trkpt lat="42.5245669" lon="-8.4471842"><ele>371.5</ele><time>2026-04-19T13:22:24.4Z</time></trkpt><trkpt lat="42.5244158" lon="-8.4469584"><ele>370.0</ele><time>2026-04-19T13:22:25.394Z</time></trkpt><trkpt lat="42.5242741" lon="-8.4467124"><ele>370.0</ele><time>2026-04-19T13:22:26.379Z</time></trkpt><trkpt lat="42.5241391" lon="-8.4464673"><ele>370.0</ele><time>2026-04-19T13:22:27.396Z</time></trkpt><trkpt lat="42.5240216" lon="-8.4462071"><ele>362.5</ele><time>2026-04-19T13:22:28.404Z</time></trkpt><trkpt lat="42.523918" lon="-8.4459368"><ele>355.0</ele><time>2026-04-19T13:22:29.38Z</time></trkpt><trkpt lat="42.5238377" lon="-8.4456501"><ele>353.3333333333333</ele><time>2026-04-19T13:22:30.397Z</time></trkpt><trkpt lat="42.5237684" lon="-8.4453673"><ele>351.6666666666667</ele><time>2026-04-19T13:22:31.382Z</time></trkpt><trkpt lat="42.5237121" lon="-8.4450803"><ele>350.0</ele><time>2026-04-19T13:22:32.401Z</time></trkpt><trkpt lat="42.5236683" lon="-8.4447824"><ele>346.0</ele><time>2026-04-19T13:22:33.398Z</time></trkpt><trkpt lat="42.5236441" lon="-8.4444793"><ele>342.0</ele><time>2026-04-19T13:22:34.406Z</time></trkpt><trkpt lat="42.5236386" lon="-8.4441743"><ele>342.0</ele><time>2026-04-19T13:22:35.399Z</time></trkpt><trkpt lat="42.5236483" lon="-8.4438718"><ele>342.0</ele><time>2026-04-19T13:22:36.403Z</time></trkpt><trkpt lat="42.5236703" lon="-8.4435682"><ele>342.0</ele><time>2026-04-19T13:22:37.421Z</time></trkpt><trkpt lat="42.5237071" lon="-8.4432709"><ele>341.0</ele><time>2026-04-19T13:22:38.402Z</time></trkpt><trkpt lat="42.5237624" lon="-8.4429759"><ele>340.0</ele><time>2026-04-19T13:22:39.412Z</time></trkpt><trkpt lat="42.5238342" lon="-8.442686"><ele>338.0</ele><time>2026-04-19T13:22:40.411Z</time></trkpt><trkpt lat="42.5239257" lon="-8.4424023"><ele>336.0</ele><time>2026-04-19T13:22:41.4Z</time></trkpt><trkpt lat="42.5240245" lon="-8.4421346"><ele>334.0</ele><time>2026-04-19T13:22:42.409Z</time></trkpt><trkpt lat="42.524137" lon="-8.4418782"><ele>334.0</ele><time>2026-04-19T13:22:43.427Z</time></trkpt><trkpt lat="42.5242652" lon="-8.4416319"><ele>334.0</ele><time>2026-04-19T13:22:44.418Z</time></trkpt><trkpt lat="42.5244044" lon="-8.4413978"><ele>334.0</ele><time>2026-04-19T13:22:45.421Z</time></trkpt><trkpt lat="42.5245527" lon="-8.4411786"><ele>335.66666666666663</ele><time>2026-04-19T13:22:46.417Z</time></trkpt><trkpt lat="42.5247123" lon="-8.4409766"><ele>337.3333333333333</ele><time>2026-04-19T13:22:47.418Z</time></trkpt><trkpt lat="42.5248817" lon="-8.4407828"><ele>339.0</ele><time>2026-04-19T13:22:48.435Z</time></trkpt><trkpt lat="42.5250562" lon="-8.4406081"><ele>341.6666666666667</ele><time>2026-04-19T13:22:49.396Z</time></trkpt><trkpt lat="42.5252371" lon="-8.4404576"><ele>344.33333333333337</ele><time>2026-04-19T13:22:50.413Z</time></trkpt><trkpt lat="42.5254311" lon="-8.4403205"><ele>347.0</ele><time>2026-04-19T13:22:51.422Z</time></trkpt><trkpt lat="42.5256325" lon="-8.4402051"><ele>347.0</ele><time>2026-04-19T13:22:52.423Z</time></trkpt><trkpt lat="42.5258439" lon="-8.4401086"><ele>347.0</ele><time>2026-04-19T13:22:53.392Z</time></trkpt><trkpt lat="42.5260544" lon="-8.4400258"><ele>347.0</ele><time>2026-04-19T13:22:54.432Z</time></trkpt><trkpt lat="42.5262691" lon="-8.4399567"><ele>347.33333333333337</ele><time>2026-04-19T13:22:55.433Z</time></trkpt><trkpt lat="42.5264867" lon="-8.4399042"><ele>347.6666666666667</ele><time>2026-04-19T13:22:56.441Z</time></trkpt><trkpt lat="42.5267098" lon="-8.4398563"><ele>348.0</ele><time>2026-04-19T13:22:57.429Z</time></trkpt><trkpt lat="42.5269332" lon="-8.4397978"><ele>351.0</ele><time>2026-04-19T13:22:58.428Z</time></trkpt><trkpt lat="42.5271575" lon="-8.4397225"><ele>354.0</ele><time>2026-04-19T13:22:59.443Z</time></trkpt><trkpt lat="42.5273742" lon="-8.4396151"><ele>360.0</ele><time>2026-04-19T13:23:00.443Z</time></trkpt><trkpt lat="42.5275785" lon="-8.4394749"><ele>366.0</ele><time>2026-04-19T13:23:01.426Z</time></trkpt><trkpt lat="42.5277657" lon="-8.4392971"><ele>366.0</ele><time>2026-04-19T13:23:02.409Z</time></trkpt><trkpt lat="42.5279334" lon="-8.4390908"><ele>366.0</ele><time>2026-04-19T13:23:03.413Z</time></trkpt><trkpt lat="42.5280747" lon="-8.4388425"><ele>368.0</ele><time>2026-04-19T13:23:04.436Z</time></trkpt><trkpt lat="42.5282004" lon="-8.4385935"><ele>370.0</ele><time>2026-04-19T13:23:05.444Z</time></trkpt><trkpt lat="42.5283034" lon="-8.438321"><ele>372.0</ele><time>2026-04-19T13:23:06.432Z</time></trkpt><trkpt lat="42.5283763" lon="-8.4380405"><ele>376.0</ele><time>2026-04-19T13:23:07.435Z</time></trkpt><trkpt lat="42.5284457" lon="-8.4377489"><ele>380.0</ele><time>2026-04-19T13:23:08.441Z</time></trkpt><trkpt lat="42.5285139" lon="-8.4374588"><ele>380.0</ele><time>2026-04-19T13:23:09.442Z</time></trkpt><trkpt lat="42.5285788" lon="-8.4371618"><ele>380.0</ele><time>2026-04-19T13:23:10.442Z</time></trkpt><trkpt lat="42.5286458" lon="-8.4368649"><ele>380.5</ele><time>2026-04-19T13:23:11.422Z</time></trkpt><trkpt lat="42.5287076" lon="-8.4365662"><ele>381.0</ele><time>2026-04-19T13:23:12.452Z</time></trkpt><trkpt lat="42.5287714" lon="-8.4362695"><ele>381.0</ele><time>2026-04-19T13:23:13.435Z</time></trkpt><trkpt lat="42.5288338" lon="-8.4359697"><ele>381.0</ele><time>2026-04-19T13:23:14.438Z</time></trkpt><trkpt lat="42.5288958" lon="-8.4356675"><ele>381.0</ele><time>2026-04-19T13:23:15.445Z</time></trkpt><trkpt lat="42.528959" lon="-8.435366"><ele>381.0</ele><time>2026-04-19T13:23:16.437Z</time></trkpt><trkpt lat="42.52902" lon="-8.435062"><ele>381.0</ele><time>2026-04-19T13:23:17.436Z</time></trkpt><trkpt lat="42.5290714" lon="-8.4347604"><ele>381.0</ele><time>2026-04-19T13:23:18.418Z</time></trkpt><trkpt lat="42.5291182" lon="-8.4344546"><ele>382.0</ele><time>2026-04-19T13:23:19.416Z</time></trkpt><trkpt lat="42.5291619" lon="-8.434145"><ele>383.0</ele><time>2026-04-19T13:23:20.417Z</time></trkpt><trkpt lat="42.5291985" lon="-8.4338349"><ele>382.6666666666667</ele><time>2026-04-19T13:23:21.421Z</time></trkpt><trkpt lat="42.5292299" lon="-8.4335353"><ele>382.3333333333333</ele><time>2026-04-19T13:23:22.426Z</time></trkpt><trkpt lat="42.5292587" lon="-8.4332544"><ele>382.0</ele><time>2026-04-19T13:23:23.425Z</time></trkpt><trkpt lat="42.5292892" lon="-8.4330019"><ele>381.66666666666663</ele><time>2026-04-19T13:23:24.432Z</time></trkpt><trkpt lat="42.5293199" lon="-8.4327574"><ele>381.3333333333333</ele><time>2026-04-19T13:23:25.421Z</time></trkpt><trkpt lat="42.5293534" lon="-8.4325209"><ele>381.0</ele><time>2026-04-19T13:23:26.434Z</time></trkpt><trkpt lat="42.5294026" lon="-8.4322936"><ele>380.3333333333333</ele><time>2026-04-19T13:23:27.436Z</time></trkpt><trkpt lat="42.5294553" lon="-8.4320838"><ele>379.66666666666663</ele><time>2026-04-19T13:23:28.432Z</time></trkpt><trkpt lat="42.5295167" lon="-8.4318811"><ele>379.0</ele><time>2026-04-19T13:23:29.433Z</time></trkpt><trkpt lat="42.5295897" lon="-8.4316946"><ele>376.66666666666663</ele><time>2026-04-19T13:23:30.44Z</time></trkpt><trkpt lat="42.5296753" lon="-8.4315033"><ele>374.3333333333333</ele><time>2026-04-19T13:23:31.444Z</time></trkpt><trkpt lat="42.5297687" lon="-8.4313074"><ele>372.0</ele><time>2026-04-19T13:23:32.436Z</time></trkpt><trkpt lat="42.5298736" lon="-8.4311073"><ele>371.3333333333333</ele><time>2026-04-19T13:23:33.436Z</time></trkpt><trkpt lat="42.5299844" lon="-8.4309006"><ele>370.66666666666663</ele><time>2026-04-19T13:23:34.445Z</time></trkpt><trkpt lat="42.5301047" lon="-8.4306938"><ele>370.0</ele><time>2026-04-19T13:23:35.456Z</time></trkpt><trkpt lat="42.5302328" lon="-8.4304828"><ele>369.0</ele><time>2026-04-19T13:23:36.452Z</time></trkpt><trkpt lat="42.5303634" lon="-8.4302724"><ele>368.0</ele><time>2026-04-19T13:23:37.466Z</time></trkpt><trkpt lat="42.530486" lon="-8.4300661"><ele>367.0</ele><time>2026-04-19T13:23:38.457Z</time></trkpt><trkpt lat="42.5306132" lon="-8.4298591"><ele>362.3333333333333</ele><time>2026-04-19T13:23:39.463Z</time></trkpt><trkpt lat="42.5307381" lon="-8.4296529"><ele>357.6666666666667</ele><time>2026-04-19T13:23:40.477Z</time></trkpt><trkpt lat="42.5308574" lon="-8.4294469"><ele>353.0</ele><time>2026-04-19T13:23:41.511Z</time></trkpt><trkpt lat="42.5309783" lon="-8.429243"><ele>353.0</ele><time>2026-04-19T13:23:42.47Z</time></trkpt><trkpt lat="42.5310984" lon="-8.4290331"><ele>353.0</ele><time>2026-04-19T13:23:43.472Z</time></trkpt><trkpt lat="42.5313165" lon="-8.4285858"><ele>350.6666666666667</ele><time>2026-04-19T13:23:45.366Z</time></trkpt><trkpt lat="42.5314" lon="-8.4283449"><ele>348.3333333333333</ele><time>2026-04-19T13:23:46.372Z</time></trkpt><trkpt lat="42.5314709" lon="-8.4280965"><ele>346.0</ele><time>2026-04-19T13:23:47.363Z</time></trkpt><trkpt lat="42.5315376" lon="-8.427828"><ele>344.3333333333333</ele><time>2026-04-19T13:23:48.362Z</time></trkpt><trkpt lat="42.5316022" lon="-8.4275483"><ele>342.6666666666667</ele><time>2026-04-19T13:23:49.477Z</time></trkpt><trkpt lat="42.5316615" lon="-8.4272732"><ele>341.0</ele><time>2026-04-19T13:23:50.477Z</time></trkpt><trkpt lat="42.5317708" lon="-8.4267619"><ele>337.6666666666667</ele><time>2026-04-19T13:23:52.363Z</time></trkpt><trkpt lat="42.5318238" lon="-8.4265232"><ele>334.3333333333333</ele><time>2026-04-19T13:23:53.357Z</time></trkpt><trkpt lat="42.5318768" lon="-8.4262861"><ele>331.0</ele><time>2026-04-19T13:23:54.481Z</time></trkpt><trkpt lat="42.53193" lon="-8.4260511"><ele>331.0</ele><time>2026-04-19T13:23:55.473Z</time></trkpt><trkpt lat="42.5319793" lon="-8.4258129"><ele>331.0</ele><time>2026-04-19T13:23:56.466Z</time></trkpt><trkpt lat="42.5320301" lon="-8.4255712"><ele>331.0</ele><time>2026-04-19T13:23:57.45Z</time></trkpt><trkpt lat="42.5320863" lon="-8.4253218"><ele>339.66666666666663</ele><time>2026-04-19T13:23:58.364Z</time></trkpt><trkpt lat="42.5321414" lon="-8.4250727"><ele>348.3333333333333</ele><time>2026-04-19T13:23:59.37Z</time></trkpt><trkpt lat="42.5321891" lon="-8.4248242"><ele>357.0</ele><time>2026-04-19T13:24:00.373Z</time></trkpt><trkpt lat="42.5322206" lon="-8.4245674"><ele>358.6666666666667</ele><time>2026-04-19T13:24:01.371Z</time></trkpt><trkpt lat="42.5322294" lon="-8.4243145"><ele>360.33333333333337</ele><time>2026-04-19T13:24:02.358Z</time></trkpt><trkpt lat="42.5322242" lon="-8.4240635"><ele>362.0</ele><time>2026-04-19T13:24:03.371Z</time></trkpt><trkpt lat="42.5322091" lon="-8.42382"><ele>363.33333333333337</ele><time>2026-04-19T13:24:04.373Z</time></trkpt><trkpt lat="42.5321879" lon="-8.4235842"><ele>364.6666666666667</ele><time>2026-04-19T13:24:05.354Z</time></trkpt><trkpt lat="42.5321651" lon="-8.4233572"><ele>366.0</ele><time>2026-04-19T13:24:06.394Z</time></trkpt><trkpt lat="42.5321507" lon="-8.4231466"><ele>364.6666666666667</ele><time>2026-04-19T13:24:07.378Z</time></trkpt><trkpt lat="42.5321416" lon="-8.4229374"><ele>363.33333333333337</ele><time>2026-04-19T13:24:08.372Z</time></trkpt><trkpt lat="42.5321408" lon="-8.4227272"><ele>362.0</ele><time>2026-04-19T13:24:09.371Z</time></trkpt><trkpt lat="42.532152" lon="-8.4225251"><ele>362.0</ele><time>2026-04-19T13:24:10.37Z</time></trkpt><trkpt lat="42.5321642" lon="-8.4223229"><ele>362.0</ele><time>2026-04-19T13:24:11.372Z</time></trkpt><trkpt lat="42.5321877" lon="-8.4221092"><ele>362.0</ele><time>2026-04-19T13:24:12.373Z</time></trkpt><trkpt lat="42.5322225" lon="-8.4218881"><ele>360.0</ele><time>2026-04-19T13:24:13.381Z</time></trkpt><trkpt lat="42.5322658" lon="-8.4216661"><ele>358.0</ele><time>2026-04-19T13:24:14.386Z</time></trkpt><trkpt lat="42.5323195" lon="-8.4214523"><ele>356.0</ele><time>2026-04-19T13:24:15.373Z</time></trkpt><trkpt lat="42.532384" lon="-8.4212411"><ele>354.6666666666667</ele><time>2026-04-19T13:24:16.38Z</time></trkpt><trkpt lat="42.5324516" lon="-8.4210395"><ele>353.3333333333333</ele><time>2026-04-19T13:24:17.371Z</time></trkpt><trkpt lat="42.5325335" lon="-8.420847"><ele>352.0</ele><time>2026-04-19T13:24:18.392Z</time></trkpt><trkpt lat="42.5326236" lon="-8.420665"><ele>352.0</ele><time>2026-04-19T13:24:19.398Z</time></trkpt><trkpt lat="42.5327187" lon="-8.420501"><ele>352.0</ele><time>2026-04-19T13:24:20.365Z</time></trkpt><trkpt lat="42.5328153" lon="-8.4203391"><ele>352.0</ele><time>2026-04-19T13:24:21.402Z</time></trkpt><trkpt lat="42.5329148" lon="-8.4201708"><ele>351.3333333333333</ele><time>2026-04-19T13:24:22.379Z</time></trkpt><trkpt lat="42.5330148" lon="-8.419997"><ele>350.6666666666667</ele><time>2026-04-19T13:24:23.352Z</time></trkpt><trkpt lat="42.5331083" lon="-8.4198189"><ele>350.0</ele><time>2026-04-19T13:24:24.37Z</time></trkpt><trkpt lat="42.5331968" lon="-8.4196311"><ele>350.0</ele><time>2026-04-19T13:24:25.401Z</time></trkpt><trkpt lat="42.5332767" lon="-8.4194349"><ele>350.0</ele><time>2026-04-19T13:24:26.369Z</time></trkpt><trkpt lat="42.5333472" lon="-8.4192238"><ele>350.0</ele><time>2026-04-19T13:24:27.367Z</time></trkpt><trkpt lat="42.5334057" lon="-8.4190037"><ele>348.6666666666667</ele><time>2026-04-19T13:24:28.381Z</time></trkpt><trkpt lat="42.5334507" lon="-8.4187708"><ele>347.3333333333333</ele><time>2026-04-19T13:24:29.377Z</time></trkpt><trkpt lat="42.5334871" lon="-8.4185391"><ele>346.0</ele><time>2026-04-19T13:24:30.358Z</time></trkpt><trkpt lat="42.5335079" lon="-8.4182981"><ele>346.0</ele><time>2026-04-19T13:24:31.369Z</time></trkpt><trkpt lat="42.5335118" lon="-8.4180684"><ele>346.0</ele><time>2026-04-19T13:24:32.377Z</time></trkpt><trkpt lat="42.5335001" lon="-8.4178347"><ele>346.0</ele><time>2026-04-19T13:24:33.371Z</time></trkpt><trkpt lat="42.533473" lon="-8.4176133"><ele>345.3333333333333</ele><time>2026-04-19T13:24:34.378Z</time></trkpt><trkpt lat="42.533436" lon="-8.4173914"><ele>344.6666666666667</ele><time>2026-04-19T13:24:35.367Z</time></trkpt><trkpt lat="42.5333975" lon="-8.417173"><ele>344.0</ele><time>2026-04-19T13:24:36.403Z</time></trkpt><trkpt lat="42.5333473" lon="-8.416953"><ele>347.33333333333337</ele><time>2026-04-19T13:24:37.381Z</time></trkpt><trkpt lat="42.5332847" lon="-8.4167435"><ele>350.6666666666667</ele><time>2026-04-19T13:24:38.375Z</time></trkpt><trkpt lat="42.5332088" lon="-8.4165452"><ele>354.0</ele><time>2026-04-19T13:24:39.406Z</time></trkpt><trkpt lat="42.5331211" lon="-8.4163544"><ele>358.6666666666667</ele><time>2026-04-19T13:24:40.378Z</time></trkpt><trkpt lat="42.5330322" lon="-8.4161687"><ele>363.33333333333337</ele><time>2026-04-19T13:24:41.379Z</time></trkpt><trkpt lat="42.5329443" lon="-8.4159804"><ele>368.0</ele><time>2026-04-19T13:24:42.379Z</time></trkpt><trkpt lat="42.5328612" lon="-8.4157905"><ele>361.6666666666667</ele><time>2026-04-19T13:24:43.395Z</time></trkpt><trkpt lat="42.5327837" lon="-8.4155934"><ele>355.3333333333333</ele><time>2026-04-19T13:24:44.394Z</time></trkpt><trkpt lat="42.5327179" lon="-8.4153838"><ele>349.0</ele><time>2026-04-19T13:24:45.362Z</time></trkpt><trkpt lat="42.5326703" lon="-8.4151638"><ele>349.0</ele><time>2026-04-19T13:24:46.395Z</time></trkpt><trkpt lat="42.5326343" lon="-8.4149332"><ele>349.0</ele><time>2026-04-19T13:24:47.393Z</time></trkpt><trkpt lat="42.5326173" lon="-8.4147062"><ele>349.0</ele><time>2026-04-19T13:24:48.396Z</time></trkpt><trkpt lat="42.5326047" lon="-8.4144763"><ele>349.66666666666663</ele><time>2026-04-19T13:24:49.396Z</time></trkpt><trkpt lat="42.5326026" lon="-8.4142373"><ele>350.3333333333333</ele><time>2026-04-19T13:24:50.392Z</time></trkpt><trkpt lat="42.5326015" lon="-8.4140002"><ele>351.0</ele><time>2026-04-19T13:24:51.393Z</time></trkpt><trkpt lat="42.5326018" lon="-8.4137612"><ele>352.6666666666667</ele><time>2026-04-19T13:24:52.397Z</time></trkpt><trkpt lat="42.5325949" lon="-8.4135176"><ele>354.33333333333337</ele><time>2026-04-19T13:24:53.393Z</time></trkpt><trkpt lat="42.5325911" lon="-8.413277"><ele>356.0</ele><time>2026-04-19T13:24:54.403Z</time></trkpt><trkpt lat="42.532586" lon="-8.413026"><ele>354.6666666666667</ele><time>2026-04-19T13:24:55.376Z</time></trkpt><trkpt lat="42.5325778" lon="-8.4127769"><ele>353.3333333333333</ele><time>2026-04-19T13:24:56.392Z</time></trkpt><trkpt lat="42.5325721" lon="-8.4125254"><ele>352.0</ele><time>2026-04-19T13:24:57.412Z</time></trkpt><trkpt lat="42.5325701" lon="-8.412282"><ele>352.3333333333333</ele><time>2026-04-19T13:24:58.385Z</time></trkpt><trkpt lat="42.5325629" lon="-8.4120466"><ele>352.6666666666667</ele><time>2026-04-19T13:24:59.401Z</time></trkpt><trkpt lat="42.5325488" lon="-8.4118113"><ele>353.0</ele><time>2026-04-19T13:25:00.404Z</time></trkpt><trkpt lat="42.5325229" lon="-8.4115802"><ele>353.0</ele><time>2026-04-19T13:25:01.423Z</time></trkpt><trkpt lat="42.5324895" lon="-8.4113525"><ele>353.0</ele><time>2026-04-19T13:25:02.408Z</time></trkpt><trkpt lat="42.5324504" lon="-8.4111233"><ele>353.0</ele><time>2026-04-19T13:25:03.415Z</time></trkpt><trkpt lat="42.5324115" lon="-8.410902"><ele>356.33333333333337</ele><time>2026-04-19T13:25:04.423Z</time></trkpt><trkpt lat="42.5323688" lon="-8.4106832"><ele>359.6666666666667</ele><time>2026-04-19T13:25:05.414Z</time></trkpt><trkpt lat="42.5323299" lon="-8.4104628"><ele>363.0</ele><time>2026-04-19T13:25:06.409Z</time></trkpt><trkpt lat="42.5322897" lon="-8.4102407"><ele>364.3333333333333</ele><time>2026-04-19T13:25:07.416Z</time></trkpt><trkpt lat="42.5322533" lon="-8.4100181"><ele>365.66666666666663</ele><time>2026-04-19T13:25:08.419Z</time></trkpt><trkpt lat="42.5322145" lon="-8.4097981"><ele>367.0</ele><time>2026-04-19T13:25:09.409Z</time></trkpt><trkpt lat="42.5321725" lon="-8.4095765"><ele>369.3333333333333</ele><time>2026-04-19T13:25:10.421Z</time></trkpt><trkpt lat="42.5321296" lon="-8.4093536"><ele>371.6666666666667</ele><time>2026-04-19T13:25:11.416Z</time></trkpt><trkpt lat="42.5320868" lon="-8.4091332"><ele>374.0</ele><time>2026-04-19T13:25:12.422Z</time></trkpt><trkpt lat="42.5320456" lon="-8.4089218"><ele>365.0</ele><time>2026-04-19T13:25:13.398Z</time></trkpt><trkpt lat="42.5320075" lon="-8.4087144"><ele>356.0</ele><time>2026-04-19T13:25:14.402Z</time></trkpt><trkpt lat="42.5319666" lon="-8.408496"><ele>347.0</ele><time>2026-04-19T13:25:15.417Z</time></trkpt><trkpt lat="42.5319266" lon="-8.4082785"><ele>347.0</ele><time>2026-04-19T13:25:16.427Z</time></trkpt><trkpt lat="42.5318901" lon="-8.408062"><ele>347.0</ele><time>2026-04-19T13:25:17.402Z</time></trkpt><trkpt lat="42.531859" lon="-8.4078464"><ele>347.0</ele><time>2026-04-19T13:25:18.433Z</time></trkpt><trkpt lat="42.5318369" lon="-8.4076252"><ele>347.33333333333337</ele><time>2026-04-19T13:25:19.422Z</time></trkpt><trkpt lat="42.5318261" lon="-8.4074045"><ele>347.6666666666667</ele><time>2026-04-19T13:25:20.433Z</time></trkpt><trkpt lat="42.531833" lon="-8.4071812"><ele>348.0</ele><time>2026-04-19T13:25:21.429Z</time></trkpt><trkpt lat="42.531865" lon="-8.4069564"><ele>348.3333333333333</ele><time>2026-04-19T13:25:22.438Z</time></trkpt><trkpt lat="42.5319115" lon="-8.4067348"><ele>348.66666666666663</ele><time>2026-04-19T13:25:23.429Z</time></trkpt><trkpt lat="42.5319636" lon="-8.406514"><ele>349.0</ele><time>2026-04-19T13:25:24.445Z</time></trkpt><trkpt lat="42.532047" lon="-8.4062909"><ele>353.3333333333333</ele><time>2026-04-19T13:25:25.418Z</time></trkpt><trkpt lat="42.5321249" lon="-8.4060648"><ele>357.6666666666667</ele><time>2026-04-19T13:25:26.433Z</time></trkpt><trkpt lat="42.5322169" lon="-8.4058552"><ele>362.0</ele><time>2026-04-19T13:25:27.43Z</time></trkpt><trkpt lat="42.5323008" lon="-8.4056449"><ele>360.6666666666667</ele><time>2026-04-19T13:25:28.424Z</time></trkpt><trkpt lat="42.5323788" lon="-8.405437"><ele>359.3333333333333</ele><time>2026-04-19T13:25:29.441Z</time></trkpt><trkpt lat="42.532453" lon="-8.4052291"><ele>358.0</ele><time>2026-04-19T13:25:30.448Z</time></trkpt><trkpt lat="42.5325252" lon="-8.4050196"><ele>358.0</ele><time>2026-04-19T13:25:31.437Z</time></trkpt><trkpt lat="42.5325993" lon="-8.4048108"><ele>358.0</ele><time>2026-04-19T13:25:32.426Z</time></trkpt><trkpt lat="42.5326739" lon="-8.4046021"><ele>358.0</ele><time>2026-04-19T13:25:33.448Z</time></trkpt><trkpt lat="42.5327379" lon="-8.4043855"><ele>354.0</ele><time>2026-04-19T13:25:34.457Z</time></trkpt><trkpt lat="42.5327877" lon="-8.404165"><ele>350.0</ele><time>2026-04-19T13:25:35.445Z</time></trkpt><trkpt lat="42.5328245" lon="-8.4039383"><ele>346.0</ele><time>2026-04-19T13:25:36.429Z</time></trkpt><trkpt lat="42.5328403" lon="-8.4037074"><ele>345.3333333333333</ele><time>2026-04-19T13:25:37.425Z</time></trkpt><trkpt lat="42.5328373" lon="-8.4034753"><ele>344.6666666666667</ele><time>2026-04-19T13:25:38.445Z</time></trkpt><trkpt lat="42.5328166" lon="-8.4032518"><ele>344.0</ele><time>2026-04-19T13:25:39.414Z</time></trkpt><trkpt lat="42.5327844" lon="-8.4030263"><ele>344.6666666666667</ele><time>2026-04-19T13:25:40.424Z</time></trkpt><trkpt lat="42.5327482" lon="-8.4027987"><ele>345.3333333333333</ele><time>2026-04-19T13:25:41.43Z</time></trkpt><trkpt lat="42.5327121" lon="-8.4025725"><ele>346.0</ele><time>2026-04-19T13:25:42.436Z</time></trkpt><trkpt lat="42.5326776" lon="-8.4023433"><ele>348.0</ele><time>2026-04-19T13:25:43.452Z</time></trkpt><trkpt lat="42.5326486" lon="-8.4021109"><ele>350.0</ele><time>2026-04-19T13:25:44.452Z</time></trkpt><trkpt lat="42.5326198" lon="-8.4018895"><ele>352.0</ele><time>2026-04-19T13:25:45.457Z</time></trkpt><trkpt lat="42.532592" lon="-8.401659"><ele>352.0</ele><time>2026-04-19T13:25:46.445Z</time></trkpt><trkpt lat="42.5325619" lon="-8.4014306"><ele>352.0</ele><time>2026-04-19T13:25:47.456Z</time></trkpt><trkpt lat="42.5325308" lon="-8.4012012"><ele>352.0</ele><time>2026-04-19T13:25:48.459Z</time></trkpt><trkpt lat="42.5325056" lon="-8.4009707"><ele>352.66666666666663</ele><time>2026-04-19T13:25:49.471Z</time></trkpt><trkpt lat="42.5324819" lon="-8.4007392"><ele>353.3333333333333</ele><time>2026-04-19T13:25:50.466Z</time></trkpt><trkpt lat="42.5324569" lon="-8.4005043"><ele>354.0</ele><time>2026-04-19T13:25:51.464Z</time></trkpt><trkpt lat="42.5324317" lon="-8.400266"><ele>354.6666666666667</ele><time>2026-04-19T13:25:52.468Z</time></trkpt><trkpt lat="42.5324123" lon="-8.4000288"><ele>355.33333333333337</ele><time>2026-04-19T13:25:53.436Z</time></trkpt><trkpt lat="42.5323912" lon="-8.3997943"><ele>356.0</ele><time>2026-04-19T13:25:54.464Z</time></trkpt><trkpt lat="42.5323719" lon="-8.3995561"><ele>356.0</ele><time>2026-04-19T13:25:55.468Z</time></trkpt><trkpt lat="42.5323558" lon="-8.3993253"><ele>356.0</ele><time>2026-04-19T13:25:56.462Z</time></trkpt><trkpt lat="42.5323395" lon="-8.3990929"><ele>356.0</ele><time>2026-04-19T13:25:57.473Z</time></trkpt><trkpt lat="42.5323209" lon="-8.398861"><ele>354.0</ele><time>2026-04-19T13:25:58.466Z</time></trkpt><trkpt lat="42.5323046" lon="-8.3986313"><ele>352.0</ele><time>2026-04-19T13:25:59.466Z</time></trkpt><trkpt lat="42.5322887" lon="-8.3984042"><ele>350.0</ele><time>2026-04-19T13:26:00.461Z</time></trkpt><trkpt lat="42.532278" lon="-8.3981678"><ele>347.33333333333337</ele><time>2026-04-19T13:26:01.465Z</time></trkpt><trkpt lat="42.5322644" lon="-8.3979395"><ele>344.6666666666667</ele><time>2026-04-19T13:26:02.476Z</time></trkpt><trkpt lat="42.5322487" lon="-8.3977145"><ele>342.0</ele><time>2026-04-19T13:26:03.465Z</time></trkpt><trkpt lat="42.5322354" lon="-8.397481"><ele>342.0</ele><time>2026-04-19T13:26:04.374Z</time></trkpt><trkpt lat="42.5322222" lon="-8.3972523"><ele>342.0</ele><time>2026-04-19T13:26:05.375Z</time></trkpt><trkpt lat="42.5322082" lon="-8.3970238"><ele>342.0</ele><time>2026-04-19T13:26:06.376Z</time></trkpt><trkpt lat="42.532194" lon="-8.3967986"><ele>339.3333333333333</ele><time>2026-04-19T13:26:07.38Z</time></trkpt><trkpt lat="42.5321793" lon="-8.3965733"><ele>336.66666666666663</ele><time>2026-04-19T13:26:08.375Z</time></trkpt><trkpt lat="42.532162" lon="-8.3963438"><ele>334.0</ele><time>2026-04-19T13:26:09.381Z</time></trkpt><trkpt lat="42.532144" lon="-8.396113"><ele>333.66666666666663</ele><time>2026-04-19T13:26:10.353Z</time></trkpt><trkpt lat="42.5321229" lon="-8.3958829"><ele>333.3333333333333</ele><time>2026-04-19T13:26:11.367Z</time></trkpt><trkpt lat="42.5320972" lon="-8.3956571"><ele>333.0</ele><time>2026-04-19T13:26:12.39Z</time></trkpt><trkpt lat="42.5320543" lon="-8.395441"><ele>333.5</ele><time>2026-04-19T13:26:13.39Z</time></trkpt><trkpt lat="42.532001" lon="-8.3952286"><ele>334.0</ele><time>2026-04-19T13:26:14.371Z</time></trkpt><trkpt lat="42.5319676" lon="-8.3950287"><ele>334.5</ele><time>2026-04-19T13:26:15.361Z</time></trkpt><trkpt lat="42.5319729" lon="-8.3948509"><ele>335.0</ele><time>2026-04-19T13:26:16.376Z</time></trkpt><trkpt lat="42.5319899" lon="-8.3947032"><ele>336.2</ele><time>2026-04-19T13:26:17.36Z</time></trkpt><trkpt lat="42.5320102" lon="-8.3945666"><ele>337.4</ele><time>2026-04-19T13:26:18.369Z</time></trkpt><trkpt lat="42.5320264" lon="-8.3944357"><ele>338.6</ele><time>2026-04-19T13:26:19.395Z</time></trkpt><trkpt lat="42.532023" lon="-8.3943301"><ele>339.8</ele><time>2026-04-19T13:26:20.397Z</time></trkpt><trkpt lat="42.5320177" lon="-8.39422"><ele>341.0</ele><time>2026-04-19T13:26:21.39Z</time></trkpt><trkpt lat="42.532011" lon="-8.3940936"><ele>341.0</ele><time>2026-04-19T13:26:22.382Z</time></trkpt><trkpt lat="42.5320119" lon="-8.3939607"><ele>341.0</ele><time>2026-04-19T13:26:23.36Z</time></trkpt><trkpt lat="42.5320101" lon="-8.3938169"><ele>341.0</ele><time>2026-04-19T13:26:24.391Z</time></trkpt><trkpt lat="42.5320077" lon="-8.3936674"><ele>341.0</ele><time>2026-04-19T13:26:25.382Z</time></trkpt><trkpt lat="42.5320062" lon="-8.3935093"><ele>341.0</ele><time>2026-04-19T13:26:26.392Z</time></trkpt><trkpt lat="42.5320067" lon="-8.3933389"><ele>341.75</ele><time>2026-04-19T13:26:27.388Z</time></trkpt><trkpt lat="42.532009" lon="-8.3931695"><ele>342.5</ele><time>2026-04-19T13:26:28.393Z</time></trkpt><trkpt lat="42.5320168" lon="-8.3930031"><ele>343.25</ele><time>2026-04-19T13:26:29.385Z</time></trkpt><trkpt lat="42.5320245" lon="-8.3928499"><ele>344.0</ele><time>2026-04-19T13:26:30.399Z</time></trkpt><trkpt lat="42.5320295" lon="-8.3927054"><ele>344.6</ele><time>2026-04-19T13:26:31.402Z</time></trkpt><trkpt lat="42.5320292" lon="-8.3925641"><ele>345.2</ele><time>2026-04-19T13:26:32.398Z</time></trkpt><trkpt lat="42.5320297" lon="-8.3924278"><ele>345.8</ele><time>2026-04-19T13:26:33.41Z</time></trkpt><trkpt lat="42.532028" lon="-8.392293"><ele>346.40000000000003</ele><time>2026-04-19T13:26:34.396Z</time></trkpt><trkpt lat="42.5320209" lon="-8.3921557"><ele>347.0</ele><time>2026-04-19T13:26:35.398Z</time></trkpt><trkpt lat="42.5320093" lon="-8.3920165"><ele>348.6</ele><time>2026-04-19T13:26:36.402Z</time></trkpt><trkpt lat="42.5319941" lon="-8.3918762"><ele>350.20000000000005</ele><time>2026-04-19T13:26:37.393Z</time></trkpt><trkpt lat="42.531979" lon="-8.3917319"><ele>351.8</ele><time>2026-04-19T13:26:38.413Z</time></trkpt><trkpt lat="42.531964" lon="-8.3915866"><ele>353.4</ele><time>2026-04-19T13:26:39.404Z</time></trkpt><trkpt lat="42.5319539" lon="-8.3914361"><ele>355.0</ele><time>2026-04-19T13:26:40.412Z</time></trkpt><trkpt lat="42.5319442" lon="-8.3912855"><ele>356.5</ele><time>2026-04-19T13:26:41.41Z</time></trkpt><trkpt lat="42.5319286" lon="-8.3911272"><ele>358.0</ele><time>2026-04-19T13:26:42.419Z</time></trkpt><trkpt lat="42.5319105" lon="-8.3909726"><ele>359.5</ele><time>2026-04-19T13:26:43.407Z</time></trkpt><trkpt lat="42.5318975" lon="-8.3908123"><ele>361.0</ele><time>2026-04-19T13:26:44.4Z</time></trkpt><trkpt lat="42.5318939" lon="-8.3906544"><ele>359.75</ele><time>2026-04-19T13:26:45.392Z</time></trkpt><trkpt lat="42.5319041" lon="-8.3905067"><ele>358.5</ele><time>2026-04-19T13:26:46.402Z</time></trkpt><trkpt lat="42.5319268" lon="-8.390359"><ele>357.25</ele><time>2026-04-19T13:26:47.399Z</time></trkpt><trkpt lat="42.5319606" lon="-8.390208"><ele>356.0</ele><time>2026-04-19T13:26:48.417Z</time></trkpt><trkpt lat="42.5320127" lon="-8.3900682"><ele>359.25</ele><time>2026-04-19T13:26:49.41Z</time></trkpt><trkpt lat="42.5320693" lon="-8.3899316"><ele>362.5</ele><time>2026-04-19T13:26:50.413Z</time></trkpt><trkpt lat="42.5321294" lon="-8.3897861"><ele>365.75</ele><time>2026-04-19T13:26:51.403Z</time></trkpt><trkpt lat="42.5321921" lon="-8.3896395"><ele>369.0</ele><time>2026-04-19T13:26:52.388Z</time></trkpt><trkpt lat="42.5322491" lon="-8.3894845"><ele>369.0</ele><time>2026-04-19T13:26:53.404Z</time></trkpt><trkpt lat="42.5323052" lon="-8.3893362"><ele>369.0</ele><time>2026-04-19T13:26:54.42Z</time></trkpt><trkpt lat="42.5323687" lon="-8.3891867"><ele>369.0</ele><time>2026-04-19T13:26:55.425Z</time></trkpt><trkpt lat="42.5324265" lon="-8.3890349"><ele>369.0</ele><time>2026-04-19T13:26:56.421Z</time></trkpt><trkpt lat="42.5324809" lon="-8.3888777"><ele>368.5</ele><time>2026-04-19T13:26:57.418Z</time></trkpt><trkpt lat="42.5325414" lon="-8.3887187"><ele>368.0</ele><time>2026-04-19T13:26:58.42Z</time></trkpt><trkpt lat="42.5326054" lon="-8.3885584"><ele>367.5</ele><time>2026-04-19T13:26:59.414Z</time></trkpt><trkpt lat="42.5326705" lon="-8.3883922"><ele>367.0</ele><time>2026-04-19T13:27:00.428Z</time></trkpt><trkpt lat="42.5327387" lon="-8.3882292"><ele>367.0</ele><time>2026-04-19T13:27:01.43Z</time></trkpt><trkpt lat="42.5328081" lon="-8.388066"><ele>367.0</ele><time>2026-04-19T13:27:02.428Z</time></trkpt><trkpt lat="42.5328883" lon="-8.3878923"><ele>367.0</ele><time>2026-04-19T13:27:03.433Z</time></trkpt><trkpt lat="42.5329749" lon="-8.3876987"><ele>371.3333333333333</ele><time>2026-04-19T13:27:04.423Z</time></trkpt><trkpt lat="42.533069" lon="-8.3874812"><ele>375.6666666666667</ele><time>2026-04-19T13:27:05.443Z</time></trkpt><trkpt lat="42.5331791" lon="-8.3872446"><ele>380.0</ele><time>2026-04-19T13:27:06.407Z</time></trkpt><trkpt lat="42.5332959" lon="-8.3870105"><ele>380.0</ele><time>2026-04-19T13:27:07.442Z</time></trkpt><trkpt lat="42.5334245" lon="-8.3868238"><ele>380.0</ele><time>2026-04-19T13:27:08.439Z</time></trkpt><trkpt lat="42.5335428" lon="-8.3866519"><ele>380.0</ele><time>2026-04-19T13:27:09.414Z</time></trkpt><trkpt lat="42.5336384" lon="-8.3864875"><ele>379.5</ele><time>2026-04-19T13:27:10.435Z</time></trkpt><trkpt lat="42.533692" lon="-8.3863083"><ele>379.0</ele><time>2026-04-19T13:27:11.459Z</time></trkpt><trkpt lat="42.5337029" lon="-8.3860986"><ele>378.5</ele><time>2026-04-19T13:27:12.434Z</time></trkpt><trkpt lat="42.5336923" lon="-8.3858952"><ele>378.0</ele><time>2026-04-19T13:27:13.443Z</time></trkpt><trkpt lat="42.5336922" lon="-8.3856879"><ele>377.6666666666667</ele><time>2026-04-19T13:27:14.421Z</time></trkpt><trkpt lat="42.5337006" lon="-8.3854818"><ele>377.33333333333337</ele><time>2026-04-19T13:27:15.428Z</time></trkpt><trkpt lat="42.5337278" lon="-8.3852763"><ele>377.0</ele><time>2026-04-19T13:27:16.434Z</time></trkpt><trkpt lat="42.5337859" lon="-8.3850879"><ele>383.6666666666667</ele><time>2026-04-19T13:27:17.435Z</time></trkpt><trkpt lat="42.5338625" lon="-8.3849113"><ele>390.33333333333337</ele><time>2026-04-19T13:27:18.442Z</time></trkpt><trkpt lat="42.5339342" lon="-8.3847277"><ele>397.0</ele><time>2026-04-19T13:27:19.442Z</time></trkpt><trkpt lat="42.5340131" lon="-8.3845516"><ele>397.0</ele><time>2026-04-19T13:27:20.452Z</time></trkpt><trkpt lat="42.5340936" lon="-8.3843736"><ele>397.0</ele><time>2026-04-19T13:27:21.443Z</time></trkpt><trkpt lat="42.5341777" lon="-8.3841962"><ele>397.0</ele><time>2026-04-19T13:27:22.455Z</time></trkpt><trkpt lat="42.534256" lon="-8.3840123"><ele>394.0</ele><time>2026-04-19T13:27:23.437Z</time></trkpt><trkpt lat="42.5343345" lon="-8.3838275"><ele>391.0</ele><time>2026-04-19T13:27:24.432Z</time></trkpt><trkpt lat="42.5344065" lon="-8.3836382"><ele>388.0</ele><time>2026-04-19T13:27:25.442Z</time></trkpt><trkpt lat="42.5344847" lon="-8.3834424"><ele>397.33333333333337</ele><time>2026-04-19T13:27:26.421Z</time></trkpt><trkpt lat="42.5345564" lon="-8.3832404"><ele>406.66666666666663</ele><time>2026-04-19T13:27:27.441Z</time></trkpt><trkpt lat="42.5346192" lon="-8.3830339"><ele>416.0</ele><time>2026-04-19T13:27:28.459Z</time></trkpt><trkpt lat="42.5346817" lon="-8.3828282"><ele>416.0</ele><time>2026-04-19T13:27:29.456Z</time></trkpt><trkpt lat="42.5347415" lon="-8.382617"><ele>416.0</ele><time>2026-04-19T13:27:30.456Z</time></trkpt><trkpt lat="42.5348001" lon="-8.3824037"><ele>416.0</ele><time>2026-04-19T13:27:31.456Z</time></trkpt><trkpt lat="42.5348556" lon="-8.38219"><ele>413.3333333333333</ele><time>2026-04-19T13:27:32.484Z</time></trkpt><trkpt lat="42.5349073" lon="-8.3819733"><ele>410.66666666666663</ele><time>2026-04-19T13:27:33.459Z</time></trkpt><trkpt lat="42.534962" lon="-8.3817616"><ele>408.0</ele><time>2026-04-19T13:27:34.462Z</time></trkpt><trkpt lat="42.535015" lon="-8.3815505"><ele>406.33333333333337</ele><time>2026-04-19T13:27:35.471Z</time></trkpt><trkpt lat="42.5350692" lon="-8.3813391"><ele>404.6666666666667</ele><time>2026-04-19T13:27:36.449Z</time></trkpt><trkpt lat="42.5351313" lon="-8.3811368"><ele>403.0</ele><time>2026-04-19T13:27:37.454Z</time></trkpt><trkpt lat="42.535191" lon="-8.3809328"><ele>403.0</ele><time>2026-04-19T13:27:38.462Z</time></trkpt><trkpt lat="42.5352597" lon="-8.3807358"><ele>403.0</ele><time>2026-04-19T13:27:39.458Z</time></trkpt><trkpt lat="42.5353345" lon="-8.3805427"><ele>403.0</ele><time>2026-04-19T13:27:40.453Z</time></trkpt><trkpt lat="42.5354202" lon="-8.3803566"><ele>409.6666666666667</ele><time>2026-04-19T13:27:41.468Z</time></trkpt><trkpt lat="42.5355084" lon="-8.3801752"><ele>416.33333333333337</ele><time>2026-04-19T13:27:42.47Z</time></trkpt><trkpt lat="42.5355967" lon="-8.3800011"><ele>423.0</ele><time>2026-04-19T13:27:43.467Z</time></trkpt><trkpt lat="42.5356954" lon="-8.3798271"><ele>421.0</ele><time>2026-04-19T13:27:44.469Z</time></trkpt><trkpt lat="42.5358109" lon="-8.3796401"><ele>419.0</ele><time>2026-04-19T13:27:45.464Z</time></trkpt><trkpt lat="42.5359363" lon="-8.3794479"><ele>417.0</ele><time>2026-04-19T13:27:46.465Z</time></trkpt><trkpt lat="42.5360832" lon="-8.3792397"><ele>421.0</ele><time>2026-04-19T13:27:47.469Z</time></trkpt><trkpt lat="42.5362504" lon="-8.3790273"><ele>425.0</ele><time>2026-04-19T13:27:48.449Z</time></trkpt><trkpt lat="42.5364342" lon="-8.378812"><ele>425.0</ele><time>2026-04-19T13:27:49.465Z</time></trkpt><trkpt lat="42.5366347" lon="-8.3785911"><ele>425.0</ele><time>2026-04-19T13:27:50.459Z</time></trkpt><trkpt lat="42.5368498" lon="-8.3783633"><ele>429.0</ele><time>2026-04-19T13:27:51.443Z</time></trkpt><trkpt lat="42.5370797" lon="-8.3781233"><ele>433.0</ele><time>2026-04-19T13:27:52.463Z</time></trkpt><trkpt lat="42.5373174" lon="-8.377869"><ele>433.0</ele><time>2026-04-19T13:27:53.46Z</time></trkpt><trkpt lat="42.5375671" lon="-8.3775767"><ele>433.0</ele><time>2026-04-19T13:27:54.453Z</time></trkpt><trkpt lat="42.5378287" lon="-8.3772744"><ele>435.0</ele><time>2026-04-19T13:27:55.453Z</time></trkpt><trkpt lat="42.5380995" lon="-8.3769729"><ele>437.0</ele><time>2026-04-19T13:27:56.444Z</time></trkpt><trkpt lat="42.5383859" lon="-8.3766636"><ele>441.0</ele><time>2026-04-19T13:27:57.451Z</time></trkpt><trkpt lat="42.5386882" lon="-8.3763487"><ele>445.0</ele><time>2026-04-19T13:27:58.465Z</time></trkpt><trkpt lat="42.5389985" lon="-8.3760239"><ele>445.0</ele><time>2026-04-19T13:27:59.462Z</time></trkpt><trkpt lat="42.539302" lon="-8.3756744"><ele>445.0</ele><time>2026-04-19T13:28:00.451Z</time></trkpt><trkpt lat="42.5395922" lon="-8.3752923"><ele>445.5</ele><time>2026-04-19T13:28:01.463Z</time></trkpt><trkpt lat="42.5398653" lon="-8.3748751"><ele>446.0</ele><time>2026-04-19T13:28:02.442Z</time></trkpt><trkpt lat="42.5401216" lon="-8.37443"><ele>446.0</ele><time>2026-04-19T13:28:03.457Z</time></trkpt><trkpt lat="42.540363" lon="-8.3739639"><ele>446.0</ele><time>2026-04-19T13:28:04.47Z</time></trkpt><trkpt lat="42.5405899" lon="-8.3734902"><ele>450.0</ele><time>2026-04-19T13:28:05.465Z</time></trkpt><trkpt lat="42.5409894" lon="-8.3726449"><ele>450.0</ele><time>2026-04-19T13:28:07.358Z</time></trkpt><trkpt lat="42.5411261" lon="-8.372288"><ele>450.0</ele><time>2026-04-19T13:28:08.365Z</time></trkpt><trkpt lat="42.5412304" lon="-8.3719401"><ele>462.0</ele><time>2026-04-19T13:28:09.353Z</time></trkpt><trkpt lat="42.5412992" lon="-8.3715975"><ele>474.0</ele><time>2026-04-19T13:28:10.373Z</time></trkpt><trkpt lat="42.5413099" lon="-8.3712763"><ele>477.5</ele><time>2026-04-19T13:28:11.383Z</time></trkpt><trkpt lat="42.5412987" lon="-8.3709433"><ele>481.0</ele><time>2026-04-19T13:28:12.399Z</time></trkpt><trkpt lat="42.5412656" lon="-8.3706271"><ele>476.0</ele><time>2026-04-19T13:28:13.356Z</time></trkpt><trkpt lat="42.5412012" lon="-8.3703167"><ele>471.0</ele><time>2026-04-19T13:28:14.374Z</time></trkpt><trkpt lat="42.5411033" lon="-8.3700352"><ele>471.0</ele><time>2026-04-19T13:28:15.371Z</time></trkpt><trkpt lat="42.5409804" lon="-8.3697769"><ele>471.0</ele><time>2026-04-19T13:28:16.351Z</time></trkpt><trkpt lat="42.5408371" lon="-8.3695368"><ele>470.33333333333337</ele><time>2026-04-19T13:28:17.357Z</time></trkpt><trkpt lat="42.5406872" lon="-8.3693105"><ele>469.6666666666667</ele><time>2026-04-19T13:28:18.373Z</time></trkpt><trkpt lat="42.5405321" lon="-8.3690929"><ele>469.0</ele><time>2026-04-19T13:28:19.394Z</time></trkpt><trkpt lat="42.5403617" lon="-8.3688865"><ele>481.0</ele><time>2026-04-19T13:28:20.383Z</time></trkpt><trkpt lat="42.5401893" lon="-8.3686867"><ele>493.0</ele><time>2026-04-19T13:28:21.378Z</time></trkpt><trkpt lat="42.5400097" lon="-8.3684963"><ele>493.0</ele><time>2026-04-19T13:28:22.385Z</time></trkpt><trkpt lat="42.5398198" lon="-8.368315"><ele>493.0</ele><time>2026-04-19T13:28:23.384Z</time></trkpt><trkpt lat="42.5396292" lon="-8.3681388"><ele>495.5</ele><time>2026-04-19T13:28:24.385Z</time></trkpt><trkpt lat="42.5394437" lon="-8.3679651"><ele>498.0</ele><time>2026-04-19T13:28:25.391Z</time></trkpt><trkpt lat="42.5392648" lon="-8.3677801"><ele>498.0</ele><time>2026-04-19T13:28:26.384Z</time></trkpt><trkpt lat="42.5391083" lon="-8.367563"><ele>498.0</ele><time>2026-04-19T13:28:27.404Z</time></trkpt><trkpt lat="42.5389818" lon="-8.367324"><ele>498.0</ele><time>2026-04-19T13:28:28.399Z</time></trkpt><trkpt lat="42.5388758" lon="-8.3670627"><ele>500.66666666666663</ele><time>2026-04-19T13:28:29.396Z</time></trkpt><trkpt lat="42.538815" lon="-8.3667951"><ele>503.3333333333333</ele><time>2026-04-19T13:28:30.382Z</time></trkpt><trkpt lat="42.538772" lon="-8.3665205"><ele>506.0</ele><time>2026-04-19T13:28:31.407Z</time></trkpt><trkpt lat="42.5387383" lon="-8.3662433"><ele>509.0</ele><time>2026-04-19T13:28:32.406Z</time></trkpt><trkpt lat="42.538721" lon="-8.3659683"><ele>512.0</ele><time>2026-04-19T13:28:33.385Z</time></trkpt><trkpt lat="42.5387074" lon="-8.3656944"><ele>515.0</ele><time>2026-04-19T13:28:34.405Z</time></trkpt><trkpt lat="42.5387183" lon="-8.3654238"><ele>515.0</ele><time>2026-04-19T13:28:35.385Z</time></trkpt><trkpt lat="42.5387617" lon="-8.3651554"><ele>515.0</ele><time>2026-04-19T13:28:36.393Z</time></trkpt><trkpt lat="42.538828" lon="-8.3649044"><ele>515.0</ele><time>2026-04-19T13:28:37.421Z</time></trkpt><trkpt lat="42.5389203" lon="-8.364665"><ele>512.0</ele><time>2026-04-19T13:28:38.419Z</time></trkpt><trkpt lat="42.5390366" lon="-8.3644405"><ele>509.0</ele><time>2026-04-19T13:28:39.413Z</time></trkpt><trkpt lat="42.5391808" lon="-8.3642399"><ele>506.0</ele><time>2026-04-19T13:28:40.415Z</time></trkpt><trkpt lat="42.5393353" lon="-8.3640365"><ele>509.3333333333333</ele><time>2026-04-19T13:28:41.412Z</time></trkpt><trkpt lat="42.5394954" lon="-8.3638442"><ele>512.6666666666666</ele><time>2026-04-19T13:28:42.419Z</time></trkpt><trkpt lat="42.5396525" lon="-8.363652"><ele>516.0</ele><time>2026-04-19T13:28:43.411Z</time></trkpt><trkpt lat="42.539799" lon="-8.3634611"><ele>516.0</ele><time>2026-04-19T13:28:44.418Z</time></trkpt><trkpt lat="42.5399397" lon="-8.3632715"><ele>516.0</ele><time>2026-04-19T13:28:45.415Z</time></trkpt><trkpt lat="42.5400755" lon="-8.3630797"><ele>516.0</ele><time>2026-04-19T13:28:46.414Z</time></trkpt><trkpt lat="42.5402091" lon="-8.3628853"><ele>518.0</ele><time>2026-04-19T13:28:47.39Z</time></trkpt><trkpt lat="42.5403381" lon="-8.3626859"><ele>520.0</ele><time>2026-04-19T13:28:48.415Z</time></trkpt><trkpt lat="42.5404676" lon="-8.3624789"><ele>522.0</ele><time>2026-04-19T13:28:49.415Z</time></trkpt><trkpt lat="42.5405927" lon="-8.3622627"><ele>518.6666666666666</ele><time>2026-04-19T13:28:50.429Z</time></trkpt><trkpt lat="42.5407146" lon="-8.362041"><ele>515.3333333333333</ele><time>2026-04-19T13:28:51.426Z</time></trkpt><trkpt lat="42.5408379" lon="-8.361818"><ele>512.0</ele><time>2026-04-19T13:28:52.411Z</time></trkpt><trkpt lat="42.5409598" lon="-8.3615992"><ele>512.0</ele><time>2026-04-19T13:28:53.415Z</time></trkpt><trkpt lat="42.541085" lon="-8.3613854"><ele>512.0</ele><time>2026-04-19T13:28:54.427Z</time></trkpt><trkpt lat="42.5412073" lon="-8.3611635"><ele>512.0</ele><time>2026-04-19T13:28:55.432Z</time></trkpt><trkpt lat="42.5413197" lon="-8.3609298"><ele>511.3333333333333</ele><time>2026-04-19T13:28:56.43Z</time></trkpt><trkpt lat="42.5414111" lon="-8.3606675"><ele>510.66666666666663</ele><time>2026-04-19T13:28:57.415Z</time></trkpt><trkpt lat="42.5414885" lon="-8.3604012"><ele>510.0</ele><time>2026-04-19T13:28:58.432Z</time></trkpt><trkpt lat="42.5415437" lon="-8.3601251"><ele>510.0</ele><time>2026-04-19T13:28:59.428Z</time></trkpt><trkpt lat="42.5415784" lon="-8.3598521"><ele>510.0</ele><time>2026-04-19T13:29:00.432Z</time></trkpt><trkpt lat="42.5415859" lon="-8.3595705"><ele>510.0</ele><time>2026-04-19T13:29:01.432Z</time></trkpt><trkpt lat="42.5416033" lon="-8.3592966"><ele>510.0</ele><time>2026-04-19T13:29:02.436Z</time></trkpt><trkpt lat="42.5416179" lon="-8.3590182"><ele>510.0</ele><time>2026-04-19T13:29:03.439Z</time></trkpt><trkpt lat="42.5416518" lon="-8.3587492"><ele>510.0</ele><time>2026-04-19T13:29:04.419Z</time></trkpt><trkpt lat="42.5417018" lon="-8.358482"><ele>509.33333333333337</ele><time>2026-04-19T13:29:05.445Z</time></trkpt><trkpt lat="42.5417753" lon="-8.3582238"><ele>508.6666666666667</ele><time>2026-04-19T13:29:06.442Z</time></trkpt><trkpt lat="42.5418649" lon="-8.357978"><ele>508.0</ele><time>2026-04-19T13:29:07.441Z</time></trkpt><trkpt lat="42.5419568" lon="-8.3577395"><ele>510.33333333333337</ele><time>2026-04-19T13:29:08.441Z</time></trkpt><trkpt lat="42.5420646" lon="-8.3575106"><ele>512.6666666666666</ele><time>2026-04-19T13:29:09.447Z</time></trkpt><trkpt lat="42.5421801" lon="-8.3572973"><ele>515.0</ele><time>2026-04-19T13:29:10.442Z</time></trkpt><trkpt lat="42.5422856" lon="-8.3570901"><ele>516.3333333333333</ele><time>2026-04-19T13:29:11.444Z</time></trkpt><trkpt lat="42.5423874" lon="-8.3568837"><ele>517.6666666666666</ele><time>2026-04-19T13:29:12.449Z</time></trkpt><trkpt lat="42.5424869" lon="-8.3566824"><ele>519.0</ele><time>2026-04-19T13:29:13.438Z</time></trkpt><trkpt lat="42.5425922" lon="-8.3564916"><ele>518.6666666666666</ele><time>2026-04-19T13:29:14.443Z</time></trkpt><trkpt lat="42.5426901" lon="-8.3562956"><ele>518.3333333333333</ele><time>2026-04-19T13:29:15.441Z</time></trkpt><trkpt lat="42.5427883" lon="-8.3560981"><ele>518.0</ele><time>2026-04-19T13:29:16.451Z</time></trkpt><trkpt lat="42.542885" lon="-8.3558962"><ele>518.0</ele><time>2026-04-19T13:29:17.464Z</time></trkpt><trkpt lat="42.5429735" lon="-8.3556928"><ele>518.0</ele><time>2026-04-19T13:29:18.455Z</time></trkpt><trkpt lat="42.5430575" lon="-8.3554899"><ele>518.0</ele><time>2026-04-19T13:29:19.438Z</time></trkpt><trkpt lat="42.543135" lon="-8.3552884"><ele>520.0</ele><time>2026-04-19T13:29:20.45Z</time></trkpt><trkpt lat="42.5432045" lon="-8.3550766"><ele>522.0</ele><time>2026-04-19T13:29:21.457Z</time></trkpt><trkpt lat="42.5432585" lon="-8.3548564"><ele>524.0</ele><time>2026-04-19T13:29:22.452Z</time></trkpt><trkpt lat="42.5433031" lon="-8.3546282"><ele>525.3333333333333</ele><time>2026-04-19T13:29:23.447Z</time></trkpt><trkpt lat="42.5433441" lon="-8.3543911"><ele>526.6666666666666</ele><time>2026-04-19T13:29:24.461Z</time></trkpt><trkpt lat="42.5433695" lon="-8.3541429"><ele>528.0</ele><time>2026-04-19T13:29:25.46Z</time></trkpt><trkpt lat="42.5433933" lon="-8.3538898"><ele>529.3333333333334</ele><time>2026-04-19T13:29:26.461Z</time></trkpt><trkpt lat="42.5434113" lon="-8.3536358"><ele>530.6666666666667</ele><time>2026-04-19T13:29:27.461Z</time></trkpt><trkpt lat="42.5434234" lon="-8.3533722"><ele>532.0</ele><time>2026-04-19T13:29:28.463Z</time></trkpt><trkpt lat="42.5434358" lon="-8.353105"><ele>532.3333333333334</ele><time>2026-04-19T13:29:29.456Z</time></trkpt><trkpt lat="42.5434527" lon="-8.3528291"><ele>532.6666666666666</ele><time>2026-04-19T13:29:30.46Z</time></trkpt><trkpt lat="42.5434819" lon="-8.3525557"><ele>533.0</ele><time>2026-04-19T13:29:31.462Z</time></trkpt><trkpt lat="42.5435173" lon="-8.3522752"><ele>534.3333333333333</ele><time>2026-04-19T13:29:32.46Z</time></trkpt><trkpt lat="42.5435591" lon="-8.3519952"><ele>535.6666666666666</ele><time>2026-04-19T13:29:33.439Z</time></trkpt><trkpt lat="42.5436031" lon="-8.3517228"><ele>537.0</ele><time>2026-04-19T13:29:34.446Z</time></trkpt><trkpt lat="42.5436424" lon="-8.3514456"><ele>538.0</ele><time>2026-04-19T13:29:35.459Z</time></trkpt><trkpt lat="42.5436786" lon="-8.3511758"><ele>539.0</ele><time>2026-04-19T13:29:36.447Z</time></trkpt><trkpt lat="42.5437057" lon="-8.3508947"><ele>540.0</ele><time>2026-04-19T13:29:37.465Z</time></trkpt><trkpt lat="42.5437208" lon="-8.3506134"><ele>540.0</ele><time>2026-04-19T13:29:38.465Z</time></trkpt><trkpt lat="42.543724" lon="-8.3503274"><ele>540.0</ele><time>2026-04-19T13:29:39.475Z</time></trkpt><trkpt lat="42.5437112" lon="-8.3500422"><ele>540.0</ele><time>2026-04-19T13:29:40.466Z</time></trkpt><trkpt lat="42.543685" lon="-8.3497484"><ele>538.0</ele><time>2026-04-19T13:29:41.382Z</time></trkpt><trkpt lat="42.5436386" lon="-8.3494503"><ele>536.0</ele><time>2026-04-19T13:29:42.357Z</time></trkpt><trkpt lat="42.5435646" lon="-8.3491579"><ele>535.5</ele><time>2026-04-19T13:29:43.367Z</time></trkpt><trkpt lat="42.54348" lon="-8.3488677"><ele>535.0</ele><time>2026-04-19T13:29:44.374Z</time></trkpt><trkpt lat="42.5433881" lon="-8.3485831"><ele>535.0</ele><time>2026-04-19T13:29:45.371Z</time></trkpt><trkpt lat="42.5433045" lon="-8.3482918"><ele>535.0</ele><time>2026-04-19T13:29:46.373Z</time></trkpt><trkpt lat="42.5432271" lon="-8.3480026"><ele>536.6666666666667</ele><time>2026-04-19T13:29:47.373Z</time></trkpt><trkpt lat="42.5431628" lon="-8.3477092"><ele>538.3333333333334</ele><time>2026-04-19T13:29:48.4Z</time></trkpt><trkpt lat="42.5431091" lon="-8.3474169"><ele>540.0</ele><time>2026-04-19T13:29:49.381Z</time></trkpt><trkpt lat="42.5430729" lon="-8.3471156"><ele>542.0</ele><time>2026-04-19T13:29:50.391Z</time></trkpt><trkpt lat="42.5430429" lon="-8.3468206"><ele>544.0</ele><time>2026-04-19T13:29:51.39Z</time></trkpt><trkpt lat="42.5430206" lon="-8.3465218"><ele>546.0</ele><time>2026-04-19T13:29:52.39Z</time></trkpt><trkpt lat="42.5430057" lon="-8.346229"><ele>546.6666666666666</ele><time>2026-04-19T13:29:53.389Z</time></trkpt><trkpt lat="42.5429936" lon="-8.3459408"><ele>547.3333333333333</ele><time>2026-04-19T13:29:54.39Z</time></trkpt><trkpt lat="42.542973" lon="-8.3456593"><ele>548.0</ele><time>2026-04-19T13:29:55.38Z</time></trkpt><trkpt lat="42.542951" lon="-8.345382"><ele>549.0</ele><time>2026-04-19T13:29:56.384Z</time></trkpt><trkpt lat="42.5429277" lon="-8.3451059"><ele>550.0</ele><time>2026-04-19T13:29:57.388Z</time></trkpt><trkpt lat="42.5429062" lon="-8.3448277"><ele>551.0</ele><time>2026-04-19T13:29:58.383Z</time></trkpt><trkpt lat="42.5428817" lon="-8.3445473"><ele>554.6666666666666</ele><time>2026-04-19T13:29:59.382Z</time></trkpt><trkpt lat="42.542865" lon="-8.3442598"><ele>558.3333333333334</ele><time>2026-04-19T13:30:00.388Z</time></trkpt><trkpt lat="42.5428621" lon="-8.3439602"><ele>562.0</ele><time>2026-04-19T13:30:01.375Z</time></trkpt><trkpt lat="42.5428834" lon="-8.3436642"><ele>562.0</ele><time>2026-04-19T13:30:02.393Z</time></trkpt><trkpt lat="42.5429327" lon="-8.3433718"><ele>562.0</ele><time>2026-04-19T13:30:03.391Z</time></trkpt><trkpt lat="42.5430136" lon="-8.343074"><ele>562.5</ele><time>2026-04-19T13:30:04.39Z</time></trkpt><trkpt lat="42.5430804" lon="-8.3427692"><ele>563.0</ele><time>2026-04-19T13:30:05.363Z</time></trkpt><trkpt lat="42.543111" lon="-8.3424703"><ele>565.5</ele><time>2026-04-19T13:30:06.372Z</time></trkpt><trkpt lat="42.543103" lon="-8.3421605"><ele>568.0</ele><time>2026-04-19T13:30:07.376Z</time></trkpt><trkpt lat="42.5430773" lon="-8.3418461"><ele>568.0</ele><time>2026-04-19T13:30:08.373Z</time></trkpt><trkpt lat="42.5430246" lon="-8.3415494"><ele>568.0</ele><time>2026-04-19T13:30:09.361Z</time></trkpt><trkpt lat="42.5428998" lon="-8.3412792"><ele>565.0</ele><time>2026-04-19T13:30:10.403Z</time></trkpt><trkpt lat="42.5427532" lon="-8.3410356"><ele>562.0</ele><time>2026-04-19T13:30:11.383Z</time></trkpt><trkpt lat="42.5425935" lon="-8.3408174"><ele>562.0</ele><time>2026-04-19T13:30:12.378Z</time></trkpt><trkpt lat="42.5424194" lon="-8.3406373"><ele>562.0</ele><time>2026-04-19T13:30:13.38Z</time></trkpt><trkpt lat="42.5422183" lon="-8.3404721"><ele>564.0</ele><time>2026-04-19T13:30:14.399Z</time></trkpt><trkpt lat="42.5420169" lon="-8.3403197"><ele>566.0</ele><time>2026-04-19T13:30:15.397Z</time></trkpt><trkpt lat="42.5418185" lon="-8.3401666"><ele>566.0</ele><time>2026-04-19T13:30:16.392Z</time></trkpt><trkpt lat="42.5416245" lon="-8.3400218"><ele>566.0</ele><time>2026-04-19T13:30:17.397Z</time></trkpt><trkpt lat="42.5414478" lon="-8.3398631"><ele>566.0</ele><time>2026-04-19T13:30:18.388Z</time></trkpt><trkpt lat="42.5412655" lon="-8.3396896"><ele>566.3333333333333</ele><time>2026-04-19T13:30:19.399Z</time></trkpt><trkpt lat="42.5410914" lon="-8.3395011"><ele>566.6666666666666</ele><time>2026-04-19T13:30:20.401Z</time></trkpt><trkpt lat="42.5409283" lon="-8.3392979"><ele>567.0</ele><time>2026-04-19T13:30:21.395Z</time></trkpt><trkpt lat="42.5407623" lon="-8.3390921"><ele>573.0</ele><time>2026-04-19T13:30:22.403Z</time></trkpt><trkpt lat="42.5406038" lon="-8.3388743"><ele>579.0</ele><time>2026-04-19T13:30:23.398Z</time></trkpt><trkpt lat="42.5404521" lon="-8.3386425"><ele>572.5</ele><time>2026-04-19T13:30:24.4Z</time></trkpt><trkpt lat="42.5403058" lon="-8.3384075"><ele>566.0</ele><time>2026-04-19T13:30:25.396Z</time></trkpt><trkpt lat="42.5401602" lon="-8.3381728"><ele>571.5</ele><time>2026-04-19T13:30:26.397Z</time></trkpt><trkpt lat="42.5400141" lon="-8.3379361"><ele>577.0</ele><time>2026-04-19T13:30:27.403Z</time></trkpt><trkpt lat="42.5398661" lon="-8.3377063"><ele>577.0</ele><time>2026-04-19T13:30:28.384Z</time></trkpt><trkpt lat="42.5397146" lon="-8.3374716"><ele>577.0</ele><time>2026-04-19T13:30:29.409Z</time></trkpt><trkpt lat="42.5395733" lon="-8.3372375"><ele>574.6666666666667</ele><time>2026-04-19T13:30:30.4Z</time></trkpt><trkpt lat="42.5394467" lon="-8.3369908"><ele>572.3333333333334</ele><time>2026-04-19T13:30:31.414Z</time></trkpt><trkpt lat="42.5393405" lon="-8.3367179"><ele>570.0</ele><time>2026-04-19T13:30:32.404Z</time></trkpt><trkpt lat="42.5392626" lon="-8.3364368"><ele>571.0</ele><time>2026-04-19T13:30:33.397Z</time></trkpt><trkpt lat="42.5392127" lon="-8.336137"><ele>572.0</ele><time>2026-04-19T13:30:34.399Z</time></trkpt><trkpt lat="42.539185" lon="-8.3358327"><ele>573.0</ele><time>2026-04-19T13:30:35.414Z</time></trkpt><trkpt lat="42.5391965" lon="-8.3355207"><ele>574.0</ele><time>2026-04-19T13:30:36.414Z</time></trkpt><trkpt lat="42.5392431" lon="-8.3352204"><ele>574.0</ele><time>2026-04-19T13:30:37.414Z</time></trkpt><trkpt lat="42.5393212" lon="-8.3349239"><ele>574.0</ele><time>2026-04-19T13:30:38.419Z</time></trkpt><trkpt lat="42.5394266" lon="-8.3346441"><ele>575.0</ele><time>2026-04-19T13:30:39.415Z</time></trkpt><trkpt lat="42.539559" lon="-8.334395"><ele>576.0</ele><time>2026-04-19T13:30:40.409Z</time></trkpt><trkpt lat="42.5397168" lon="-8.3341657"><ele>576.0</ele><time>2026-04-19T13:30:41.4Z</time></trkpt><trkpt lat="42.5398944" lon="-8.3339665"><ele>576.0</ele><time>2026-04-19T13:30:42.41Z</time></trkpt><trkpt lat="42.5400832" lon="-8.3337883"><ele>575.0</ele><time>2026-04-19T13:30:43.41Z</time></trkpt><trkpt lat="42.5402795" lon="-8.3336239"><ele>574.0</ele><time>2026-04-19T13:30:44.406Z</time></trkpt><trkpt lat="42.5404736" lon="-8.3334632"><ele>574.0</ele><time>2026-04-19T13:30:45.414Z</time></trkpt><trkpt lat="42.5406667" lon="-8.3332968"><ele>574.0</ele><time>2026-04-19T13:30:46.412Z</time></trkpt><trkpt lat="42.5408383" lon="-8.3331065"><ele>574.6666666666667</ele><time>2026-04-19T13:30:47.399Z</time></trkpt><trkpt lat="42.5409982" lon="-8.3329001"><ele>575.3333333333334</ele><time>2026-04-19T13:30:48.42Z</time></trkpt><trkpt lat="42.541141" lon="-8.3326694"><ele>576.0</ele><time>2026-04-19T13:30:49.413Z</time></trkpt><trkpt lat="42.5412644" lon="-8.3324128"><ele>572.6666666666666</ele><time>2026-04-19T13:30:50.41Z</time></trkpt><trkpt lat="42.5413661" lon="-8.3321475"><ele>569.3333333333333</ele><time>2026-04-19T13:30:51.398Z</time></trkpt><trkpt lat="42.5414551" lon="-8.331867"><ele>566.0</ele><time>2026-04-19T13:30:52.4Z</time></trkpt><trkpt lat="42.5415241" lon="-8.3315917"><ele>565.3333333333333</ele><time>2026-04-19T13:30:53.403Z</time></trkpt><trkpt lat="42.5415746" lon="-8.331322"><ele>564.6666666666666</ele><time>2026-04-19T13:30:54.401Z</time></trkpt><trkpt lat="42.5416037" lon="-8.3310596"><ele>564.0</ele><time>2026-04-19T13:30:55.422Z</time></trkpt><trkpt lat="42.5416186" lon="-8.3307938"><ele>565.0</ele><time>2026-04-19T13:30:56.454Z</time></trkpt><trkpt lat="42.5416116" lon="-8.3305314"><ele>566.0</ele><time>2026-04-19T13:30:57.397Z</time></trkpt><trkpt lat="42.5415824" lon="-8.3302652"><ele>567.0</ele><time>2026-04-19T13:30:58.402Z</time></trkpt><trkpt lat="42.541539" lon="-8.3300023"><ele>567.0</ele><time>2026-04-19T13:30:59.436Z</time></trkpt><trkpt lat="42.5414785" lon="-8.329739"><ele>567.0</ele><time>2026-04-19T13:31:00.429Z</time></trkpt><trkpt lat="42.5414059" lon="-8.3294786"><ele>567.0</ele><time>2026-04-19T13:31:01.423Z</time></trkpt><trkpt lat="42.5413209" lon="-8.3292206"><ele>568.0</ele><time>2026-04-19T13:31:02.425Z</time></trkpt><trkpt lat="42.5412212" lon="-8.3289697"><ele>569.0</ele><time>2026-04-19T13:31:03.422Z</time></trkpt><trkpt lat="42.5411099" lon="-8.3287337"><ele>570.0</ele><time>2026-04-19T13:31:04.411Z</time></trkpt><trkpt lat="42.5409769" lon="-8.3285124"><ele>568.0</ele><time>2026-04-19T13:31:05.425Z</time></trkpt><trkpt lat="42.5408234" lon="-8.3283087"><ele>566.0</ele><time>2026-04-19T13:31:06.431Z</time></trkpt><trkpt lat="42.5406559" lon="-8.3281182"><ele>564.0</ele><time>2026-04-19T13:31:07.427Z</time></trkpt><trkpt lat="42.5404851" lon="-8.3279536"><ele>565.0</ele><time>2026-04-19T13:31:08.439Z</time></trkpt><trkpt lat="42.540319" lon="-8.3277981"><ele>566.0</ele><time>2026-04-19T13:31:09.435Z</time></trkpt><trkpt lat="42.540161" lon="-8.3276357"><ele>567.0</ele><time>2026-04-19T13:31:10.437Z</time></trkpt><trkpt lat="42.5400096" lon="-8.3274712"><ele>567.0</ele><time>2026-04-19T13:31:11.441Z</time></trkpt><trkpt lat="42.5398618" lon="-8.3273043"><ele>567.0</ele><time>2026-04-19T13:31:12.441Z</time></trkpt><trkpt lat="42.5397216" lon="-8.3271368"><ele>567.0</ele><time>2026-04-19T13:31:13.441Z</time></trkpt><trkpt lat="42.5395938" lon="-8.3269504"><ele>567.0</ele><time>2026-04-19T13:31:14.443Z</time></trkpt><trkpt lat="42.5394746" lon="-8.326757"><ele>567.0</ele><time>2026-04-19T13:31:15.444Z</time></trkpt><trkpt lat="42.5393551" lon="-8.3265556"><ele>567.0</ele><time>2026-04-19T13:31:16.419Z</time></trkpt><trkpt lat="42.5392347" lon="-8.3263383"><ele>567.0</ele><time>2026-04-19T13:31:17.43Z</time></trkpt><trkpt lat="42.5391166" lon="-8.3261164"><ele>567.0</ele><time>2026-04-19T13:31:18.443Z</time></trkpt><trkpt lat="42.538998" lon="-8.3258923"><ele>567.0</ele><time>2026-04-19T13:31:19.435Z</time></trkpt><trkpt lat="42.5388757" lon="-8.3256648"><ele>568.3333333333334</ele><time>2026-04-19T13:31:20.441Z</time></trkpt><trkpt lat="42.5387544" lon="-8.3254374"><ele>569.6666666666667</ele><time>2026-04-19T13:31:21.446Z</time></trkpt><trkpt lat="42.5386299" lon="-8.3252069"><ele>571.0</ele><time>2026-04-19T13:31:22.449Z</time></trkpt><trkpt lat="42.5385056" lon="-8.3249752"><ele>571.0</ele><time>2026-04-19T13:31:23.454Z</time></trkpt><trkpt lat="42.5383819" lon="-8.3247372"><ele>571.0</ele><time>2026-04-19T13:31:24.445Z</time></trkpt><trkpt lat="42.5382598" lon="-8.3244969"><ele>571.0</ele><time>2026-04-19T13:31:25.442Z</time></trkpt><trkpt lat="42.538131" lon="-8.3242571"><ele>571.0</ele><time>2026-04-19T13:31:26.463Z</time></trkpt><trkpt lat="42.5380084" lon="-8.3240115"><ele>571.0</ele><time>2026-04-19T13:31:27.447Z</time></trkpt><trkpt lat="42.5378929" lon="-8.3237613"><ele>571.0</ele><time>2026-04-19T13:31:28.419Z</time></trkpt><trkpt lat="42.5377899" lon="-8.3235028"><ele>571.0</ele><time>2026-04-19T13:31:29.456Z</time></trkpt><trkpt lat="42.5377027" lon="-8.3232324"><ele>571.0</ele><time>2026-04-19T13:31:30.459Z</time></trkpt><trkpt lat="42.5376311" lon="-8.3229472"><ele>571.0</ele><time>2026-04-19T13:31:31.455Z</time></trkpt><trkpt lat="42.5375852" lon="-8.3226517"><ele>572.0</ele><time>2026-04-19T13:31:32.469Z</time></trkpt><trkpt lat="42.5375576" lon="-8.3223503"><ele>573.0</ele><time>2026-04-19T13:31:33.461Z</time></trkpt><trkpt lat="42.5375422" lon="-8.3220402"><ele>571.0</ele><time>2026-04-19T13:31:34.452Z</time></trkpt><trkpt lat="42.5375418" lon="-8.3217276"><ele>569.0</ele><time>2026-04-19T13:31:35.464Z</time></trkpt><trkpt lat="42.5375597" lon="-8.3214192"><ele>569.0</ele><time>2026-04-19T13:31:36.458Z</time></trkpt><trkpt lat="42.5375876" lon="-8.3211119"><ele>569.0</ele><time>2026-04-19T13:31:37.457Z</time></trkpt><trkpt lat="42.537623" lon="-8.3208087"><ele>570.5</ele><time>2026-04-19T13:31:38.452Z</time></trkpt><trkpt lat="42.5376565" lon="-8.3205023"><ele>572.0</ele><time>2026-04-19T13:31:39.446Z</time></trkpt><trkpt lat="42.5376766" lon="-8.3201935"><ele>572.0</ele><time>2026-04-19T13:31:40.452Z</time></trkpt><trkpt lat="42.5376944" lon="-8.3198945"><ele>572.0</ele><time>2026-04-19T13:31:41.46Z</time></trkpt><trkpt lat="42.5377113" lon="-8.3196021"><ele>572.0</ele><time>2026-04-19T13:31:42.454Z</time></trkpt><trkpt lat="42.5377309" lon="-8.3193121"><ele>573.0</ele><time>2026-04-19T13:31:43.472Z</time></trkpt><trkpt lat="42.537754" lon="-8.3190223"><ele>574.0</ele><time>2026-04-19T13:31:44.471Z</time></trkpt><trkpt lat="42.5377802" lon="-8.3187301"><ele>575.0</ele><time>2026-04-19T13:31:45.475Z</time></trkpt><trkpt lat="42.5378195" lon="-8.318438"><ele>581.0</ele><time>2026-04-19T13:31:46.467Z</time></trkpt><trkpt lat="42.5379625" lon="-8.3178593"><ele>581.0</ele><time>2026-04-19T13:31:48.369Z</time></trkpt><trkpt lat="42.5380616" lon="-8.3175842"><ele>581.0</ele><time>2026-04-19T13:31:49.385Z</time></trkpt><trkpt lat="42.5381777" lon="-8.3173237"><ele>580.5</ele><time>2026-04-19T13:31:50.37Z</time></trkpt><trkpt lat="42.538309" lon="-8.3170728"><ele>580.0</ele><time>2026-04-19T13:31:51.369Z</time></trkpt><trkpt lat="42.5384579" lon="-8.3168386"><ele>580.0</ele><time>2026-04-19T13:31:52.375Z</time></trkpt><trkpt lat="42.5386087" lon="-8.3166027"><ele>580.0</ele><time>2026-04-19T13:31:53.371Z</time></trkpt><trkpt lat="42.5387565" lon="-8.3163626"><ele>583.0</ele><time>2026-04-19T13:31:54.391Z</time></trkpt><trkpt lat="42.5389041" lon="-8.3161256"><ele>586.0</ele><time>2026-04-19T13:31:55.379Z</time></trkpt><trkpt lat="42.5390526" lon="-8.3158903"><ele>586.0</ele><time>2026-04-19T13:31:56.343Z</time></trkpt><trkpt lat="42.5392031" lon="-8.3156507"><ele>586.0</ele><time>2026-04-19T13:31:57.377Z</time></trkpt><trkpt lat="42.5393523" lon="-8.3154131"><ele>588.0</ele><time>2026-04-19T13:31:58.379Z</time></trkpt><trkpt lat="42.5394982" lon="-8.3151796"><ele>590.0</ele><time>2026-04-19T13:31:59.371Z</time></trkpt><trkpt lat="42.5396481" lon="-8.3149496"><ele>592.0</ele><time>2026-04-19T13:32:00.353Z</time></trkpt><trkpt lat="42.5397963" lon="-8.3147229"><ele>594.0</ele><time>2026-04-19T13:32:01.355Z</time></trkpt><trkpt lat="42.5399436" lon="-8.3144988"><ele>596.0</ele><time>2026-04-19T13:32:02.374Z</time></trkpt><trkpt lat="42.5400876" lon="-8.3142739"><ele>596.0</ele><time>2026-04-19T13:32:03.365Z</time></trkpt><trkpt lat="42.5402292" lon="-8.3140457"><ele>596.0</ele><time>2026-04-19T13:32:04.357Z</time></trkpt><trkpt lat="42.5403675" lon="-8.313815"><ele>596.0</ele><time>2026-04-19T13:32:05.374Z</time></trkpt><trkpt lat="42.5405" lon="-8.3135795"><ele>598.0</ele><time>2026-04-19T13:32:06.376Z</time></trkpt><trkpt lat="42.54062" lon="-8.3133207"><ele>600.0</ele><time>2026-04-19T13:32:07.385Z</time></trkpt><trkpt lat="42.5407211" lon="-8.313051"><ele>602.0</ele><time>2026-04-19T13:32:08.375Z</time></trkpt><trkpt lat="42.5407811" lon="-8.3127655"><ele>605.5</ele><time>2026-04-19T13:32:09.368Z</time></trkpt><trkpt lat="42.5408043" lon="-8.3124581"><ele>609.0</ele><time>2026-04-19T13:32:10.375Z</time></trkpt><trkpt lat="42.5407952" lon="-8.3121545"><ele>611.3333333333334</ele><time>2026-04-19T13:32:11.368Z</time></trkpt><trkpt lat="42.5407498" lon="-8.3118632"><ele>613.6666666666667</ele><time>2026-04-19T13:32:12.369Z</time></trkpt><trkpt lat="42.5406796" lon="-8.3115825"><ele>616.0</ele><time>2026-04-19T13:32:13.354Z</time></trkpt><trkpt lat="42.5405811" lon="-8.3113118"><ele>616.3333333333334</ele><time>2026-04-19T13:32:14.366Z</time></trkpt><trkpt lat="42.5404611" lon="-8.3110618"><ele>616.6666666666666</ele><time>2026-04-19T13:32:15.356Z</time></trkpt><trkpt lat="42.540317" lon="-8.3108344"><ele>617.0</ele><time>2026-04-19T13:32:16.356Z</time></trkpt><trkpt lat="42.5401555" lon="-8.3106218"><ele>617.6666666666666</ele><time>2026-04-19T13:32:17.364Z</time></trkpt><trkpt lat="42.5399874" lon="-8.3104154"><ele>618.3333333333334</ele><time>2026-04-19T13:32:18.367Z</time></trkpt><trkpt lat="42.5398213" lon="-8.310218"><ele>619.0</ele><time>2026-04-19T13:32:19.364Z</time></trkpt><trkpt lat="42.5396593" lon="-8.3100324"><ele>619.3333333333334</ele><time>2026-04-19T13:32:20.363Z</time></trkpt><trkpt lat="42.5395116" lon="-8.3098641"><ele>619.6666666666666</ele><time>2026-04-19T13:32:21.34Z</time></trkpt><trkpt lat="42.5393661" lon="-8.3097033"><ele>620.0</ele><time>2026-04-19T13:32:22.376Z</time></trkpt><trkpt lat="42.5392295" lon="-8.3095406"><ele>621.6666666666666</ele><time>2026-04-19T13:32:23.373Z</time></trkpt><trkpt lat="42.5390884" lon="-8.3093856"><ele>623.3333333333334</ele><time>2026-04-19T13:32:24.393Z</time></trkpt><trkpt lat="42.5389567" lon="-8.3092331"><ele>625.0</ele><time>2026-04-19T13:32:25.357Z</time></trkpt><trkpt lat="42.5388293" lon="-8.309081"><ele>625.3333333333334</ele><time>2026-04-19T13:32:26.341Z</time></trkpt><trkpt lat="42.5387038" lon="-8.3089399"><ele>625.6666666666666</ele><time>2026-04-19T13:32:27.357Z</time></trkpt><trkpt lat="42.538578" lon="-8.3088121"><ele>626.0</ele><time>2026-04-19T13:32:28.365Z</time></trkpt><trkpt lat="42.5384494" lon="-8.308705"><ele>628.25</ele><time>2026-04-19T13:32:29.356Z</time></trkpt><trkpt lat="42.5383192" lon="-8.3086111"><ele>630.5</ele><time>2026-04-19T13:32:30.371Z</time></trkpt><trkpt lat="42.5381917" lon="-8.3085212"><ele>632.75</ele><time>2026-04-19T13:32:31.356Z</time></trkpt><trkpt lat="42.5380608" lon="-8.3084304"><ele>635.0</ele><time>2026-04-19T13:32:32.361Z</time></trkpt><trkpt lat="42.5379318" lon="-8.3083352"><ele>634.6666666666666</ele><time>2026-04-19T13:32:33.35Z</time></trkpt><trkpt lat="42.5377985" lon="-8.3082429"><ele>634.3333333333334</ele><time>2026-04-19T13:32:34.365Z</time></trkpt><trkpt lat="42.5376654" lon="-8.3081453"><ele>634.0</ele><time>2026-04-19T13:32:35.373Z</time></trkpt><trkpt lat="42.5375266" lon="-8.308047"><ele>636.6666666666667</ele><time>2026-04-19T13:32:36.381Z</time></trkpt><trkpt lat="42.5373848" lon="-8.3079503"><ele>639.3333333333334</ele><time>2026-04-19T13:32:37.367Z</time></trkpt><trkpt lat="42.5372436" lon="-8.3078574"><ele>642.0</ele><time>2026-04-19T13:32:38.392Z</time></trkpt><trkpt lat="42.5371" lon="-8.3077574"><ele>642.0</ele><time>2026-04-19T13:32:39.369Z</time></trkpt><trkpt lat="42.5369573" lon="-8.3076455"><ele>642.0</ele><time>2026-04-19T13:32:40.374Z</time></trkpt><trkpt lat="42.5368328" lon="-8.3075102"><ele>642.0</ele><time>2026-04-19T13:32:41.39Z</time></trkpt><trkpt lat="42.5367292" lon="-8.3073494"><ele>643.0</ele><time>2026-04-19T13:32:42.392Z</time></trkpt><trkpt lat="42.536646" lon="-8.3071747"><ele>644.0</ele><time>2026-04-19T13:32:43.392Z</time></trkpt><trkpt lat="42.5365927" lon="-8.3069704"><ele>645.0</ele><time>2026-04-19T13:32:44.395Z</time></trkpt><trkpt lat="42.536564" lon="-8.3067654"><ele>645.0</ele><time>2026-04-19T13:32:45.388Z</time></trkpt><trkpt lat="42.5365589" lon="-8.3065598"><ele>645.0</ele><time>2026-04-19T13:32:46.391Z</time></trkpt><trkpt lat="42.5365667" lon="-8.3063702"><ele>645.0</ele><time>2026-04-19T13:32:47.397Z</time></trkpt><trkpt lat="42.5365774" lon="-8.306186"><ele>645.0</ele><time>2026-04-19T13:32:48.407Z</time></trkpt><trkpt lat="42.5365859" lon="-8.3060174"><ele>645.6</ele><time>2026-04-19T13:32:49.367Z</time></trkpt><trkpt lat="42.5366023" lon="-8.3058556"><ele>646.2</ele><time>2026-04-19T13:32:50.41Z</time></trkpt><trkpt lat="42.536617" lon="-8.3057045"><ele>646.8</ele><time>2026-04-19T13:32:51.393Z</time></trkpt><trkpt lat="42.5366251" lon="-8.3055629"><ele>647.4</ele><time>2026-04-19T13:32:52.41Z</time></trkpt><trkpt lat="42.5366333" lon="-8.3054207"><ele>648.0</ele><time>2026-04-19T13:32:53.391Z</time></trkpt><trkpt lat="42.5366437" lon="-8.3052775"><ele>648.75</ele><time>2026-04-19T13:32:54.485Z</time></trkpt><trkpt lat="42.5366542" lon="-8.3051301"><ele>649.5</ele><time>2026-04-19T13:32:55.392Z</time></trkpt><trkpt lat="42.5366627" lon="-8.3049779"><ele>650.25</ele><time>2026-04-19T13:32:56.401Z</time></trkpt><trkpt lat="42.5366703" lon="-8.3048255"><ele>651.0</ele><time>2026-04-19T13:32:57.398Z</time></trkpt><trkpt lat="42.536679" lon="-8.3046674"><ele>651.5</ele><time>2026-04-19T13:32:58.396Z</time></trkpt><trkpt lat="42.5366856" lon="-8.3045117"><ele>652.0</ele><time>2026-04-19T13:32:59.379Z</time></trkpt><trkpt lat="42.5366817" lon="-8.3043445"><ele>652.5</ele><time>2026-04-19T13:33:00.395Z</time></trkpt><trkpt lat="42.5366675" lon="-8.3041733"><ele>653.0</ele><time>2026-04-19T13:33:01.398Z</time></trkpt><trkpt lat="42.536646" lon="-8.3040116"><ele>653.25</ele><time>2026-04-19T13:33:02.404Z</time></trkpt><trkpt lat="42.5366255" lon="-8.3038456"><ele>653.5</ele><time>2026-04-19T13:33:03.424Z</time></trkpt><trkpt lat="42.5366037" lon="-8.3036867"><ele>653.75</ele><time>2026-04-19T13:33:04.385Z</time></trkpt><trkpt lat="42.536574" lon="-8.3035327"><ele>654.0</ele><time>2026-04-19T13:33:05.369Z</time></trkpt><trkpt lat="42.5365437" lon="-8.3033756"><ele>654.0</ele><time>2026-04-19T13:33:06.403Z</time></trkpt><trkpt lat="42.5365155" lon="-8.303218"><ele>654.0</ele><time>2026-04-19T13:33:07.384Z</time></trkpt><trkpt lat="42.5364843" lon="-8.303062"><ele>654.0</ele><time>2026-04-19T13:33:08.37Z</time></trkpt><trkpt lat="42.536443" lon="-8.3029054"><ele>654.0</ele><time>2026-04-19T13:33:09.463Z</time></trkpt><trkpt lat="42.5363903" lon="-8.3027534"><ele>653.75</ele><time>2026-04-19T13:33:10.427Z</time></trkpt><trkpt lat="42.5363368" lon="-8.302602"><ele>653.5</ele><time>2026-04-19T13:33:11.393Z</time></trkpt><trkpt lat="42.5362806" lon="-8.3024545"><ele>653.25</ele><time>2026-04-19T13:33:12.393Z</time></trkpt><trkpt lat="42.5362174" lon="-8.3023121"><ele>653.0</ele><time>2026-04-19T13:33:13.399Z</time></trkpt><trkpt lat="42.5361482" lon="-8.3021787"><ele>652.2</ele><time>2026-04-19T13:33:14.395Z</time></trkpt><trkpt lat="42.5360775" lon="-8.3020529"><ele>651.4</ele><time>2026-04-19T13:33:15.399Z</time></trkpt><trkpt lat="42.535997" lon="-8.3019423"><ele>650.6</ele><time>2026-04-19T13:33:16.396Z</time></trkpt><trkpt lat="42.5359123" lon="-8.3018501"><ele>649.8000000000001</ele><time>2026-04-19T13:33:17.394Z</time></trkpt><trkpt lat="42.5358228" lon="-8.301764"><ele>649.0</ele><time>2026-04-19T13:33:18.384Z</time></trkpt><trkpt lat="42.5357343" lon="-8.3016919"><ele>649.0</ele><time>2026-04-19T13:33:19.394Z</time></trkpt><trkpt lat="42.53565" lon="-8.3016339"><ele>649.0</ele><time>2026-04-19T13:33:20.392Z</time></trkpt><trkpt lat="42.5355614" lon="-8.3015791"><ele>649.0</ele><time>2026-04-19T13:33:21.384Z</time></trkpt><trkpt lat="42.5354662" lon="-8.301521"><ele>649.0</ele><time>2026-04-19T13:33:22.39Z</time></trkpt><trkpt lat="42.5353624" lon="-8.3014616"><ele>649.0</ele><time>2026-04-19T13:33:23.396Z</time></trkpt><trkpt lat="42.5351616" lon="-8.3013385"><ele>651.0</ele><time>2026-04-19T13:33:24.739Z</time></trkpt><trkpt lat="42.5349519" lon="-8.3012025"><ele>653.0</ele><time>2026-04-19T13:33:26.465Z</time></trkpt><trkpt lat="42.5347501" lon="-8.3010411"><ele>653.0</ele><time>2026-04-19T13:33:28.243Z</time></trkpt><trkpt lat="42.5346683" lon="-8.3009361"><ele>653.0</ele><time>2026-04-19T13:33:29.22Z</time></trkpt><trkpt lat="42.5345916" lon="-8.3008328"><ele>653.0</ele><time>2026-04-19T13:33:30.219Z</time></trkpt><trkpt lat="42.5345282" lon="-8.3007153"><ele>653.0</ele><time>2026-04-19T13:33:31.217Z</time></trkpt><trkpt lat="42.534487" lon="-8.3005808"><ele>653.0</ele><time>2026-04-19T13:33:32.22Z</time></trkpt><trkpt lat="42.534458" lon="-8.3004397"><ele>654.5</ele><time>2026-04-19T13:33:33.224Z</time></trkpt><trkpt lat="42.5344202" lon="-8.3003028"><ele>656.0</ele><time>2026-04-19T13:33:34.244Z</time></trkpt><trkpt lat="42.5343713" lon="-8.3001686"><ele>657.5</ele><time>2026-04-19T13:33:35.251Z</time></trkpt><trkpt lat="42.5343163" lon="-8.3000242"><ele>659.0</ele><time>2026-04-19T13:33:36.795Z</time></trkpt><trkpt lat="42.5342653" lon="-8.2998769"><ele>659.25</ele><time>2026-04-19T13:33:37.814Z</time></trkpt><trkpt lat="42.5342165" lon="-8.2997244"><ele>659.5</ele><time>2026-04-19T13:33:38.812Z</time></trkpt><trkpt lat="42.5341621" lon="-8.29957"><ele>659.75</ele><time>2026-04-19T13:33:39.824Z</time></trkpt><trkpt lat="42.5341083" lon="-8.299406"><ele>660.0</ele><time>2026-04-19T13:33:40.819Z</time></trkpt><trkpt lat="42.534049" lon="-8.2992369"><ele>660.0</ele><time>2026-04-19T13:33:41.82Z</time></trkpt><trkpt lat="42.5339951" lon="-8.2990688"><ele>660.0</ele><time>2026-04-19T13:33:42.818Z</time></trkpt><trkpt lat="42.533941" lon="-8.2988932"><ele>660.0</ele><time>2026-04-19T13:33:43.817Z</time></trkpt><trkpt lat="42.533886" lon="-8.2987193"><ele>660.0</ele><time>2026-04-19T13:33:44.822Z</time></trkpt><trkpt lat="42.5338358" lon="-8.2985454"><ele>660.25</ele><time>2026-04-19T13:33:45.823Z</time></trkpt><trkpt lat="42.5337852" lon="-8.2983681"><ele>660.5</ele><time>2026-04-19T13:33:46.824Z</time></trkpt><trkpt lat="42.5337338" lon="-8.2981916"><ele>660.75</ele><time>2026-04-19T13:33:47.818Z</time></trkpt><trkpt lat="42.5336841" lon="-8.2980127"><ele>661.0</ele><time>2026-04-19T13:33:48.82Z</time></trkpt><trkpt lat="42.5336349" lon="-8.2978334"><ele>663.5</ele><time>2026-04-19T13:33:49.822Z</time></trkpt><trkpt lat="42.5335824" lon="-8.2976583"><ele>666.0</ele><time>2026-04-19T13:33:50.821Z</time></trkpt><trkpt lat="42.5335268" lon="-8.2974782"><ele>668.5</ele><time>2026-04-19T13:33:51.823Z</time></trkpt><trkpt lat="42.5334697" lon="-8.2972997"><ele>671.0</ele><time>2026-04-19T13:33:52.824Z</time></trkpt><trkpt lat="42.5334091" lon="-8.2971268"><ele>671.25</ele><time>2026-04-19T13:33:53.824Z</time></trkpt><trkpt lat="42.5333413" lon="-8.296956"><ele>671.5</ele><time>2026-04-19T13:33:54.823Z</time></trkpt><trkpt lat="42.5332576" lon="-8.2967933"><ele>671.75</ele><time>2026-04-19T13:33:55.827Z</time></trkpt><trkpt lat="42.5331552" lon="-8.2966509"><ele>672.0</ele><time>2026-04-19T13:33:56.822Z</time></trkpt><trkpt lat="42.5330387" lon="-8.2965189"><ele>671.3333333333334</ele><time>2026-04-19T13:33:57.826Z</time></trkpt><trkpt lat="42.5329125" lon="-8.2964022"><ele>670.6666666666667</ele><time>2026-04-19T13:33:58.82Z</time></trkpt><trkpt lat="42.5327737" lon="-8.2963089"><ele>670.0</ele><time>2026-04-19T13:33:59.828Z</time></trkpt><trkpt lat="42.532614" lon="-8.2962268"><ele>672.3333333333334</ele><time>2026-04-19T13:34:00.83Z</time></trkpt><trkpt lat="42.5324604" lon="-8.2961623"><ele>674.6666666666666</ele><time>2026-04-19T13:34:01.827Z</time></trkpt><trkpt lat="42.5323044" lon="-8.2961021"><ele>677.0</ele><time>2026-04-19T13:34:02.822Z</time></trkpt><trkpt lat="42.5321524" lon="-8.2960432"><ele>679.0</ele><time>2026-04-19T13:34:03.808Z</time></trkpt><trkpt lat="42.5320009" lon="-8.2959799"><ele>681.0</ele><time>2026-04-19T13:34:04.82Z</time></trkpt><trkpt lat="42.5318508" lon="-8.2959058"><ele>683.0</ele><time>2026-04-19T13:34:05.821Z</time></trkpt><trkpt lat="42.5317032" lon="-8.2958181"><ele>683.0</ele><time>2026-04-19T13:34:06.824Z</time></trkpt><trkpt lat="42.5315622" lon="-8.2957038"><ele>683.0</ele><time>2026-04-19T13:34:07.824Z</time></trkpt><trkpt lat="42.5314271" lon="-8.295578"><ele>683.0</ele><time>2026-04-19T13:34:08.824Z</time></trkpt><trkpt lat="42.5313051" lon="-8.2954328"><ele>687.0</ele><time>2026-04-19T13:34:09.825Z</time></trkpt><trkpt lat="42.5311857" lon="-8.2952692"><ele>691.0</ele><time>2026-04-19T13:34:10.825Z</time></trkpt><trkpt lat="42.5310801" lon="-8.2950884"><ele>695.0</ele><time>2026-04-19T13:34:11.837Z</time></trkpt><trkpt lat="42.530987" lon="-8.2948984"><ele>695.0</ele><time>2026-04-19T13:34:12.834Z</time></trkpt><trkpt lat="42.5309066" lon="-8.2946953"><ele>695.0</ele><time>2026-04-19T13:34:13.802Z</time></trkpt><trkpt lat="42.5308375" lon="-8.2944827"><ele>695.0</ele><time>2026-04-19T13:34:14.8Z</time></trkpt><trkpt lat="42.5307699" lon="-8.2942682"><ele>695.0</ele><time>2026-04-19T13:34:15.799Z</time></trkpt><trkpt lat="42.5306987" lon="-8.2940452"><ele>695.0</ele><time>2026-04-19T13:34:16.802Z</time></trkpt><trkpt lat="42.530623" lon="-8.2938281"><ele>695.0</ele><time>2026-04-19T13:34:17.812Z</time></trkpt><trkpt lat="42.5305334" lon="-8.2936161"><ele>694.3333333333333</ele><time>2026-04-19T13:34:18.809Z</time></trkpt><trkpt lat="42.5304288" lon="-8.2934215"><ele>693.6666666666666</ele><time>2026-04-19T13:34:19.835Z</time></trkpt><trkpt lat="42.5303086" lon="-8.2932343"><ele>693.0</ele><time>2026-04-19T13:34:20.806Z</time></trkpt><trkpt lat="42.5301721" lon="-8.2930528"><ele>696.3333333333334</ele><time>2026-04-19T13:34:21.809Z</time></trkpt><trkpt lat="42.5300356" lon="-8.2928892"><ele>699.6666666666667</ele><time>2026-04-19T13:34:22.808Z</time></trkpt><trkpt lat="42.5298893" lon="-8.2927286"><ele>703.0</ele><time>2026-04-19T13:34:23.807Z</time></trkpt><trkpt lat="42.5297378" lon="-8.2925838"><ele>703.0</ele><time>2026-04-19T13:34:24.82Z</time></trkpt><trkpt lat="42.5295741" lon="-8.2924598"><ele>703.0</ele><time>2026-04-19T13:34:25.815Z</time></trkpt><trkpt lat="42.529401" lon="-8.2923325"><ele>703.0</ele><time>2026-04-19T13:34:26.83Z</time></trkpt><trkpt lat="42.5292378" lon="-8.2922162"><ele>702.6666666666667</ele><time>2026-04-19T13:34:27.839Z</time></trkpt><trkpt lat="42.5290815" lon="-8.292114"><ele>702.3333333333334</ele><time>2026-04-19T13:34:28.838Z</time></trkpt><trkpt lat="42.5289184" lon="-8.2920129"><ele>702.0</ele><time>2026-04-19T13:34:29.835Z</time></trkpt><trkpt lat="42.5287449" lon="-8.2919169"><ele>706.0</ele><time>2026-04-19T13:34:30.844Z</time></trkpt><trkpt lat="42.5285741" lon="-8.2918167"><ele>710.0</ele><time>2026-04-19T13:34:31.85Z</time></trkpt><trkpt lat="42.5283991" lon="-8.291726"><ele>714.0</ele><time>2026-04-19T13:34:32.837Z</time></trkpt><trkpt lat="42.5282072" lon="-8.2916372"><ele>714.0</ele><time>2026-04-19T13:34:33.843Z</time></trkpt><trkpt lat="42.5280193" lon="-8.2915639"><ele>714.0</ele><time>2026-04-19T13:34:34.844Z</time></trkpt><trkpt lat="42.5278401" lon="-8.2914893"><ele>714.0</ele><time>2026-04-19T13:34:35.866Z</time></trkpt><trkpt lat="42.5276691" lon="-8.2914297"><ele>712.0</ele><time>2026-04-19T13:34:36.822Z</time></trkpt><trkpt lat="42.5274973" lon="-8.2913665"><ele>710.0</ele><time>2026-04-19T13:34:37.852Z</time></trkpt><trkpt lat="42.5273229" lon="-8.2913065"><ele>708.0</ele><time>2026-04-19T13:34:38.851Z</time></trkpt><trkpt lat="42.5271545" lon="-8.291249"><ele>712.0</ele><time>2026-04-19T13:34:39.837Z</time></trkpt><trkpt lat="42.5269793" lon="-8.291192"><ele>716.0</ele><time>2026-04-19T13:34:40.84Z</time></trkpt><trkpt lat="42.5267993" lon="-8.2911427"><ele>720.0</ele><time>2026-04-19T13:34:41.821Z</time></trkpt><trkpt lat="42.5266158" lon="-8.2910985"><ele>720.0</ele><time>2026-04-19T13:34:42.827Z</time></trkpt><trkpt lat="42.5264274" lon="-8.2910564"><ele>720.0</ele><time>2026-04-19T13:34:43.837Z</time></trkpt><trkpt lat="42.5262363" lon="-8.291015"><ele>720.0</ele><time>2026-04-19T13:34:44.836Z</time></trkpt><trkpt lat="42.5260459" lon="-8.2909682"><ele>722.6666666666666</ele><time>2026-04-19T13:34:45.822Z</time></trkpt><trkpt lat="42.5258588" lon="-8.2909044"><ele>725.3333333333333</ele><time>2026-04-19T13:34:46.861Z</time></trkpt><trkpt lat="42.5256686" lon="-8.290821"><ele>728.0</ele><time>2026-04-19T13:34:47.866Z</time></trkpt><trkpt lat="42.5254847" lon="-8.2907242"><ele>728.0</ele><time>2026-04-19T13:34:48.862Z</time></trkpt><trkpt lat="42.5253098" lon="-8.2906072"><ele>728.0</ele><time>2026-04-19T13:34:49.844Z</time></trkpt><trkpt lat="42.5251465" lon="-8.2904777"><ele>728.0</ele><time>2026-04-19T13:34:50.857Z</time></trkpt><trkpt lat="42.5249931" lon="-8.2903264"><ele>728.0</ele><time>2026-04-19T13:34:51.852Z</time></trkpt><trkpt lat="42.5248453" lon="-8.2901601"><ele>728.0</ele><time>2026-04-19T13:34:52.873Z</time></trkpt><trkpt lat="42.5247025" lon="-8.2899854"><ele>728.0</ele><time>2026-04-19T13:34:53.856Z</time></trkpt><trkpt lat="42.524566" lon="-8.2898079"><ele>731.3333333333333</ele><time>2026-04-19T13:34:54.86Z</time></trkpt><trkpt lat="42.5244322" lon="-8.2896244"><ele>734.6666666666666</ele><time>2026-04-19T13:34:55.835Z</time></trkpt><trkpt lat="42.524297" lon="-8.2894478"><ele>738.0</ele><time>2026-04-19T13:34:56.856Z</time></trkpt><trkpt lat="42.5241571" lon="-8.2892701"><ele>738.0</ele><time>2026-04-19T13:34:57.854Z</time></trkpt><trkpt lat="42.5240163" lon="-8.2890938"><ele>738.0</ele><time>2026-04-19T13:34:58.854Z</time></trkpt><trkpt lat="42.5238753" lon="-8.28892"><ele>738.0</ele><time>2026-04-19T13:34:59.856Z</time></trkpt><trkpt lat="42.5237315" lon="-8.288748"><ele>741.0</ele><time>2026-04-19T13:35:00.85Z</time></trkpt><trkpt lat="42.5235853" lon="-8.2885801"><ele>744.0</ele><time>2026-04-19T13:35:01.861Z</time></trkpt><trkpt lat="42.5234374" lon="-8.2884149"><ele>747.0</ele><time>2026-04-19T13:35:02.855Z</time></trkpt><trkpt lat="42.523288" lon="-8.2882517"><ele>748.6666666666666</ele><time>2026-04-19T13:35:03.858Z</time></trkpt><trkpt lat="42.5231331" lon="-8.2880851"><ele>750.3333333333333</ele><time>2026-04-19T13:35:04.84Z</time></trkpt><trkpt lat="42.5229723" lon="-8.2879148"><ele>752.0</ele><time>2026-04-19T13:35:05.87Z</time></trkpt><trkpt lat="42.5228134" lon="-8.2877539"><ele>752.0</ele><time>2026-04-19T13:35:06.832Z</time></trkpt><trkpt lat="42.5226622" lon="-8.2875959"><ele>752.0</ele><time>2026-04-19T13:35:07.861Z</time></trkpt><trkpt lat="42.5224984" lon="-8.2874493"><ele>752.0</ele><time>2026-04-19T13:35:08.863Z</time></trkpt><trkpt lat="42.5223238" lon="-8.2872961"><ele>753.3333333333333</ele><time>2026-04-19T13:35:09.87Z</time></trkpt><trkpt lat="42.5221445" lon="-8.287152"><ele>754.6666666666666</ele><time>2026-04-19T13:35:10.862Z</time></trkpt><trkpt lat="42.5219597" lon="-8.287022"><ele>756.0</ele><time>2026-04-19T13:35:11.858Z</time></trkpt><trkpt lat="42.521768" lon="-8.2869098"><ele>756.0</ele><time>2026-04-19T13:35:12.835Z</time></trkpt><trkpt lat="42.5215683" lon="-8.2868129"><ele>756.0</ele><time>2026-04-19T13:35:13.864Z</time></trkpt><trkpt lat="42.5213719" lon="-8.2867222"><ele>756.0</ele><time>2026-04-19T13:35:14.857Z</time></trkpt><trkpt lat="42.5211666" lon="-8.2866423"><ele>758.0</ele><time>2026-04-19T13:35:15.859Z</time></trkpt><trkpt lat="42.5209552" lon="-8.286593"><ele>760.0</ele><time>2026-04-19T13:35:16.859Z</time></trkpt><trkpt lat="42.5207379" lon="-8.2865619"><ele>762.0</ele><time>2026-04-19T13:35:17.855Z</time></trkpt><trkpt lat="42.5205133" lon="-8.2865359"><ele>762.0</ele><time>2026-04-19T13:35:18.861Z</time></trkpt><trkpt lat="42.5202893" lon="-8.2864943"><ele>762.0</ele><time>2026-04-19T13:35:19.868Z</time></trkpt><trkpt lat="42.5200647" lon="-8.2864266"><ele>760.0</ele><time>2026-04-19T13:35:20.863Z</time></trkpt><trkpt lat="42.5198523" lon="-8.2863224"><ele>758.0</ele><time>2026-04-19T13:35:21.86Z</time></trkpt><trkpt lat="42.5196566" lon="-8.2861747"><ele>760.6666666666666</ele><time>2026-04-19T13:35:22.862Z</time></trkpt><trkpt lat="42.5194836" lon="-8.2859879"><ele>763.3333333333334</ele><time>2026-04-19T13:35:23.867Z</time></trkpt><trkpt lat="42.5193386" lon="-8.2857705"><ele>766.0</ele><time>2026-04-19T13:35:24.864Z</time></trkpt><trkpt lat="42.5192164" lon="-8.2855274"><ele>767.6666666666667</ele><time>2026-04-19T13:35:25.865Z</time></trkpt><trkpt lat="42.5191285" lon="-8.2852637"><ele>769.3333333333334</ele><time>2026-04-19T13:35:26.861Z</time></trkpt><trkpt lat="42.5190657" lon="-8.2849891"><ele>771.0</ele><time>2026-04-19T13:35:27.87Z</time></trkpt><trkpt lat="42.5190427" lon="-8.284693"><ele>773.3333333333333</ele><time>2026-04-19T13:35:28.865Z</time></trkpt><trkpt lat="42.5190567" lon="-8.2843897"><ele>775.6666666666666</ele><time>2026-04-19T13:35:29.87Z</time></trkpt><trkpt lat="42.5190926" lon="-8.2840926"><ele>778.0</ele><time>2026-04-19T13:35:30.87Z</time></trkpt><trkpt lat="42.5191428" lon="-8.2837904"><ele>780.0</ele><time>2026-04-19T13:35:31.87Z</time></trkpt><trkpt lat="42.5191966" lon="-8.2834911"><ele>782.0</ele><time>2026-04-19T13:35:32.865Z</time></trkpt><trkpt lat="42.5192424" lon="-8.2831816"><ele>785.0</ele><time>2026-04-19T13:35:33.866Z</time></trkpt><trkpt lat="42.5192645" lon="-8.2828707"><ele>788.0</ele><time>2026-04-19T13:35:34.865Z</time></trkpt><trkpt lat="42.5192603" lon="-8.2825559"><ele>791.0</ele><time>2026-04-19T13:35:35.837Z</time></trkpt><trkpt lat="42.5192232" lon="-8.2822497"><ele>794.0</ele><time>2026-04-19T13:35:36.867Z</time></trkpt><trkpt lat="42.5191577" lon="-8.2819522"><ele>794.0</ele><time>2026-04-19T13:35:37.855Z</time></trkpt><trkpt lat="42.519094" lon="-8.2816538"><ele>794.0</ele><time>2026-04-19T13:35:38.864Z</time></trkpt><trkpt lat="42.5190332" lon="-8.2813538"><ele>797.5</ele><time>2026-04-19T13:35:39.865Z</time></trkpt><trkpt lat="42.5189817" lon="-8.2810488"><ele>801.0</ele><time>2026-04-19T13:35:40.857Z</time></trkpt><trkpt lat="42.5189443" lon="-8.2807406"><ele>802.5</ele><time>2026-04-19T13:35:41.862Z</time></trkpt><trkpt lat="42.5189298" lon="-8.2804336"><ele>804.0</ele><time>2026-04-19T13:35:42.855Z</time></trkpt><trkpt lat="42.5189698" lon="-8.2801335"><ele>804.0</ele><time>2026-04-19T13:35:43.861Z</time></trkpt><trkpt lat="42.5190536" lon="-8.2798406"><ele>804.0</ele><time>2026-04-19T13:35:44.865Z</time></trkpt><trkpt lat="42.5191692" lon="-8.2795699"><ele>802.6666666666667</ele><time>2026-04-19T13:35:45.864Z</time></trkpt><trkpt lat="42.5192929" lon="-8.2793144"><ele>801.3333333333334</ele><time>2026-04-19T13:35:46.864Z</time></trkpt><trkpt lat="42.5194449" lon="-8.279095"><ele>800.0</ele><time>2026-04-19T13:35:47.873Z</time></trkpt><trkpt lat="42.5196283" lon="-8.278911"><ele>800.0</ele><time>2026-04-19T13:35:48.864Z</time></trkpt><trkpt lat="42.5198117" lon="-8.2787128"><ele>800.0</ele><time>2026-04-19T13:35:49.842Z</time></trkpt><trkpt lat="42.5199766" lon="-8.2784906"><ele>800.0</ele><time>2026-04-19T13:35:50.865Z</time></trkpt><trkpt lat="42.5201079" lon="-8.2782358"><ele>800.0</ele><time>2026-04-19T13:35:51.86Z</time></trkpt><trkpt lat="42.5202075" lon="-8.2779521"><ele>797.0</ele><time>2026-04-19T13:35:52.864Z</time></trkpt><trkpt lat="42.520253" lon="-8.2776465"><ele>794.0</ele><time>2026-04-19T13:35:53.874Z</time></trkpt><trkpt lat="42.5202538" lon="-8.2773373"><ele>795.3333333333334</ele><time>2026-04-19T13:35:54.864Z</time></trkpt><trkpt lat="42.5202209" lon="-8.2770355"><ele>796.6666666666667</ele><time>2026-04-19T13:35:55.872Z</time></trkpt><trkpt lat="42.5201568" lon="-8.2767458"><ele>798.0</ele><time>2026-04-19T13:35:56.865Z</time></trkpt><trkpt lat="42.5200858" lon="-8.2764536"><ele>801.5</ele><time>2026-04-19T13:35:57.865Z</time></trkpt><trkpt lat="42.5200061" lon="-8.2761562"><ele>805.0</ele><time>2026-04-19T13:35:58.864Z</time></trkpt><trkpt lat="42.5199187" lon="-8.2758645"><ele>810.0</ele><time>2026-04-19T13:35:59.873Z</time></trkpt><trkpt lat="42.5198066" lon="-8.2755868"><ele>815.0</ele><time>2026-04-19T13:36:00.868Z</time></trkpt><trkpt lat="42.5196702" lon="-8.2753362"><ele>807.5</ele><time>2026-04-19T13:36:01.864Z</time></trkpt><trkpt lat="42.5195087" lon="-8.275115"><ele>800.0</ele><time>2026-04-19T13:36:02.866Z</time></trkpt><trkpt lat="42.519335" lon="-8.274911"><ele>804.6666666666667</ele><time>2026-04-19T13:36:03.865Z</time></trkpt><trkpt lat="42.5191533" lon="-8.2747461"><ele>809.3333333333333</ele><time>2026-04-19T13:36:04.868Z</time></trkpt><trkpt lat="42.5189748" lon="-8.2746068"><ele>814.0</ele><time>2026-04-19T13:36:05.868Z</time></trkpt><trkpt lat="42.5188048" lon="-8.2744874"><ele>810.3333333333333</ele><time>2026-04-19T13:36:06.871Z</time></trkpt><trkpt lat="42.5186321" lon="-8.2743836"><ele>806.6666666666667</ele><time>2026-04-19T13:36:07.864Z</time></trkpt><trkpt lat="42.5184568" lon="-8.2742924"><ele>803.0</ele><time>2026-04-19T13:36:08.873Z</time></trkpt><trkpt lat="42.5182878" lon="-8.2741994"><ele>803.0</ele><time>2026-04-19T13:36:09.869Z</time></trkpt><trkpt lat="42.5181082" lon="-8.274109"><ele>803.0</ele><time>2026-04-19T13:36:10.869Z</time></trkpt><trkpt lat="42.5179241" lon="-8.2740203"><ele>803.0</ele><time>2026-04-19T13:36:11.865Z</time></trkpt><trkpt lat="42.5177349" lon="-8.2739303"><ele>805.6666666666667</ele><time>2026-04-19T13:36:12.887Z</time></trkpt><trkpt lat="42.517541" lon="-8.2738338"><ele>808.3333333333333</ele><time>2026-04-19T13:36:13.866Z</time></trkpt><trkpt lat="42.5173416" lon="-8.2737369"><ele>811.0</ele><time>2026-04-19T13:36:14.864Z</time></trkpt><trkpt lat="42.5171397" lon="-8.2736399"><ele>808.0</ele><time>2026-04-19T13:36:15.87Z</time></trkpt><trkpt lat="42.5169329" lon="-8.2735408"><ele>805.0</ele><time>2026-04-19T13:36:16.867Z</time></trkpt><trkpt lat="42.5167231" lon="-8.2734381"><ele>802.0</ele><time>2026-04-19T13:36:17.866Z</time></trkpt><trkpt lat="42.5165117" lon="-8.2733297"><ele>802.0</ele><time>2026-04-19T13:36:18.867Z</time></trkpt><trkpt lat="42.5162997" lon="-8.2732255"><ele>802.0</ele><time>2026-04-19T13:36:19.866Z</time></trkpt><trkpt lat="42.5160854" lon="-8.273125"><ele>803.3333333333333</ele><time>2026-04-19T13:36:20.865Z</time></trkpt><trkpt lat="42.5158721" lon="-8.2730162"><ele>804.6666666666667</ele><time>2026-04-19T13:36:21.865Z</time></trkpt><trkpt lat="42.5156742" lon="-8.2728977"><ele>806.0</ele><time>2026-04-19T13:36:22.864Z</time></trkpt><trkpt lat="42.5155019" lon="-8.272759"><ele>803.0</ele><time>2026-04-19T13:36:23.867Z</time></trkpt><trkpt lat="42.5153501" lon="-8.2725922"><ele>800.0</ele><time>2026-04-19T13:36:24.869Z</time></trkpt><trkpt lat="42.515226" lon="-8.272385"><ele>797.0</ele><time>2026-04-19T13:36:25.867Z</time></trkpt><trkpt lat="42.5151324" lon="-8.272152"><ele>797.0</ele><time>2026-04-19T13:36:26.866Z</time></trkpt><trkpt lat="42.5150658" lon="-8.2718951"><ele>797.0</ele><time>2026-04-19T13:36:27.883Z</time></trkpt><trkpt lat="42.5150331" lon="-8.2716293"><ele>797.0</ele><time>2026-04-19T13:36:28.865Z</time></trkpt><trkpt lat="42.5150294" lon="-8.271363"><ele>794.3333333333334</ele><time>2026-04-19T13:36:29.868Z</time></trkpt><trkpt lat="42.5150715" lon="-8.271101"><ele>791.6666666666667</ele><time>2026-04-19T13:36:30.859Z</time></trkpt><trkpt lat="42.5151446" lon="-8.2708478"><ele>789.0</ele><time>2026-04-19T13:36:31.859Z</time></trkpt><trkpt lat="42.5152495" lon="-8.270619"><ele>791.3333333333333</ele><time>2026-04-19T13:36:32.859Z</time></trkpt><trkpt lat="42.5153789" lon="-8.2704156"><ele>793.6666666666666</ele><time>2026-04-19T13:36:33.858Z</time></trkpt><trkpt lat="42.51554" lon="-8.2702297"><ele>796.0</ele><time>2026-04-19T13:36:34.855Z</time></trkpt><trkpt lat="42.5156994" lon="-8.2700533"><ele>796.0</ele><time>2026-04-19T13:36:35.862Z</time></trkpt><trkpt lat="42.5158477" lon="-8.2698613"><ele>796.0</ele><time>2026-04-19T13:36:36.865Z</time></trkpt><trkpt lat="42.5159895" lon="-8.2696503"><ele>796.0</ele><time>2026-04-19T13:36:37.87Z</time></trkpt><trkpt lat="42.5161155" lon="-8.2694254"><ele>797.6666666666666</ele><time>2026-04-19T13:36:38.863Z</time></trkpt><trkpt lat="42.5162274" lon="-8.2692014"><ele>799.3333333333333</ele><time>2026-04-19T13:36:39.859Z</time></trkpt><trkpt lat="42.5163158" lon="-8.2689667"><ele>801.0</ele><time>2026-04-19T13:36:40.859Z</time></trkpt><trkpt lat="42.5163618" lon="-8.2687066"><ele>801.0</ele><time>2026-04-19T13:36:41.867Z</time></trkpt><trkpt lat="42.5163643" lon="-8.2684452"><ele>801.0</ele><time>2026-04-19T13:36:42.861Z</time></trkpt><trkpt lat="42.5163224" lon="-8.2681837"><ele>801.0</ele><time>2026-04-19T13:36:43.861Z</time></trkpt><trkpt lat="42.5162757" lon="-8.2679192"><ele>801.0</ele><time>2026-04-19T13:36:44.855Z</time></trkpt><trkpt lat="42.5162533" lon="-8.2676541"><ele>801.0</ele><time>2026-04-19T13:36:45.861Z</time></trkpt><trkpt lat="42.5162393" lon="-8.267392"><ele>801.0</ele><time>2026-04-19T13:36:46.854Z</time></trkpt><trkpt lat="42.5162411" lon="-8.2671432"><ele>801.0</ele><time>2026-04-19T13:36:47.86Z</time></trkpt><trkpt lat="42.5162665" lon="-8.2669014"><ele>801.0</ele><time>2026-04-19T13:36:48.854Z</time></trkpt><trkpt lat="42.516305" lon="-8.2666703"><ele>801.0</ele><time>2026-04-19T13:36:49.859Z</time></trkpt><trkpt lat="42.5163524" lon="-8.2664409"><ele>799.0</ele><time>2026-04-19T13:36:50.852Z</time></trkpt><trkpt lat="42.5164038" lon="-8.2662101"><ele>797.0</ele><time>2026-04-19T13:36:51.856Z</time></trkpt><trkpt lat="42.5164452" lon="-8.2659789"><ele>795.0</ele><time>2026-04-19T13:36:52.862Z</time></trkpt><trkpt lat="42.5164746" lon="-8.2657475"><ele>795.3333333333333</ele><time>2026-04-19T13:36:53.865Z</time></trkpt><trkpt lat="42.5164724" lon="-8.2655165"><ele>795.6666666666666</ele><time>2026-04-19T13:36:54.855Z</time></trkpt><trkpt lat="42.516448" lon="-8.2652818"><ele>796.0</ele><time>2026-04-19T13:36:55.866Z</time></trkpt><trkpt lat="42.5164181" lon="-8.2650495"><ele>796.0</ele><time>2026-04-19T13:36:56.863Z</time></trkpt><trkpt lat="42.5163815" lon="-8.2648119"><ele>796.0</ele><time>2026-04-19T13:36:57.863Z</time></trkpt><trkpt lat="42.5163371" lon="-8.2645738"><ele>796.0</ele><time>2026-04-19T13:36:58.865Z</time></trkpt><trkpt lat="42.5162808" lon="-8.2643322"><ele>794.6666666666666</ele><time>2026-04-19T13:36:59.867Z</time></trkpt><trkpt lat="42.5162058" lon="-8.2641"><ele>793.3333333333333</ele><time>2026-04-19T13:37:00.867Z</time></trkpt><trkpt lat="42.5160942" lon="-8.2638985"><ele>792.0</ele><time>2026-04-19T13:37:01.857Z</time></trkpt><trkpt lat="42.5159708" lon="-8.2637196"><ele>792.0</ele><time>2026-04-19T13:37:02.864Z</time></trkpt><trkpt lat="42.5158174" lon="-8.2635804"><ele>792.0</ele><time>2026-04-19T13:37:03.863Z</time></trkpt><trkpt lat="42.5156477" lon="-8.2634805"><ele>792.0</ele><time>2026-04-19T13:37:04.867Z</time></trkpt><trkpt lat="42.5154705" lon="-8.2634014"><ele>790.6666666666667</ele><time>2026-04-19T13:37:05.866Z</time></trkpt><trkpt lat="42.5152921" lon="-8.2633374"><ele>789.3333333333334</ele><time>2026-04-19T13:37:06.865Z</time></trkpt><trkpt lat="42.5151146" lon="-8.2632835"><ele>788.0</ele><time>2026-04-19T13:37:07.864Z</time></trkpt><trkpt lat="42.5149335" lon="-8.2632291"><ele>788.0</ele><time>2026-04-19T13:37:08.867Z</time></trkpt><trkpt lat="42.514743" lon="-8.2631724"><ele>788.0</ele><time>2026-04-19T13:37:09.856Z</time></trkpt><trkpt lat="42.514549" lon="-8.2631161"><ele>788.0</ele><time>2026-04-19T13:37:10.865Z</time></trkpt><trkpt lat="42.5143516" lon="-8.263062"><ele>791.3333333333334</ele><time>2026-04-19T13:37:11.855Z</time></trkpt><trkpt lat="42.5141517" lon="-8.263007"><ele>794.6666666666667</ele><time>2026-04-19T13:37:12.862Z</time></trkpt><trkpt lat="42.5139514" lon="-8.2629517"><ele>798.0</ele><time>2026-04-19T13:37:13.856Z</time></trkpt><trkpt lat="42.5137461" lon="-8.262898"><ele>797.6666666666667</ele><time>2026-04-19T13:37:14.862Z</time></trkpt><trkpt lat="42.5135363" lon="-8.2628467"><ele>797.3333333333334</ele><time>2026-04-19T13:37:15.863Z</time></trkpt><trkpt lat="42.5133223" lon="-8.2627928"><ele>797.0</ele><time>2026-04-19T13:37:16.855Z</time></trkpt><trkpt lat="42.5131084" lon="-8.2627325"><ele>797.0</ele><time>2026-04-19T13:37:17.851Z</time></trkpt><trkpt lat="42.5128986" lon="-8.2626683"><ele>797.0</ele><time>2026-04-19T13:37:18.86Z</time></trkpt><trkpt lat="42.5126869" lon="-8.262597"><ele>797.0</ele><time>2026-04-19T13:37:19.859Z</time></trkpt><trkpt lat="42.5124747" lon="-8.2625296"><ele>797.0</ele><time>2026-04-19T13:37:20.859Z</time></trkpt><trkpt lat="42.5122666" lon="-8.2624664"><ele>797.0</ele><time>2026-04-19T13:37:21.856Z</time></trkpt><trkpt lat="42.5120594" lon="-8.2624118"><ele>797.0</ele><time>2026-04-19T13:37:22.853Z</time></trkpt><trkpt lat="42.5118512" lon="-8.2623582"><ele>797.3333333333334</ele><time>2026-04-19T13:37:23.858Z</time></trkpt><trkpt lat="42.5116439" lon="-8.2623064"><ele>797.6666666666667</ele><time>2026-04-19T13:37:24.851Z</time></trkpt><trkpt lat="42.5114328" lon="-8.2622459"><ele>798.0</ele><time>2026-04-19T13:37:25.856Z</time></trkpt><trkpt lat="42.5112197" lon="-8.2621798"><ele>803.0</ele><time>2026-04-19T13:37:26.853Z</time></trkpt><trkpt lat="42.5110154" lon="-8.2621083"><ele>808.0</ele><time>2026-04-19T13:37:27.854Z</time></trkpt><trkpt lat="42.5108227" lon="-8.2620182"><ele>813.0</ele><time>2026-04-19T13:37:28.856Z</time></trkpt><trkpt lat="42.5106599" lon="-8.2618998"><ele>813.0</ele><time>2026-04-19T13:37:29.85Z</time></trkpt><trkpt lat="42.5105261" lon="-8.2617516"><ele>813.0</ele><time>2026-04-19T13:37:30.857Z</time></trkpt><trkpt lat="42.5104151" lon="-8.2615788"><ele>813.0</ele><time>2026-04-19T13:37:31.859Z</time></trkpt><trkpt lat="42.5103274" lon="-8.2613753"><ele>812.3333333333333</ele><time>2026-04-19T13:37:32.857Z</time></trkpt><trkpt lat="42.5102606" lon="-8.2611634"><ele>811.6666666666666</ele><time>2026-04-19T13:37:33.856Z</time></trkpt><trkpt lat="42.5102037" lon="-8.2609353"><ele>811.0</ele><time>2026-04-19T13:37:34.853Z</time></trkpt><trkpt lat="42.5101589" lon="-8.2606932"><ele>812.3333333333333</ele><time>2026-04-19T13:37:35.863Z</time></trkpt><trkpt lat="42.5101133" lon="-8.2604413"><ele>813.6666666666667</ele><time>2026-04-19T13:37:36.853Z</time></trkpt><trkpt lat="42.51007" lon="-8.2601898"><ele>815.0</ele><time>2026-04-19T13:37:37.857Z</time></trkpt><trkpt lat="42.5100122" lon="-8.2599448"><ele>818.3333333333334</ele><time>2026-04-19T13:37:38.862Z</time></trkpt><trkpt lat="42.5099364" lon="-8.259713"><ele>821.6666666666667</ele><time>2026-04-19T13:37:39.856Z</time></trkpt><trkpt lat="42.5098123" lon="-8.2595206"><ele>825.0</ele><time>2026-04-19T13:37:40.857Z</time></trkpt><trkpt lat="42.5096565" lon="-8.2593509"><ele>822.0</ele><time>2026-04-19T13:37:41.861Z</time></trkpt><trkpt lat="42.5094792" lon="-8.2592159"><ele>819.0</ele><time>2026-04-19T13:37:42.852Z</time></trkpt><trkpt lat="42.509294" lon="-8.2591078"><ele>816.0</ele><time>2026-04-19T13:37:43.862Z</time></trkpt><trkpt lat="42.5091043" lon="-8.2590284"><ele>816.0</ele><time>2026-04-19T13:37:44.852Z</time></trkpt><trkpt lat="42.5089185" lon="-8.2589586"><ele>816.0</ele><time>2026-04-19T13:37:45.856Z</time></trkpt><trkpt lat="42.5087399" lon="-8.2588661"><ele>816.0</ele><time>2026-04-19T13:37:46.858Z</time></trkpt><trkpt lat="42.508568" lon="-8.258755"><ele>818.3333333333333</ele><time>2026-04-19T13:37:47.858Z</time></trkpt><trkpt lat="42.5084015" lon="-8.2586176"><ele>820.6666666666666</ele><time>2026-04-19T13:37:48.858Z</time></trkpt><trkpt lat="42.5082426" lon="-8.2584548"><ele>823.0</ele><time>2026-04-19T13:37:49.853Z</time></trkpt><trkpt lat="42.5080884" lon="-8.2582768"><ele>824.0</ele><time>2026-04-19T13:37:50.851Z</time></trkpt><trkpt lat="42.507937" lon="-8.2580987"><ele>825.0</ele><time>2026-04-19T13:37:51.854Z</time></trkpt><trkpt lat="42.507784" lon="-8.2579187"><ele>826.0</ele><time>2026-04-19T13:37:52.86Z</time></trkpt><trkpt lat="42.5076245" lon="-8.2577438"><ele>826.0</ele><time>2026-04-19T13:37:53.853Z</time></trkpt><trkpt lat="42.5074647" lon="-8.2575765"><ele>826.0</ele><time>2026-04-19T13:37:54.855Z</time></trkpt><trkpt lat="42.5072921" lon="-8.2574287"><ele>826.0</ele><time>2026-04-19T13:37:55.855Z</time></trkpt><trkpt lat="42.507102" lon="-8.2572965"><ele>828.0</ele><time>2026-04-19T13:37:56.862Z</time></trkpt><trkpt lat="42.5069049" lon="-8.2571721"><ele>830.0</ele><time>2026-04-19T13:37:57.854Z</time></trkpt><trkpt lat="42.5067044" lon="-8.2570504"><ele>832.0</ele><time>2026-04-19T13:37:58.859Z</time></trkpt><trkpt lat="42.5065022" lon="-8.2569282"><ele>832.0</ele><time>2026-04-19T13:37:59.839Z</time></trkpt><trkpt lat="42.5063039" lon="-8.2568034"><ele>832.0</ele><time>2026-04-19T13:38:00.851Z</time></trkpt><trkpt lat="42.5061044" lon="-8.2566775"><ele>832.0</ele><time>2026-04-19T13:38:01.85Z</time></trkpt><trkpt lat="42.505901" lon="-8.2565515"><ele>832.0</ele><time>2026-04-19T13:38:02.853Z</time></trkpt><trkpt lat="42.5056947" lon="-8.2564271"><ele>832.0</ele><time>2026-04-19T13:38:03.857Z</time></trkpt><trkpt lat="42.5054933" lon="-8.256307"><ele>832.0</ele><time>2026-04-19T13:38:04.854Z</time></trkpt><trkpt lat="42.5053026" lon="-8.256193"><ele>829.3333333333333</ele><time>2026-04-19T13:38:05.859Z</time></trkpt><trkpt lat="42.5051204" lon="-8.2560815"><ele>826.6666666666667</ele><time>2026-04-19T13:38:06.859Z</time></trkpt><trkpt lat="42.5049459" lon="-8.2559678"><ele>824.0</ele><time>2026-04-19T13:38:07.861Z</time></trkpt><trkpt lat="42.5047823" lon="-8.255832"><ele>824.0</ele><time>2026-04-19T13:38:08.862Z</time></trkpt><trkpt lat="42.5046364" lon="-8.2556622"><ele>824.0</ele><time>2026-04-19T13:38:09.858Z</time></trkpt><trkpt lat="42.5045145" lon="-8.2554647"><ele>824.0</ele><time>2026-04-19T13:38:10.858Z</time></trkpt><trkpt lat="42.5044216" lon="-8.2552467"><ele>824.3333333333334</ele><time>2026-04-19T13:38:11.862Z</time></trkpt><trkpt lat="42.5043558" lon="-8.2550095"><ele>824.6666666666667</ele><time>2026-04-19T13:38:12.861Z</time></trkpt><trkpt lat="42.5043163" lon="-8.254757"><ele>825.0</ele><time>2026-04-19T13:38:13.863Z</time></trkpt><trkpt lat="42.504312" lon="-8.2544979"><ele>824.0</ele><time>2026-04-19T13:38:14.863Z</time></trkpt><trkpt lat="42.5043351" lon="-8.2542379"><ele>823.0</ele><time>2026-04-19T13:38:15.86Z</time></trkpt><trkpt lat="42.5043756" lon="-8.2539696"><ele>822.0</ele><time>2026-04-19T13:38:16.864Z</time></trkpt><trkpt lat="42.5044222" lon="-8.2536962"><ele>819.3333333333333</ele><time>2026-04-19T13:38:17.855Z</time></trkpt><trkpt lat="42.5044667" lon="-8.2534266"><ele>816.6666666666666</ele><time>2026-04-19T13:38:18.862Z</time></trkpt><trkpt lat="42.5045014" lon="-8.2531595"><ele>814.0</ele><time>2026-04-19T13:38:19.868Z</time></trkpt><trkpt lat="42.5045278" lon="-8.252887"><ele>812.3333333333333</ele><time>2026-04-19T13:38:20.842Z</time></trkpt><trkpt lat="42.5045482" lon="-8.2526115"><ele>810.6666666666667</ele><time>2026-04-19T13:38:21.86Z</time></trkpt><trkpt lat="42.5045594" lon="-8.2523297"><ele>809.0</ele><time>2026-04-19T13:38:22.86Z</time></trkpt><trkpt lat="42.5045597" lon="-8.2520434"><ele>809.0</ele><time>2026-04-19T13:38:23.856Z</time></trkpt><trkpt lat="42.5045488" lon="-8.2517555"><ele>809.0</ele><time>2026-04-19T13:38:24.863Z</time></trkpt><trkpt lat="42.5045304" lon="-8.2514709"><ele>809.0</ele><time>2026-04-19T13:38:25.859Z</time></trkpt><trkpt lat="42.5045043" lon="-8.2511817"><ele>809.0</ele><time>2026-04-19T13:38:26.863Z</time></trkpt><trkpt lat="42.5044706" lon="-8.2508848"><ele>809.0</ele><time>2026-04-19T13:38:27.862Z</time></trkpt><trkpt lat="42.5044323" lon="-8.2505814"><ele>809.0</ele><time>2026-04-19T13:38:28.863Z</time></trkpt><trkpt lat="42.5043937" lon="-8.2502767"><ele>809.0</ele><time>2026-04-19T13:38:29.862Z</time></trkpt><trkpt lat="42.5043608" lon="-8.2499734"><ele>809.0</ele><time>2026-04-19T13:38:30.863Z</time></trkpt><trkpt lat="42.5043505" lon="-8.2496818"><ele>809.0</ele><time>2026-04-19T13:38:31.855Z</time></trkpt><trkpt lat="42.5043738" lon="-8.2493953"><ele>809.3333333333334</ele><time>2026-04-19T13:38:32.867Z</time></trkpt><trkpt lat="42.5044291" lon="-8.2491287"><ele>809.6666666666667</ele><time>2026-04-19T13:38:33.865Z</time></trkpt><trkpt lat="42.5045116" lon="-8.2488817"><ele>810.0</ele><time>2026-04-19T13:38:34.863Z</time></trkpt><trkpt lat="42.5046103" lon="-8.248645"><ele>811.0</ele><time>2026-04-19T13:38:35.857Z</time></trkpt><trkpt lat="42.5047216" lon="-8.2484168"><ele>812.0</ele><time>2026-04-19T13:38:36.865Z</time></trkpt><trkpt lat="42.5048207" lon="-8.2481753"><ele>813.0</ele><time>2026-04-19T13:38:37.861Z</time></trkpt><trkpt lat="42.5049042" lon="-8.2479176"><ele>813.6666666666667</ele><time>2026-04-19T13:38:38.863Z</time></trkpt><trkpt lat="42.5049842" lon="-8.247658"><ele>814.3333333333334</ele><time>2026-04-19T13:38:39.864Z</time></trkpt><trkpt lat="42.5050656" lon="-8.247404"><ele>815.0</ele><time>2026-04-19T13:38:40.866Z</time></trkpt><trkpt lat="42.505146" lon="-8.2471525"><ele>815.0</ele><time>2026-04-19T13:38:41.859Z</time></trkpt><trkpt lat="42.5052234" lon="-8.2469153"><ele>815.0</ele><time>2026-04-19T13:38:42.863Z</time></trkpt><trkpt lat="42.5052952" lon="-8.2466861"><ele>815.0</ele><time>2026-04-19T13:38:43.866Z</time></trkpt><trkpt lat="42.5053613" lon="-8.2464602"><ele>814.6666666666667</ele><time>2026-04-19T13:38:44.865Z</time></trkpt><trkpt lat="42.5054205" lon="-8.2462382"><ele>814.3333333333333</ele><time>2026-04-19T13:38:45.866Z</time></trkpt><trkpt lat="42.5054806" lon="-8.2460127"><ele>814.0</ele><time>2026-04-19T13:38:46.863Z</time></trkpt><trkpt lat="42.5055433" lon="-8.2457776"><ele>813.0</ele><time>2026-04-19T13:38:47.865Z</time></trkpt><trkpt lat="42.5056044" lon="-8.2455386"><ele>812.0</ele><time>2026-04-19T13:38:48.863Z</time></trkpt><trkpt lat="42.5056603" lon="-8.2452949"><ele>811.0</ele><time>2026-04-19T13:38:49.86Z</time></trkpt><trkpt lat="42.5057076" lon="-8.2450442"><ele>809.6666666666666</ele><time>2026-04-19T13:38:50.872Z</time></trkpt><trkpt lat="42.5057393" lon="-8.2447838"><ele>808.3333333333333</ele><time>2026-04-19T13:38:51.867Z</time></trkpt><trkpt lat="42.5057463" lon="-8.2445244"><ele>807.0</ele><time>2026-04-19T13:38:52.87Z</time></trkpt><trkpt lat="42.5057125" lon="-8.2442821"><ele>807.0</ele><time>2026-04-19T13:38:53.867Z</time></trkpt><trkpt lat="42.5056384" lon="-8.2440651"><ele>807.0</ele><time>2026-04-19T13:38:54.869Z</time></trkpt><trkpt lat="42.5055452" lon="-8.2438536"><ele>807.0</ele><time>2026-04-19T13:38:55.867Z</time></trkpt><trkpt lat="42.5054237" lon="-8.2436653"><ele>804.3333333333333</ele><time>2026-04-19T13:38:56.864Z</time></trkpt><trkpt lat="42.5052876" lon="-8.2435026"><ele>801.6666666666666</ele><time>2026-04-19T13:38:57.864Z</time></trkpt><trkpt lat="42.5051433" lon="-8.2433568"><ele>799.0</ele><time>2026-04-19T13:38:58.855Z</time></trkpt><trkpt lat="42.5049971" lon="-8.2432145"><ele>798.6666666666666</ele><time>2026-04-19T13:38:59.869Z</time></trkpt><trkpt lat="42.5048445" lon="-8.2430633"><ele>798.3333333333333</ele><time>2026-04-19T13:39:00.86Z</time></trkpt><trkpt lat="42.5046918" lon="-8.242916"><ele>798.0</ele><time>2026-04-19T13:39:01.877Z</time></trkpt><trkpt lat="42.5045431" lon="-8.242756"><ele>798.0</ele><time>2026-04-19T13:39:02.854Z</time></trkpt><trkpt lat="42.5044002" lon="-8.2425811"><ele>798.0</ele><time>2026-04-19T13:39:03.86Z</time></trkpt><trkpt lat="42.5042701" lon="-8.2424088"><ele>798.0</ele><time>2026-04-19T13:39:04.864Z</time></trkpt><trkpt lat="42.5041478" lon="-8.2422333"><ele>800.3333333333333</ele><time>2026-04-19T13:39:05.857Z</time></trkpt><trkpt lat="42.5040309" lon="-8.2420591"><ele>802.6666666666666</ele><time>2026-04-19T13:39:06.858Z</time></trkpt><trkpt lat="42.5039176" lon="-8.2418922"><ele>805.0</ele><time>2026-04-19T13:39:07.863Z</time></trkpt><trkpt lat="42.5038021" lon="-8.2417309"><ele>803.3333333333333</ele><time>2026-04-19T13:39:08.857Z</time></trkpt><trkpt lat="42.5036827" lon="-8.2415768"><ele>801.6666666666667</ele><time>2026-04-19T13:39:09.853Z</time></trkpt><trkpt lat="42.5035607" lon="-8.2414311"><ele>800.0</ele><time>2026-04-19T13:39:10.858Z</time></trkpt><trkpt lat="42.5034322" lon="-8.2412869"><ele>800.0</ele><time>2026-04-19T13:39:11.857Z</time></trkpt><trkpt lat="42.5033122" lon="-8.2411335"><ele>800.0</ele><time>2026-04-19T13:39:12.858Z</time></trkpt><trkpt lat="42.503219" lon="-8.2409656"><ele>800.0</ele><time>2026-04-19T13:39:13.858Z</time></trkpt><trkpt lat="42.5031571" lon="-8.2407733"><ele>799.3333333333334</ele><time>2026-04-19T13:39:14.858Z</time></trkpt><trkpt lat="42.5031141" lon="-8.2405668"><ele>798.6666666666667</ele><time>2026-04-19T13:39:15.858Z</time></trkpt><trkpt lat="42.5030725" lon="-8.2403467"><ele>798.0</ele><time>2026-04-19T13:39:16.857Z</time></trkpt><trkpt lat="42.5030313" lon="-8.2401333"><ele>798.0</ele><time>2026-04-19T13:39:17.861Z</time></trkpt><trkpt lat="42.5029721" lon="-8.2399417"><ele>798.0</ele><time>2026-04-19T13:39:18.86Z</time></trkpt><trkpt lat="42.5028861" lon="-8.2397647"><ele>798.0</ele><time>2026-04-19T13:39:19.864Z</time></trkpt><trkpt lat="42.5027743" lon="-8.2396006"><ele>797.3333333333333</ele><time>2026-04-19T13:39:20.869Z</time></trkpt><trkpt lat="42.5026372" lon="-8.2394828"><ele>796.6666666666666</ele><time>2026-04-19T13:39:21.869Z</time></trkpt><trkpt lat="42.5024836" lon="-8.2393956"><ele>796.0</ele><time>2026-04-19T13:39:22.863Z</time></trkpt><trkpt lat="42.5023343" lon="-8.2393557"><ele>796.0</ele><time>2026-04-19T13:39:23.858Z</time></trkpt><trkpt lat="42.5021813" lon="-8.2393356"><ele>796.0</ele><time>2026-04-19T13:39:24.865Z</time></trkpt><trkpt lat="42.5020292" lon="-8.2393171"><ele>796.0</ele><time>2026-04-19T13:39:25.86Z</time></trkpt><trkpt lat="42.501874" lon="-8.2392857"><ele>794.0</ele><time>2026-04-19T13:39:26.864Z</time></trkpt><trkpt lat="42.5017168" lon="-8.2392396"><ele>792.0</ele><time>2026-04-19T13:39:27.865Z</time></trkpt><trkpt lat="42.5015606" lon="-8.2391729"><ele>790.0</ele><time>2026-04-19T13:39:28.861Z</time></trkpt><trkpt lat="42.5014189" lon="-8.2390734"><ele>789.0</ele><time>2026-04-19T13:39:29.857Z</time></trkpt><trkpt lat="42.5012942" lon="-8.2389322"><ele>788.0</ele><time>2026-04-19T13:39:30.866Z</time></trkpt><trkpt lat="42.5011732" lon="-8.2387575"><ele>787.0</ele><time>2026-04-19T13:39:31.868Z</time></trkpt><trkpt lat="42.5010584" lon="-8.2385671"><ele>787.0</ele><time>2026-04-19T13:39:32.863Z</time></trkpt><trkpt lat="42.5009465" lon="-8.238369"><ele>787.0</ele><time>2026-04-19T13:39:33.861Z</time></trkpt><trkpt lat="42.5008349" lon="-8.2381622"><ele>787.0</ele><time>2026-04-19T13:39:34.856Z</time></trkpt><trkpt lat="42.5007256" lon="-8.2379552"><ele>788.0</ele><time>2026-04-19T13:39:35.866Z</time></trkpt><trkpt lat="42.5006188" lon="-8.2377466"><ele>789.0</ele><time>2026-04-19T13:39:36.863Z</time></trkpt><trkpt lat="42.5005165" lon="-8.2375335"><ele>790.0</ele><time>2026-04-19T13:39:37.868Z</time></trkpt><trkpt lat="42.5004096" lon="-8.237327"><ele>788.0</ele><time>2026-04-19T13:39:38.866Z</time></trkpt><trkpt lat="42.5002951" lon="-8.237125"><ele>786.0</ele><time>2026-04-19T13:39:39.865Z</time></trkpt><trkpt lat="42.5001809" lon="-8.2369277"><ele>784.0</ele><time>2026-04-19T13:39:40.859Z</time></trkpt><trkpt lat="42.5000695" lon="-8.2367412"><ele>784.0</ele><time>2026-04-19T13:39:41.864Z</time></trkpt><trkpt lat="42.4999642" lon="-8.2365723"><ele>784.0</ele><time>2026-04-19T13:39:42.863Z</time></trkpt><trkpt lat="42.4998425" lon="-8.2364374"><ele>784.0</ele><time>2026-04-19T13:39:43.859Z</time></trkpt><trkpt lat="42.4997073" lon="-8.2363376"><ele>786.6666666666666</ele><time>2026-04-19T13:39:44.864Z</time></trkpt><trkpt lat="42.4995664" lon="-8.2362691"><ele>789.3333333333333</ele><time>2026-04-19T13:39:45.865Z</time></trkpt><trkpt lat="42.499414" lon="-8.2362062"><ele>792.0</ele><time>2026-04-19T13:39:46.864Z</time></trkpt><trkpt lat="42.4992544" lon="-8.2361579"><ele>792.0</ele><time>2026-04-19T13:39:47.865Z</time></trkpt><trkpt lat="42.499101" lon="-8.2361077"><ele>792.0</ele><time>2026-04-19T13:39:48.846Z</time></trkpt><trkpt lat="42.4989553" lon="-8.2360561"><ele>792.0</ele><time>2026-04-19T13:39:49.856Z</time></trkpt><trkpt lat="42.4988207" lon="-8.2359951"><ele>792.75</ele><time>2026-04-19T13:39:50.862Z</time></trkpt><trkpt lat="42.4986935" lon="-8.235915"><ele>793.5</ele><time>2026-04-19T13:39:51.862Z</time></trkpt><trkpt lat="42.4985676" lon="-8.2358093"><ele>794.25</ele><time>2026-04-19T13:39:52.86Z</time></trkpt><trkpt lat="42.4984461" lon="-8.2356813"><ele>795.0</ele><time>2026-04-19T13:39:53.862Z</time></trkpt><trkpt lat="42.4983261" lon="-8.2355359"><ele>795.0</ele><time>2026-04-19T13:39:54.864Z</time></trkpt><trkpt lat="42.4981958" lon="-8.2353954"><ele>795.0</ele><time>2026-04-19T13:39:55.865Z</time></trkpt><trkpt lat="42.4980558" lon="-8.2352495"><ele>795.0</ele><time>2026-04-19T13:39:56.858Z</time></trkpt><trkpt lat="42.4979151" lon="-8.2350895"><ele>794.3333333333333</ele><time>2026-04-19T13:39:57.864Z</time></trkpt><trkpt lat="42.4977689" lon="-8.2349195"><ele>793.6666666666666</ele><time>2026-04-19T13:39:58.866Z</time></trkpt><trkpt lat="42.4976212" lon="-8.2347508"><ele>793.0</ele><time>2026-04-19T13:39:59.862Z</time></trkpt><trkpt lat="42.4974687" lon="-8.2345691"><ele>793.0</ele><time>2026-04-19T13:40:00.87Z</time></trkpt><trkpt lat="42.4973191" lon="-8.2343756"><ele>793.0</ele><time>2026-04-19T13:40:01.865Z</time></trkpt><trkpt lat="42.4971752" lon="-8.2341978"><ele>793.0</ele><time>2026-04-19T13:40:02.867Z</time></trkpt><trkpt lat="42.4970438" lon="-8.2340322"><ele>792.3333333333333</ele><time>2026-04-19T13:40:03.867Z</time></trkpt><trkpt lat="42.4969189" lon="-8.2338683"><ele>791.6666666666667</ele><time>2026-04-19T13:40:04.865Z</time></trkpt><trkpt lat="42.4967868" lon="-8.233704"><ele>791.0</ele><time>2026-04-19T13:40:05.862Z</time></trkpt><trkpt lat="42.496652" lon="-8.2335343"><ele>791.0</ele><time>2026-04-19T13:40:06.865Z</time></trkpt><trkpt lat="42.4965211" lon="-8.2333639"><ele>791.0</ele><time>2026-04-19T13:40:07.864Z</time></trkpt><trkpt lat="42.4964089" lon="-8.2331821"><ele>791.0</ele><time>2026-04-19T13:40:08.865Z</time></trkpt><trkpt lat="42.4962573" lon="-8.232761"><ele>789.0</ele><time>2026-04-19T13:40:10.769Z</time></trkpt><trkpt lat="42.4962074" lon="-8.2325388"><ele>787.0</ele><time>2026-04-19T13:40:11.769Z</time></trkpt><trkpt lat="42.4961678" lon="-8.2323069"><ele>785.0</ele><time>2026-04-19T13:40:12.866Z</time></trkpt><trkpt lat="42.4961376" lon="-8.2320615"><ele>784.6666666666667</ele><time>2026-04-19T13:40:13.867Z</time></trkpt><trkpt lat="42.4961109" lon="-8.2318114"><ele>784.3333333333333</ele><time>2026-04-19T13:40:14.871Z</time></trkpt><trkpt lat="42.496082" lon="-8.231563"><ele>784.0</ele><time>2026-04-19T13:40:15.87Z</time></trkpt><trkpt lat="42.4960176" lon="-8.2310526"><ele>785.3333333333333</ele><time>2026-04-19T13:40:17.768Z</time></trkpt><trkpt lat="42.49599" lon="-8.2308137"><ele>786.6666666666667</ele><time>2026-04-19T13:40:18.876Z</time></trkpt><trkpt lat="42.4959661" lon="-8.2305834"><ele>788.0</ele><time>2026-04-19T13:40:19.872Z</time></trkpt><trkpt lat="42.4959424" lon="-8.2303534"><ele>789.0</ele><time>2026-04-19T13:40:20.868Z</time></trkpt><trkpt lat="42.4959165" lon="-8.2301251"><ele>790.0</ele><time>2026-04-19T13:40:21.869Z</time></trkpt><trkpt lat="42.4958925" lon="-8.2298981"><ele>791.0</ele><time>2026-04-19T13:40:22.87Z</time></trkpt><trkpt lat="42.4958449" lon="-8.229441"><ele>793.0</ele><time>2026-04-19T13:40:24.763Z</time></trkpt><trkpt lat="42.4958154" lon="-8.2292085"><ele>795.0</ele><time>2026-04-19T13:40:25.866Z</time></trkpt><trkpt lat="42.4957851" lon="-8.2289867"><ele>797.0</ele><time>2026-04-19T13:40:26.867Z</time></trkpt><trkpt lat="42.4957533" lon="-8.2287755"><ele>796.6666666666667</ele><time>2026-04-19T13:40:27.866Z</time></trkpt><trkpt lat="42.4957174" lon="-8.2285691"><ele>796.3333333333333</ele><time>2026-04-19T13:40:28.87Z</time></trkpt><trkpt lat="42.4956706" lon="-8.2283708"><ele>796.0</ele><time>2026-04-19T13:40:29.874Z</time></trkpt><trkpt lat="42.4955389" lon="-8.2279831"><ele>796.0</ele><time>2026-04-19T13:40:31.764Z</time></trkpt><trkpt lat="42.4954595" lon="-8.2277939"><ele>796.0</ele><time>2026-04-19T13:40:32.868Z</time></trkpt><trkpt lat="42.4953759" lon="-8.2276069"><ele>796.0</ele><time>2026-04-19T13:40:33.87Z</time></trkpt><trkpt lat="42.495292" lon="-8.2274354"><ele>798.25</ele><time>2026-04-19T13:40:34.868Z</time></trkpt><trkpt lat="42.4952103" lon="-8.2272834"><ele>800.5</ele><time>2026-04-19T13:40:35.872Z</time></trkpt><trkpt lat="42.4951289" lon="-8.2271592"><ele>802.75</ele><time>2026-04-19T13:40:36.867Z</time></trkpt><trkpt lat="42.4950405" lon="-8.2270422"><ele>805.0</ele><time>2026-04-19T13:40:37.772Z</time></trkpt><trkpt lat="42.4949478" lon="-8.2269287"><ele>805.0</ele><time>2026-04-19T13:40:38.743Z</time></trkpt><trkpt lat="42.4948565" lon="-8.2268209"><ele>805.0</ele><time>2026-04-19T13:40:39.874Z</time></trkpt><trkpt lat="42.4947785" lon="-8.2267349"><ele>805.0</ele><time>2026-04-19T13:40:40.87Z</time></trkpt><trkpt lat="42.4947121" lon="-8.2266754"><ele>805.0</ele><time>2026-04-19T13:40:41.865Z</time></trkpt><trkpt lat="42.4946271" lon="-8.2266441"><ele>805.0</ele><time>2026-04-19T13:40:43.819Z</time></trkpt></trkseg></trk></gpx>